Darstellungsparameter: Aktuell verwendete Einstellungen:
Skalierung der Graphiken ... ?
xyx+y,   Skalierungsfaktor:      Skalierung: Modus: x, Faktor: 1
Darstellungszeitraum ... ?
Vom - - bis: - -   Zeitraum: 21.03.2009 - 20.04.2009
Min/Max/Avg-Anzeige ... ?
Zeige MMA aktuell
Zeige MMA Monat
Zeige MMA alles
Zeige --A aktuell
Zeige --A Monat
Zeige --A alles
Keine MMA-Anzeige
MMA:
Average (ber die Originaldaten)
MMA-Basis: 21.03.2009 - 20.04.2009
Quicknavigation für Darstellung... ?
Tage:      1T, 2T, 3T, 5T -1T -2T -3T -5T +1T +2T +3T +5T
Wochen: 1W, 2W, 3W -1W -2W -3W +1W +2W +3W
Monate: 1M, 3M, 6M -1M -3M -6M +1M +3M +6M
Jahre:    1J, 3J, 5J, 10J -1J -3J -5J -10J +1J +3J +5J +10J
Nutze für die Darstellung ... ?
Originaldaten oder Mittelwerte auf ...
Stundenbasis Tagesbasis Wochenbasis
Monatsbasis Jahresbasis      Datenbasis: Original-Daten
Darstellen als:
Statistik (Auto) Statistik J:M      Darstellung:
Zur Graphik,    zurück zur Übersicht aller Sensoren.
 
Tabellarische Datenbersicht: ?
 
Sensor: Nr:Datum:Temp:Abs-Feuchte:Windchill:Wind:
Aussen-T/F 1 21-03-2009 00:10:17 0.5 C 2.61 g/m*3 0.5 C 0 km/h
2 21-03-2009 00:22:18 0.4 C 2.59 g/m*3 0.4 C 0 km/h
3 21-03-2009 00:34:17 0.2 C 2.51 g/m*3 0.2 C 0 km/h
4 21-03-2009 00:46:17 0.2 C 2.51 g/m*3 0.2 C 0 km/h
5 21-03-2009 00:58:17 0.1 C 2.59 g/m*3 0.1 C 0 km/h
6 21-03-2009 01:10:17 -0.1 C 2.55 g/m*3 -0.1 C 0 km/h
7 21-03-2009 01:22:17 -0.2 C 2.48 g/m*3 -0.2 C 0 km/h
8 21-03-2009 01:34:17 -0.4 C 2.5 g/m*3 -0.4 C 0 km/h
9 21-03-2009 01:46:16 -0.4 C 2.54 g/m*3 -0.4 C 0 km/h
10 21-03-2009 01:58:16 -0.5 C 2.48 g/m*3 -0.5 C 0 km/h
11 21-03-2009 02:10:17 -0.6 C 2.51 g/m*3 -0.6 C 0 km/h
12 21-03-2009 02:22:16 -0.6 C 2.56 g/m*3 -0.6 C 0 km/h
13 21-03-2009 02:34:16 -0.7 C 2.54 g/m*3 -0.7 C 0 km/h
14 21-03-2009 02:47:01 -0.9 C 2.55 g/m*3 -0.9 C 0 km/h
15 21-03-2009 02:59:01 -0.9 C 2.55 g/m*3 -0.9 C 0 km/h
16 21-03-2009 03:11:02 -1 C 2.53 g/m*3 -1 C 0 km/h
17 21-03-2009 03:23:02 -1.3 C 2.48 g/m*3 -1.3 C 0 km/h
18 21-03-2009 03:35:01 -1.4 C 2.51 g/m*3 -1.4 C 0 km/h
19 21-03-2009 03:47:01 -1.4 C 2.51 g/m*3 -1.4 C 0 km/h
20 21-03-2009 03:59:01 -1.5 C 2.49 g/m*3 -1.5 C 0 km/h
21 21-03-2009 04:11:02 -1.5 C 2.49 g/m*3 -1.5 C 0 km/h
22 21-03-2009 04:23:01 -1.4 C 2.59 g/m*3 -1.4 C 0 km/h
23 21-03-2009 04:35:01 -1.4 C 2.55 g/m*3 -1.4 C 0 km/h
24 21-03-2009 04:47:01 -1.3 C 2.57 g/m*3 -1.3 C 0 km/h
25 21-03-2009 04:59:01 -1.1 C 2.65 g/m*3 -1.1 C 0 km/h
Sensor: Nr:Datum:Temp:Abs-Feuchte:Windchill:Wind:
Aussen-T/F 26 21-03-2009 05:11:02 -1.1 C 2.65 g/m*3 -1.1 C 0 km/h
27 21-03-2009 05:23:01 -1.3 C 2.57 g/m*3 -1.3 C 0 km/h
28 21-03-2009 05:35:02 -1.4 C 2.64 g/m*3 -1.4 C 0 km/h
29 21-03-2009 05:47:02 -1.6 C 2.6 g/m*3 -1.6 C 0 km/h
30 21-03-2009 05:59:02 -1.7 C 2.58 g/m*3 -1.7 C 0 km/h
31 21-03-2009 06:11:01 -1.9 C 2.55 g/m*3 -1.9 C 0 km/h
32 21-03-2009 06:23:01 -2.1 C 2.51 g/m*3 -2.1 C 0 km/h
33 21-03-2009 06:35:02 -2.1 C 2.6 g/m*3 -2.1 C 0 km/h
34 21-03-2009 06:47:01 -2.1 C 2.64 g/m*3 -2.1 C 0 km/h
35 21-03-2009 06:59:01 -2.1 C 2.6 g/m*3 -2.1 C 0 km/h
36 21-03-2009 07:11:02 -2.1 C 2.64 g/m*3 -2.1 C 0 km/h
37 21-03-2009 07:23:01 -2.1 C 2.64 g/m*3 -2.1 C 0 km/h
38 21-03-2009 07:35:02 -2 C 2.66 g/m*3 -2 C 0 km/h
39 21-03-2009 07:47:01 -2 C 2.7 g/m*3 -2 C 0 km/h
40 21-03-2009 07:59:01 -1.9 C 2.76 g/m*3 -1.9 C 0 km/h
41 21-03-2009 08:11:01 -1.8 C 2.74 g/m*3 -1.8 C 0 km/h
42 21-03-2009 08:23:01 -1.7 C 2.76 g/m*3 -1.7 C 0 km/h
43 21-03-2009 08:35:01 -1.6 C 2.69 g/m*3 -1.6 C 0 km/h
44 21-03-2009 08:47:02 -1.4 C 2.68 g/m*3 -1.4 C 0 km/h
45 21-03-2009 08:59:02 -1 C 2.71 g/m*3 -1 C 0 km/h
46 21-03-2009 09:11:01 -0.3 C 2.8 g/m*3 -0.3 C 0 km/h
47 21-03-2009 09:23:02 0.2 C 2.75 g/m*3 0.2 C 0 km/h
48 21-03-2009 09:35:01 0.9 C 2.63 g/m*3 0.9 C 0 km/h
49 21-03-2009 09:47:02 1.7 C 2.56 g/m*3 1.7 C 0 km/h
50 21-03-2009 09:59:02 1.9 C 2.59 g/m*3 1.9 C 0 km/h
Sensor: Nr:Datum:Temp:Abs-Feuchte:Windchill:Wind:
Aussen-T/F 51 21-03-2009 10:11:01 2.8 C 2.64 g/m*3 2.8 C 0 km/h
52 21-03-2009 10:23:01 3.2 C 2.59 g/m*3 3.2 C 0 km/h
53 21-03-2009 10:35:02 3.9 C 2.65 g/m*3 3.9 C 0 km/h
54 21-03-2009 10:47:01 4.5 C 2.56 g/m*3 4.5 C 0 km/h
55 21-03-2009 10:59:01 4.8 C 2.48 g/m*3 4.8 C 0 km/h
56 21-03-2009 11:11:02 5.2 C 2.48 g/m*3 5.2 C 0 km/h
57 21-03-2009 11:23:01 5.7 C 2.35 g/m*3 5.7 C 0 km/h
58 21-03-2009 11:35:02 6.2 C 2.21 g/m*3 6.2 C 0 km/h
59 21-03-2009 11:47:01 6.7 C 2.2 g/m*3 6.7 C 0 km/h
60 21-03-2009 11:59:01 7.3 C 1.58 g/m*3 7.3 C 0 km/h
61 21-03-2009 12:11:02 7.8 C 2.04 g/m*3 7.8 C 0 km/h
62 21-03-2009 12:23:01 8.1 C 1.91 g/m*3 8.1 C 0 km/h
63 21-03-2009 12:35:01 8.9 C 1.75 g/m*3 8.9 C 0 km/h
64 21-03-2009 12:47:01 9.3 C 1.8 g/m*3 9.3 C 0 km/h
65 21-03-2009 12:59:01 9.7 C 1.84 g/m*3 9.7 C 0 km/h
66 21-03-2009 13:11:01 10.1 C 1.89 g/m*3 10.1 C 0 km/h
67 21-03-2009 13:23:02 10.5 C 1.94 g/m*3 10.5 C 0 km/h
68 21-03-2009 13:35:01 11.4 C 2.05 g/m*3 11.4 C 0 km/h
69 21-03-2009 13:47:02 12 C 2.13 g/m*3 12 C 0 km/h
70 21-03-2009 13:59:02 12.4 C 2.19 g/m*3 12.4 C 0 km/h
71 21-03-2009 14:11:01 12.7 C 2.23 g/m*3 12.7 C 0 km/h
72 21-03-2009 14:23:01 12.2 C 2.16 g/m*3 12.2 C 0 km/h
73 21-03-2009 14:35:01 13.4 C 2.32 g/m*3 13.4 C 0 km/h
74 21-03-2009 14:47:01 13.7 C 2.37 g/m*3 13.7 C 0 km/h
75 21-03-2009 14:59:01 14.4 C 2.47 g/m*3 14.4 C 0 km/h
Sensor: Nr:Datum:Temp:Abs-Feuchte:Windchill:Wind:
Aussen-T/F 76 21-03-2009 15:11:02 14.9 C 2.55 g/m*3 14.9 C 0 km/h
77 21-03-2009 15:23:01 15.2 C 2.6 g/m*3 15.2 C 0 km/h
78 21-03-2009 15:35:02 15.1 C 2.58 g/m*3 15.1 C 0 km/h
79 21-03-2009 15:47:01 15.8 C 2.69 g/m*3 15.8 C 0 km/h
80 21-03-2009 15:59:01 14.4 C 2.47 g/m*3 14.4 C 0 km/h
81 21-03-2009 16:11:02 14.4 C 2.47 g/m*3 14.4 C 0 km/h
82 21-03-2009 16:23:01 15.5 C 2.64 g/m*3 15.5 C 0 km/h
83 21-03-2009 16:35:01 16.4 C 2.79 g/m*3 16.4 C 0 km/h
84 21-03-2009 16:47:01 16.7 C 2.84 g/m*3 16.7 C 0 km/h
85 21-03-2009 16:59:01 15.9 C 2.71 g/m*3 15.9 C 0 km/h
86 21-03-2009 17:11:01 15.6 C 2.66 g/m*3 15.6 C 0 km/h
87 21-03-2009 17:23:02 15.2 C 2.6 g/m*3 15.2 C 0 km/h
88 21-03-2009 17:35:01 15 C 2.56 g/m*3 15 C 0 km/h
89 21-03-2009 17:47:02 14.6 C 2.5 g/m*3 14.6 C 0 km/h
90 21-03-2009 17:59:02 14 C 2.41 g/m*3 14 C 0 km/h
91 21-03-2009 18:11:01 12.3 C 2.17 g/m*3 12.3 C 0 km/h
92 21-03-2009 18:23:01 11.7 C 2.09 g/m*3 11.7 C 0 km/h
93 21-03-2009 18:35:01 11.1 C 2.01 g/m*3 11.1 C 0 km/h
94 21-03-2009 18:47:01 10.2 C 1.9 g/m*3 10.2 C 0 km/h
95 21-03-2009 18:59:01 9.7 C 1.84 g/m*3 9.7 C 0 km/h
96 21-03-2009 19:11:01 9.3 C 2.25 g/m*3 9.3 C 0 km/h
97 21-03-2009 19:23:02 9 C 2.38 g/m*3 9 C 0 km/h
98 21-03-2009 19:35:01 8.7 C 2.59 g/m*3 8.7 C 0 km/h
99 21-03-2009 19:47:02 8.4 C 2.63 g/m*3 8.4 C 0 km/h
100 21-03-2009 19:59:02 8 C 2.65 g/m*3 8 C 0 km/h
Sensor: Nr:Datum:Temp:Abs-Feuchte:Windchill:Wind:
Aussen-T/F 101 21-03-2009 20:11:01 7.9 C 2.71 g/m*3 7.9 C 0 km/h
102 21-03-2009 20:23:02 7.8 C 2.77 g/m*3 7.8 C 0 km/h
103 21-03-2009 20:35:01 7.6 C 2.82 g/m*3 7.6 C 0 km/h
104 21-03-2009 20:47:02 7.4 C 2.86 g/m*3 7.4 C 0 km/h
105 21-03-2009 20:59:02 7.1 C 2.96 g/m*3 7.1 C 0 km/h
106 21-03-2009 21:11:01 6.9 C 2.93 g/m*3 6.9 C 0 km/h
107 21-03-2009 21:23:02 6.6 C 3.02 g/m*3 6.6 C 0 km/h
108 21-03-2009 21:35:01 6.4 C 3.05 g/m*3 6.4 C 0 km/h
109 21-03-2009 21:47:02 6 C 3.12 g/m*3 6 C 0 km/h
110 21-03-2009 21:59:02 5.6 C 3.18 g/m*3 5.6 C 0 km/h
111 21-03-2009 22:11:44 5.2 C 3.17 g/m*3 5.2 C 0 km/h
112 21-03-2009 22:23:44 4.9 C 3.24 g/m*3 4.9 C 0 km/h
113 21-03-2009 22:35:01 4.7 C 3.2 g/m*3 4.7 C 0 km/h
114 21-03-2009 22:47:07 4.5 C 3.16 g/m*3 4.5 C 0 km/h
115 21-03-2009 22:59:07 4.3 C 3.11 g/m*3 4.3 C 0 km/h
116 21-03-2009 23:11:07 4.3 C 2.98 g/m*3 4.3 C 0 km/h
117 21-03-2009 23:23:07 4.1 C 3.01 g/m*3 4.1 C 0 km/h
118 21-03-2009 23:35:07 3.9 C 3.03 g/m*3 3.9 C 0 km/h
119 21-03-2009 23:47:07 3.6 C 3.03 g/m*3 3.6 C 0 km/h
120 21-03-2009 23:59:07 3.4 C 3.05 g/m*3 3.4 C 0 km/h
121 22-03-2009 00:11:07 3.2 C 3.07 g/m*3 3.2 C 0 km/h
122 22-03-2009 00:23:07 3 C 3.03 g/m*3 3 C 0 km/h
123 22-03-2009 00:35:07 2.8 C 3.11 g/m*3 2.8 C 0 km/h
124 22-03-2009 00:47:07 2.6 C 3.07 g/m*3 2.6 C 0 km/h
125 22-03-2009 00:59:07 2.5 C 3.05 g/m*3 2.5 C 0 km/h
Sensor: Nr:Datum:Temp:Abs-Feuchte:Windchill:Wind:
Aussen-T/F 126 22-03-2009 01:11:07 2.4 C 3.08 g/m*3 2.4 C 0 km/h
127 22-03-2009 01:23:07 2.2 C 3.04 g/m*3 2.2 C 0 km/h
128 22-03-2009 01:35:07 2 C 3.06 g/m*3 2 C 0 km/h
129 22-03-2009 01:47:07 2 C 3.06 g/m*3 2 C 0 km/h
130 22-03-2009 01:59:07 1.9 C 3.09 g/m*3 1.9 C 0 km/h
131 22-03-2009 02:11:07 1.8 C 3.12 g/m*3 1.8 C 0 km/h
132 22-03-2009 02:23:08 1.5 C 3.12 g/m*3 1.5 C 0 km/h
133 22-03-2009 02:35:08 1.4 C 3.15 g/m*3 1.4 C 0 km/h
134 22-03-2009 02:47:08 1.2 C 3.1 g/m*3 1.2 C 0 km/h
135 22-03-2009 02:59:08 1.1 C 3.14 g/m*3 1.1 C 0 km/h
136 22-03-2009 03:11:08 1.4 C 3.09 g/m*3 1.4 C 0 km/h
137 22-03-2009 03:23:08 1.4 C 3.04 g/m*3 1.4 C 0 km/h
138 22-03-2009 03:35:08 1.1 C 3.03 g/m*3 1.1 C 0 km/h
139 22-03-2009 03:47:08 0.9 C 3.09 g/m*3 0.9 C 0 km/h
140 22-03-2009 03:59:08 0.7 C 3.1 g/m*3 0.7 C 0 km/h
141 22-03-2009 04:11:08 0.5 C 3.16 g/m*3 0.5 C 0 km/h
142 22-03-2009 04:23:08 0.6 C 3.13 g/m*3 0.6 C 0 km/h
143 22-03-2009 04:35:08 0.6 C 3.08 g/m*3 0.6 C 0 km/h
144 22-03-2009 04:47:08 0.6 C 3.13 g/m*3 0.6 C 0 km/h
145 22-03-2009 04:59:08 0.3 C 3.07 g/m*3 0.3 C 0 km/h
146 22-03-2009 05:11:08 0.1 C 3.12 g/m*3 0.1 C 0 km/h
147 22-03-2009 05:23:08 0.1 C 3.12 g/m*3 0.1 C 0 km/h
148 22-03-2009 05:35:08 0.3 C 3.12 g/m*3 0.3 C 0 km/h
149 22-03-2009 05:47:08 -0.1 C 3.08 g/m*3 -0.1 C 0 km/h
150 22-03-2009 05:59:08 -0.3 C 3.13 g/m*3 -0.3 C 0 km/h
Sensor: Nr:Datum:Temp:Abs-Feuchte:Windchill:Wind:
Aussen-T/F 151 22-03-2009 06:11:08 -0.4 C 3.16 g/m*3 -0.4 C 0 km/h
152 22-03-2009 06:23:08 -0.4 C 3.2 g/m*3 -0.4 C 0 km/h
153 22-03-2009 06:35:09 -0.4 C 3.2 g/m*3 -0.4 C 0 km/h
154 22-03-2009 06:47:09 -0.4 C 3.2 g/m*3 -0.4 C 0 km/h
155 22-03-2009 06:59:09 -0.3 C 3.27 g/m*3 -0.3 C 0 km/h
156 22-03-2009 07:11:07 -0.3 C 3.23 g/m*3 -0.3 C 0 km/h
157 22-03-2009 07:23:07 0 C 3.29 g/m*3 0 C 0 km/h
158 22-03-2009 07:35:07 0.3 C 3.31 g/m*3 0.3 C 0 km/h
159 22-03-2009 07:47:06 0.7 C 3.41 g/m*3 0.7 C 0 km/h
160 22-03-2009 07:59:06 1 C 3.43 g/m*3 1 C 0 km/h
161 22-03-2009 08:11:07 1.1 C 3.5 g/m*3 1.1 C 0 km/h
162 22-03-2009 08:23:06 1.1 C 3.5 g/m*3 1.1 C 0 km/h
163 22-03-2009 08:35:06 1.4 C 3.57 g/m*3 1.4 C 0 km/h
164 22-03-2009 08:47:06 1.6 C 3.57 g/m*3 1.6 C 0 km/h
165 22-03-2009 08:59:06 1.7 C 3.7 g/m*3 1.7 C 0 km/h
166 22-03-2009 09:11:06 1.8 C 3.78 g/m*3 1.8 C 0 km/h
167 22-03-2009 09:23:06 1.9 C 3.97 g/m*3 1.9 C 0 km/h
168 22-03-2009 09:35:05 2.1 C 4.03 g/m*3 2.1 C 0 km/h
169 22-03-2009 09:47:06 2.3 C 4.03 g/m*3 2.3 C 0 km/h
170 22-03-2009 09:59:06 2.1 C 3.86 g/m*3 2.1 C 0 km/h
171 22-03-2009 10:11:05 2.5 C 4.02 g/m*3 2.5 C 0 km/h
172 22-03-2009 10:23:05 2.5 C 3.97 g/m*3 2.5 C 0 km/h
173 22-03-2009 10:35:05 2.7 C 4.02 g/m*3 2.7 C 0 km/h
174 22-03-2009 10:47:05 2.8 C 3.99 g/m*3 2.8 C 0 km/h
175 22-03-2009 10:59:05 3.1 C 4.01 g/m*3 3.1 C 0 km/h
Sensor: Nr:Datum:Temp:Abs-Feuchte:Windchill:Wind:
Aussen-T/F 176 22-03-2009 11:11:04 3.3 C 4 g/m*3 3.3 C 0 km/h
177 22-03-2009 11:23:05 3.7 C 4.05 g/m*3 3.7 C 0 km/h
178 22-03-2009 11:35:04 4.1 C 4.16 g/m*3 4.1 C 0 km/h
179 22-03-2009 11:47:04 4.4 C 4.31 g/m*3 4.4 C 0 km/h
180 22-03-2009 11:59:04 5 C 4.69 g/m*3 5 C 0 km/h
181 22-03-2009 12:11:04 5.8 C 5.37 g/m*3 5.8 C 0 km/h
182 22-03-2009 12:23:04 6.2 C 5.44 g/m*3 6.2 C 0 km/h
183 22-03-2009 12:35:04 6.7 C 5.47 g/m*3 6.7 C 0 km/h
184 22-03-2009 12:47:04 7 C 5.27 g/m*3 7 C 0 km/h
185 22-03-2009 12:59:04 7.7 C 5.35 g/m*3 7.7 C 0 km/h
186 22-03-2009 13:11:04 8.3 C 5.14 g/m*3 8.3 C 0 km/h
187 22-03-2009 13:23:03 8.9 C 4.56 g/m*3 8.9 C 0 km/h
188 22-03-2009 13:35:03 9.5 C 4.28 g/m*3 9.5 C 0 km/h
189 22-03-2009 13:47:03 9.5 C 4.19 g/m*3 9.5 C 0 km/h
190 22-03-2009 13:59:03 9 C 4.14 g/m*3 9 C 0 km/h
191 22-03-2009 14:11:03 9.5 C 4.1 g/m*3 9.5 C 0 km/h
192 22-03-2009 14:23:03 9.3 C 4.04 g/m*3 9.3 C 0 km/h
193 22-03-2009 14:35:02 9.6 C 4.03 g/m*3 9.6 C 0 km/h
194 22-03-2009 14:47:03 9.9 C 3.92 g/m*3 9.9 C 0 km/h
195 22-03-2009 14:59:03 10 C 3.76 g/m*3 10 C 0 km/h
196 22-03-2009 15:11:02 10.3 C 3.83 g/m*3 10.3 C 0 km/h
197 22-03-2009 15:23:02 10.4 C 3.76 g/m*3 10.4 C 0 km/h
198 22-03-2009 15:35:02 10.2 C 3.81 g/m*3 10.2 C 0 km/h
199 22-03-2009 15:47:02 10.4 C 3.76 g/m*3 10.4 C 0 km/h
200 22-03-2009 15:59:02 10 C 3.57 g/m*3 10 C 0 km/h
Sensor: Nr:Datum:Temp:Abs-Feuchte:Windchill:Wind:
Aussen-T/F 201 22-03-2009 16:11:02 10.2 C 3.71 g/m*3 10.2 C 0 km/h
202 22-03-2009 16:23:01 10.2 C 3.71 g/m*3 10.2 C 0 km/h
203 22-03-2009 16:35:02 10.5 C 3.69 g/m*3 10.5 C 0 km/h
204 22-03-2009 16:47:01 10.7 C 3.54 g/m*3 10.7 C 0 km/h
205 22-03-2009 16:59:01 10.4 C 3.47 g/m*3 10.4 C 0 km/h
206 22-03-2009 17:11:01 10.7 C 3.54 g/m*3 10.7 C 0 km/h
207 22-03-2009 17:23:01 10.5 C 3.59 g/m*3 10.5 C 0 km/h
208 22-03-2009 17:35:01 10.3 C 3.54 g/m*3 10.3 C 0 km/h
209 22-03-2009 17:47:01 10 C 3.57 g/m*3 10 C 0 km/h
210 22-03-2009 17:59:01 9.9 C 3.64 g/m*3 9.9 C 0 km/h
211 22-03-2009 18:11:00 9.7 C 3.69 g/m*3 9.7 C 0 km/h
212 22-03-2009 18:23:01 9.7 C 3.69 g/m*3 9.7 C 0 km/h
213 22-03-2009 18:35:00 9.5 C 3.64 g/m*3 9.5 C 0 km/h
214 22-03-2009 18:47:00 9.3 C 3.68 g/m*3 9.3 C 0 km/h
215 22-03-2009 18:59:00 9.3 C 3.68 g/m*3 9.3 C 0 km/h
216 22-03-2009 19:11:00 9.1 C 3.64 g/m*3 9.1 C 0 km/h
217 22-03-2009 19:23:00 8.9 C 3.77 g/m*3 8.9 C 0 km/h
218 22-03-2009 19:35:00 8.9 C 3.77 g/m*3 8.9 C 0 km/h
219 22-03-2009 19:58:59 8.6 C 3.78 g/m*3 8.6 C 0 km/h
220 22-03-2009 19:59:00 8.4 C 3.82 g/m*3 8.4 C 0 km/h
221 22-03-2009 20:11:00 8.4 C 3.82 g/m*3 8.4 C 0 km/h
222 22-03-2009 20:23:59 8.4 C 3.82 g/m*3 8.4 C 0 km/h
223 22-03-2009 20:35:59 8.4 C 3.82 g/m*3 8.4 C 0 km/h
224 22-03-2009 20:47:59 8.4 C 3.82 g/m*3 8.4 C 0 km/h
225 22-03-2009 20:59:58 8.5 C 3.84 g/m*3 8.5 C 0 km/h
Sensor: Nr:Datum:Temp:Abs-Feuchte:Windchill:Wind:
Aussen-T/F 226 22-03-2009 21:11:58 8.4 C 3.82 g/m*3 8.4 C 0 km/h
227 22-03-2009 21:23:59 8.3 C 3.88 g/m*3 8.3 C 0 km/h
228 22-03-2009 21:35:59 8.2 C 3.85 g/m*3 8.2 C 0 km/h
229 22-03-2009 21:47:59 8.1 C 3.83 g/m*3 8.1 C 0 km/h
230 22-03-2009 22:00:59 8 C 3.89 g/m*3 8 C 0 km/h
231 22-03-2009 22:12:59 7.7 C 4.3 g/m*3 7.7 C 0 km/h
232 22-03-2009 22:24:59 7.7 C 4.38 g/m*3 7.7 C 0 km/h
233 22-03-2009 22:36:59 7.5 C 4.64 g/m*3 7.5 C 0 km/h
234 22-03-2009 22:48:59 7.3 C 4.66 g/m*3 7.3 C 0 km/h
235 22-03-2009 23:00:59 7.5 C 4.64 g/m*3 7.5 C 0 km/h
236 22-03-2009 23:12:59 7.5 C 4.56 g/m*3 7.5 C 0 km/h
237 22-03-2009 23:24:59 7.6 C 4.59 g/m*3 7.6 C 0 km/h
238 22-03-2009 23:37:00 7.5 C 4.72 g/m*3 7.5 C 0 km/h
239 22-03-2009 23:49:00 7.6 C 4.67 g/m*3 7.6 C 0 km/h
240 23-03-2009 00:01:00 7.5 C 4.64 g/m*3 7.5 C 0 km/h
241 23-03-2009 00:13:00 7.5 C 4.64 g/m*3 7.5 C 0 km/h
242 23-03-2009 00:24:00 7.5 C 4.64 g/m*3 7.5 C 0 km/h
243 23-03-2009 00:36:00 7.5 C 4.72 g/m*3 7.5 C 0 km/h
244 23-03-2009 00:48:00 7.5 C 4.72 g/m*3 7.5 C 0 km/h
245 23-03-2009 01:00:00 7.5 C 4.72 g/m*3 7.5 C 0 km/h
246 23-03-2009 01:12:00 7.5 C 4.64 g/m*3 7.5 C 0 km/h
247 23-03-2009 01:24:00 7.5 C 4.64 g/m*3 7.5 C 0 km/h
248 23-03-2009 01:36:00 7.6 C 4.67 g/m*3 7.6 C 0 km/h
249 23-03-2009 01:48:00 7.6 C 4.67 g/m*3 7.6 C 0 km/h
250 23-03-2009 02:00:00 7.6 C 4.67 g/m*3 7.6 C 0 km/h
Sensor: Nr:Datum:Temp:Abs-Feuchte:Windchill:Wind:
Aussen-T/F 251 23-03-2009 02:12:00 7.5 C 4.64 g/m*3 7.5 C 0 km/h
252 23-03-2009 02:24:00 7.5 C 4.72 g/m*3 7.5 C 0 km/h
253 23-03-2009 02:36:00 7.6 C 4.75 g/m*3 7.6 C 0 km/h
254 23-03-2009 02:48:00 7.6 C 4.75 g/m*3 7.6 C 0 km/h
255 23-03-2009 03:00:00 7.7 C 4.78 g/m*3 7.7 C 0 km/h
256 23-03-2009 03:12:00 7.6 C 4.75 g/m*3 7.6 C 0 km/h
257 23-03-2009 03:24:00 7.5 C 4.72 g/m*3 7.5 C 0 km/h
258 23-03-2009 03:36:01 7.5 C 4.72 g/m*3 7.5 C 0 km/h
259 23-03-2009 03:48:01 7.6 C 4.75 g/m*3 7.6 C 0 km/h
260 23-03-2009 04:00:01 7.7 C 4.87 g/m*3 7.7 C 0 km/h
261 23-03-2009 04:12:01 7.9 C 4.93 g/m*3 7.9 C 0 km/h
262 23-03-2009 04:24:01 7.8 C 4.9 g/m*3 7.8 C 0 km/h
263 23-03-2009 04:36:01 7.8 C 4.9 g/m*3 7.8 C 0 km/h
264 23-03-2009 04:48:01 7.8 C 4.9 g/m*3 7.8 C 0 km/h
265 23-03-2009 05:00:01 7.8 C 4.9 g/m*3 7.8 C 0 km/h
266 23-03-2009 05:12:01 7.8 C 4.9 g/m*3 7.8 C 0 km/h
267 23-03-2009 05:24:01 7.8 C 4.9 g/m*3 7.8 C 0 km/h
268 23-03-2009 05:36:01 7.8 C 4.9 g/m*3 7.8 C 0 km/h
269 23-03-2009 05:48:01 7.9 C 4.85 g/m*3 7.9 C 0 km/h
270 23-03-2009 06:00:01 7.7 C 4.87 g/m*3 7.7 C 0 km/h
271 23-03-2009 06:12:01 7.6 C 4.83 g/m*3 7.6 C 0 km/h
272 23-03-2009 06:24:01 7.6 C 4.83 g/m*3 7.6 C 0 km/h
273 23-03-2009 06:36:01 7.5 C 4.8 g/m*3 7.5 C 0 km/h
274 23-03-2009 06:48:01 7.5 C 4.88 g/m*3 7.5 C 0 km/h
275 23-03-2009 07:00:59 7.6 C 4.83 g/m*3 7.6 C 0 km/h
Sensor: Nr:Datum:Temp:Abs-Feuchte:Windchill:Wind:
Aussen-T/F 276 23-03-2009 07:12:59 7.6 C 4.83 g/m*3 7.6 C 0 km/h
277 23-03-2009 07:24:59 7.6 C 4.91 g/m*3 7.6 C 0 km/h
278 23-03-2009 07:36:59 7.6 C 4.83 g/m*3 7.6 C 0 km/h
279 23-03-2009 07:48:58 7.7 C 4.87 g/m*3 7.7 C 0 km/h
280 23-03-2009 08:00:59 7.9 C 4.93 g/m*3 7.9 C 0 km/h
281 23-03-2009 08:12:59 8 C 4.8 g/m*3 8 C 0 km/h
282 23-03-2009 08:24:58 8.1 C 4.83 g/m*3 8.1 C 0 km/h
283 23-03-2009 08:36:58 8.1 C 4.83 g/m*3 8.1 C 0 km/h
284 23-03-2009 08:48:57 8.2 C 4.86 g/m*3 8.2 C 0 km/h
285 23-03-2009 09:00:58 8.2 C 4.86 g/m*3 8.2 C 0 km/h
286 23-03-2009 09:12:58 8.2 C 4.86 g/m*3 8.2 C 0 km/h
287 23-03-2009 09:24:58 8.3 C 4.89 g/m*3 8.3 C 0 km/h
288 23-03-2009 09:36:57 8.4 C 4.75 g/m*3 8.4 C 0 km/h
289 23-03-2009 09:48:58 8.7 C 4.76 g/m*3 8.7 C 0 km/h
290 23-03-2009 10:00:57 8.9 C 4.56 g/m*3 8.9 C 0 km/h
291 23-03-2009 10:12:57 9 C 4.41 g/m*3 9 C 0 km/h
292 23-03-2009 10:24:57 9.1 C 4.44 g/m*3 9.1 C 0 km/h
293 23-03-2009 10:36:56 9.2 C 4.38 g/m*3 9.2 C 0 km/h
294 23-03-2009 10:48:57 9.3 C 4.31 g/m*3 9.3 C 0 km/h
295 23-03-2009 11:00:57 9.4 C 4.25 g/m*3 9.4 C 0 km/h
296 23-03-2009 11:12:57 9.7 C 4.24 g/m*3 9.7 C 0 km/h
297 23-03-2009 11:24:56 9.8 C 4.18 g/m*3 9.8 C 0 km/h
298 23-03-2009 11:36:57 9.9 C 4.11 g/m*3 9.9 C 0 km/h
299 23-03-2009 11:48:56 9.9 C 4.01 g/m*3 9.9 C 0 km/h
300 23-03-2009 12:00:56 10.2 C 4 g/m*3 10.2 C 0 km/h
Sensor: Nr:Datum:Temp:Abs-Feuchte:Windchill:Wind:
Aussen-T/F 301 23-03-2009 12:12:56 10.7 C 3.93 g/m*3 10.7 C 0 km/h
302 23-03-2009 12:24:56 10.8 C 3.95 g/m*3 10.8 C 0 km/h
303 23-03-2009 12:36:56 11.6 C 3.85 g/m*3 11.6 C 0 km/h
304 23-03-2009 12:48:55 12 C 3.73 g/m*3 12 C 0 km/h
305 23-03-2009 13:00:55 11.8 C 3.79 g/m*3 11.8 C 0 km/h
306 23-03-2009 13:12:55 11.6 C 3.85 g/m*3 11.6 C 0 km/h
307 23-03-2009 13:24:56 11.9 C 3.92 g/m*3 11.9 C 0 km/h
308 23-03-2009 13:36:55 11.9 C 3.92 g/m*3 11.9 C 0 km/h
309 23-03-2009 13:48:55 11.6 C 3.95 g/m*3 11.6 C 0 km/h
310 23-03-2009 14:00:55 11.6 C 4.05 g/m*3 11.6 C 0 km/h
311 23-03-2009 14:12:55 11.6 C 4.16 g/m*3 11.6 C 0 km/h
312 23-03-2009 14:24:55 11.4 C 4.11 g/m*3 11.4 C 0 km/h
313 23-03-2009 14:36:54 11.3 C 4.08 g/m*3 11.3 C 0 km/h
314 23-03-2009 14:48:54 11.3 C 4.08 g/m*3 11.3 C 0 km/h
315 23-03-2009 15:00:55 10.4 C 4.53 g/m*3 10.4 C 0 km/h
316 23-03-2009 15:12:55 9.8 C 4.82 g/m*3 9.8 C 0 km/h
317 23-03-2009 15:24:54 9.5 C 5.1 g/m*3 9.5 C 0 km/h
318 23-03-2009 15:36:54 9.6 C 5.13 g/m*3 9.6 C 0 km/h
319 23-03-2009 15:48:54 9.9 C 5.14 g/m*3 9.9 C 0 km/h
320 23-03-2009 16:00:54 9.6 C 5.31 g/m*3 9.6 C 0 km/h
321 23-03-2009 16:12:54 9.7 C 5.25 g/m*3 9.7 C 0 km/h
322 23-03-2009 16:24:53 9.5 C 5.37 g/m*3 9.5 C 0 km/h
323 23-03-2009 16:36:53 9.5 C 5.28 g/m*3 9.5 C 0 km/h
324 23-03-2009 16:48:53 9.4 C 5.34 g/m*3 9.4 C 0 km/h
325 23-03-2009 17:00:53 9.2 C 5.36 g/m*3 9.2 C 0 km/h
Sensor: Nr:Datum:Temp:Abs-Feuchte:Windchill:Wind:
Aussen-T/F 326 23-03-2009 17:12:53 9.1 C 5.41 g/m*3 9.1 C 0 km/h
327 23-03-2009 17:24:53 9.1 C 5.32 g/m*3 9.1 C 0 km/h
328 23-03-2009 17:36:53 8.6 C 5.59 g/m*3 8.6 C 0 km/h
329 23-03-2009 17:48:53 8.5 C 5.72 g/m*3 8.5 C 0 km/h
330 23-03-2009 18:00:52 8.3 C 5.9 g/m*3 8.3 C 0 km/h
331 23-03-2009 18:12:52 7.9 C 6.08 g/m*3 7.9 C 0 km/h
332 23-03-2009 18:24:53 7.6 C 6.12 g/m*3 7.6 C 0 km/h
333 23-03-2009 18:36:52 7.6 C 6.2 g/m*3 7.6 C 0 km/h
334 23-03-2009 18:48:52 7.7 C 6.16 g/m*3 7.7 C 0 km/h
335 23-03-2009 19:00:52 7.8 C 6.2 g/m*3 7.8 C 0 km/h
336 23-03-2009 19:12:52 7.7 C 6.08 g/m*3 7.7 C 0 km/h
337 23-03-2009 19:24:52 7.6 C 6.12 g/m*3 7.6 C 0 km/h
338 23-03-2009 19:36:52 7.4 C 6.12 g/m*3 7.4 C 0 km/h
339 23-03-2009 19:48:51 4.4 C 4.83 g/m*3 4.4 C 0 km/h
340 23-03-2009 20:00:52 3.9 C 5.18 g/m*3 3.9 C 0 km/h
341 23-03-2009 20:12:52 3.8 C 5.27 g/m*3 3.8 C 0 km/h
342 23-03-2009 20:24:51 3.6 C 5.26 g/m*3 3.6 C 0 km/h
343 23-03-2009 20:36:51 3.3 C 5.22 g/m*3 3.3 C 0 km/h
344 23-03-2009 20:48:51 3.5 C 5.35 g/m*3 3.5 C 0 km/h
345 23-03-2009 21:00:50 3.5 C 5.35 g/m*3 3.5 C 0 km/h
346 23-03-2009 21:12:50 3.5 C 5.23 g/m*3 3.5 C 0 km/h
347 23-03-2009 21:24:51 3.8 C 5.27 g/m*3 3.8 C 0 km/h
348 23-03-2009 21:36:51 3.8 C 5.14 g/m*3 3.8 C 0 km/h
349 23-03-2009 21:48:50 3.6 C 4.95 g/m*3 3.6 C 0 km/h
350 23-03-2009 22:00:51 3.7 C 4.92 g/m*3 3.7 C 0 km/h
Sensor: Nr:Datum:Temp:Abs-Feuchte:Windchill:Wind:
Aussen-T/F 351 23-03-2009 22:12:51 3.8 C 4.77 g/m*3 3.8 C 0 km/h
352 23-03-2009 22:24:50 3.7 C 4.67 g/m*3 3.7 C 0 km/h
353 23-03-2009 22:36:50 3.5 C 4.61 g/m*3 3.5 C 0 km/h
354 23-03-2009 22:49:50 3.7 C 4.55 g/m*3 3.7 C 0 km/h
355 23-03-2009 23:01:50 3.6 C 4.39 g/m*3 3.6 C 0 km/h
356 23-03-2009 23:13:50 3.5 C 4.43 g/m*3 3.5 C 0 km/h
357 23-03-2009 23:25:50 3.3 C 4.49 g/m*3 3.3 C 0 km/h
358 23-03-2009 23:37:50 3.3 C 4.49 g/m*3 3.3 C 0 km/h
359 23-03-2009 23:49:50 3.1 C 4.31 g/m*3 3.1 C 0 km/h
360 24-03-2009 00:01:50 3.1 C 4.31 g/m*3 3.1 C 0 km/h
361 24-03-2009 00:13:50 2.9 C 4.25 g/m*3 2.9 C 0 km/h
362 24-03-2009 00:25:50 2.9 C 4.25 g/m*3 2.9 C 0 km/h
363 24-03-2009 00:37:51 3 C 4.04 g/m*3 3 C 0 km/h
364 24-03-2009 00:49:51 3.1 C 4.07 g/m*3 3.1 C 0 km/h
365 24-03-2009 01:01:51 3.1 C 4.01 g/m*3 3.1 C 0 km/h
366 24-03-2009 01:13:51 2.8 C 4.05 g/m*3 2.8 C 0 km/h
367 24-03-2009 01:25:51 2.5 C 4.08 g/m*3 2.5 C 0 km/h
368 24-03-2009 01:37:51 2.4 C 4.11 g/m*3 2.4 C 0 km/h
369 24-03-2009 01:49:51 2.6 C 4.17 g/m*3 2.6 C 0 km/h
370 24-03-2009 02:01:51 2.7 C 4.14 g/m*3 2.7 C 0 km/h
371 24-03-2009 02:13:51 3 C 4.1 g/m*3 3 C 0 km/h
372 24-03-2009 02:25:51 3.3 C 4.06 g/m*3 3.3 C 0 km/h
373 24-03-2009 02:37:51 3.3 C 4.06 g/m*3 3.3 C 0 km/h
374 24-03-2009 02:49:51 3.5 C 4 g/m*3 3.5 C 0 km/h
375 24-03-2009 03:01:51 3.6 C 4.02 g/m*3 3.6 C 0 km/h
Sensor: Nr:Datum:Temp:Abs-Feuchte:Windchill:Wind:
Aussen-T/F 376 24-03-2009 03:13:51 3.8 C 3.95 g/m*3 3.8 C 0 km/h
377 24-03-2009 03:25:51 3.2 C 4.16 g/m*3 3.2 C 0 km/h
378 24-03-2009 03:37:51 2.8 C 4.46 g/m*3 2.8 C 0 km/h
379 24-03-2009 03:49:51 2.7 C 4.49 g/m*3 2.7 C 0 km/h
380 24-03-2009 04:01:51 2.6 C 4.51 g/m*3 2.6 C 0 km/h
381 24-03-2009 04:13:51 2.7 C 4.54 g/m*3 2.7 C 0 km/h
382 24-03-2009 04:25:51 3 C 4.46 g/m*3 3 C 0 km/h
383 24-03-2009 04:37:52 3.1 C 4.31 g/m*3 3.1 C 0 km/h
384 24-03-2009 04:49:52 3.3 C 4.25 g/m*3 3.3 C 0 km/h
385 24-03-2009 05:01:52 2.8 C 4.34 g/m*3 2.8 C 0 km/h
386 24-03-2009 05:13:52 2.9 C 4.49 g/m*3 2.9 C 0 km/h
387 24-03-2009 05:25:52 3 C 4.22 g/m*3 3 C 0 km/h
388 24-03-2009 05:37:52 3.2 C 4.22 g/m*3 3.2 C 0 km/h
389 24-03-2009 05:49:52 3.1 C 4.19 g/m*3 3.1 C 0 km/h
390 24-03-2009 06:01:52 3.1 C 4.13 g/m*3 3.1 C 0 km/h
391 24-03-2009 06:13:52 3.2 C 4.04 g/m*3 3.2 C 0 km/h
392 24-03-2009 06:25:52 3.1 C 4.07 g/m*3 3.1 C 0 km/h
393 24-03-2009 06:37:52 3.1 C 4.13 g/m*3 3.1 C 0 km/h
394 24-03-2009 06:49:52 3.1 C 4.25 g/m*3 3.1 C 0 km/h
395 24-03-2009 07:01:50 3.1 C 4.25 g/m*3 3.1 C 0 km/h
396 24-03-2009 07:13:50 3.2 C 4.28 g/m*3 3.2 C 0 km/h
397 24-03-2009 07:25:50 3.3 C 4.25 g/m*3 3.3 C 0 km/h
398 24-03-2009 07:37:50 3.3 C 4.19 g/m*3 3.3 C 0 km/h
399 24-03-2009 07:49:50 3.5 C 4.24 g/m*3 3.5 C 0 km/h
400 24-03-2009 08:01:51 3.7 C 4.24 g/m*3 3.7 C 0 km/h
Sensor: Nr:Datum:Temp:Abs-Feuchte:Windchill:Wind:
Aussen-T/F 401 24-03-2009 08:13:50 3.7 C 4.24 g/m*3 3.7 C 0 km/h
402 24-03-2009 08:25:50 3.7 C 4.11 g/m*3 3.7 C 0 km/h
403 24-03-2009 08:37:49 4.2 C 4.06 g/m*3 4.2 C 0 km/h
404 24-03-2009 08:49:49 4.3 C 3.89 g/m*3 4.3 C 0 km/h
405 24-03-2009 09:01:49 4.1 C 3.84 g/m*3 4.1 C 0 km/h
406 24-03-2009 09:13:49 4.2 C 3.74 g/m*3 4.2 C 0 km/h
407 24-03-2009 09:25:49 4.4 C 3.79 g/m*3 4.4 C 0 km/h
408 24-03-2009 09:37:49 4.6 C 3.64 g/m*3 4.6 C 0 km/h
409 24-03-2009 09:49:48 4.8 C 3.55 g/m*3 4.8 C 0 km/h
410 24-03-2009 10:01:49 5 C 3.6 g/m*3 5 C 0 km/h
411 24-03-2009 10:13:48 5.6 C 3.68 g/m*3 5.6 C 0 km/h
412 24-03-2009 10:25:48 5.9 C 3.53 g/m*3 5.9 C 0 km/h
413 24-03-2009 10:37:48 5 C 3.74 g/m*3 5 C 0 km/h
414 24-03-2009 10:49:48 3.2 C 4.34 g/m*3 3.2 C 0 km/h
415 24-03-2009 11:01:48 3.3 C 4.79 g/m*3 3.3 C 0 km/h
416 24-03-2009 11:13:47 4.3 C 5.25 g/m*3 4.3 C 0 km/h
417 24-03-2009 11:25:47 4.6 C 5.16 g/m*3 4.6 C 0 km/h
418 24-03-2009 11:37:47 5.1 C 4.99 g/m*3 5.1 C 0 km/h
419 24-03-2009 11:49:47 5.5 C 4.57 g/m*3 5.5 C 0 km/h
420 24-03-2009 12:01:48 4.4 C 4.51 g/m*3 4.4 C 0 km/h
421 24-03-2009 12:13:47 5.1 C 4.92 g/m*3 5.1 C 0 km/h
422 24-03-2009 12:25:47 5.9 C 4.9 g/m*3 5.9 C 0 km/h
423 24-03-2009 12:37:47 6.4 C 4.32 g/m*3 6.4 C 0 km/h
424 24-03-2009 12:49:47 6.8 C 4.44 g/m*3 6.8 C 0 km/h
425 24-03-2009 13:01:49 7.1 C 4.13 g/m*3 7.1 C 0 km/h
Sensor: Nr:Datum:Temp:Abs-Feuchte:Windchill:Wind:
Aussen-T/F 426 24-03-2009 13:13:46 7.1 C 3.98 g/m*3 7.1 C 0 km/h
427 24-03-2009 13:25:46 6.9 C 3.62 g/m*3 6.9 C 0 km/h
428 24-03-2009 13:37:46 6.9 C 3.54 g/m*3 6.9 C 0 km/h
429 24-03-2009 13:49:46 6.6 C 3.62 g/m*3 6.6 C 0 km/h
430 24-03-2009 14:01:46 5.6 C 4.1 g/m*3 5.6 C 0 km/h
431 24-03-2009 14:13:46 5.4 C 4.47 g/m*3 5.4 C 0 km/h
432 24-03-2009 14:25:46 6.8 C 4.36 g/m*3 6.8 C 0 km/h
433 24-03-2009 14:37:46 7.9 C 4.19 g/m*3 7.9 C 0 km/h
434 24-03-2009 14:49:45 7 C 3.87 g/m*3 7 C 0 km/h
435 24-03-2009 15:01:46 6.1 C 4.31 g/m*3 6.1 C 0 km/h
436 24-03-2009 15:13:45 4.6 C 4.5 g/m*3 4.6 C 0 km/h
437 24-03-2009 15:25:45 4.6 C 4.96 g/m*3 4.6 C 0 km/h
438 24-03-2009 15:37:45 5.8 C 5.3 g/m*3 5.8 C 0 km/h
439 24-03-2009 15:49:45 6.4 C 5.22 g/m*3 6.4 C 0 km/h
440 24-03-2009 16:01:45 5.5 C 4.71 g/m*3 5.5 C 0 km/h
441 24-03-2009 16:13:45 5 C 4.89 g/m*3 5 C 0 km/h
442 24-03-2009 16:25:45 5.3 C 4.99 g/m*3 5.3 C 0 km/h
443 24-03-2009 16:37:44 6.5 C 5.02 g/m*3 6.5 C 0 km/h
444 24-03-2009 16:49:44 5 C 4.55 g/m*3 5 C 0 km/h
445 24-03-2009 17:01:44 4.7 C 4.66 g/m*3 4.7 C 0 km/h
446 24-03-2009 17:13:44 5.1 C 4.38 g/m*3 5.1 C 0 km/h
447 24-03-2009 17:25:44 5.9 C 4.4 g/m*3 5.9 C 0 km/h
448 24-03-2009 17:37:44 6.1 C 4.09 g/m*3 6.1 C 0 km/h
449 24-03-2009 17:49:43 5.2 C 3.99 g/m*3 5.2 C 0 km/h
450 24-03-2009 18:01:44 3.6 C 4.15 g/m*3 3.6 C 0 km/h
Sensor: Nr:Datum:Temp:Abs-Feuchte:Windchill:Wind:
Aussen-T/F 451 24-03-2009 18:13:44 3.6 C 4.27 g/m*3 3.6 C 0 km/h
452 24-03-2009 18:25:44 3.5 C 4.37 g/m*3 3.5 C 0 km/h
453 24-03-2009 18:37:43 3.4 C 4.46 g/m*3 3.4 C 0 km/h
454 24-03-2009 18:49:44 3.1 C 4.37 g/m*3 3.1 C 0 km/h
455 24-03-2009 19:01:43 2.9 C 4.49 g/m*3 2.9 C 0 km/h
456 24-03-2009 19:13:43 2.7 C 4.43 g/m*3 2.7 C 0 km/h
457 24-03-2009 19:25:44 2.5 C 4.43 g/m*3 2.5 C 0 km/h
458 24-03-2009 19:37:42 2.5 C 4.48 g/m*3 2.5 C 0 km/h
459 24-03-2009 19:49:43 2.3 C 4.37 g/m*3 2.3 C 0 km/h
460 24-03-2009 20:01:43 2.2 C 4.34 g/m*3 2.2 C 0 km/h
461 24-03-2009 20:13:42 2.2 C 4.22 g/m*3 2.2 C 0 km/h
462 24-03-2009 20:25:42 2.1 C 4.14 g/m*3 2.1 C 0 km/h
463 24-03-2009 20:37:43 2 C 4.06 g/m*3 2 C 0 km/h
464 24-03-2009 20:49:42 1.8 C 4 g/m*3 1.8 C 0 km/h
465 24-03-2009 21:01:42 1.4 C 3.95 g/m*3 1.4 C 0 km/h
466 24-03-2009 21:13:41 1.3 C 4.03 g/m*3 1.3 C 0 km/h
467 24-03-2009 21:25:41 1.2 C 4.05 g/m*3 1.2 C 0 km/h
468 24-03-2009 21:37:42 1.1 C 4.08 g/m*3 1.1 C 0 km/h
469 24-03-2009 21:50:43 1 C 4.05 g/m*3 1 C 0 km/h
470 24-03-2009 22:02:43 0.9 C 4.07 g/m*3 0.9 C 0 km/h
471 24-03-2009 22:14:43 0.7 C 3.97 g/m*3 0.7 C 0 km/h
472 24-03-2009 22:26:43 1 C 3.84 g/m*3 1 C 0 km/h
473 24-03-2009 22:38:43 1 C 3.74 g/m*3 1 C 0 km/h
474 24-03-2009 22:50:43 0.7 C 3.66 g/m*3 0.7 C 0 km/h
475 24-03-2009 23:02:43 0.4 C 3.64 g/m*3 0.4 C 0 km/h
Sensor: Nr:Datum:Temp:Abs-Feuchte:Windchill:Wind:
Aussen-T/F 476 24-03-2009 23:14:43 0.4 C 3.69 g/m*3 0.4 C 0 km/h
477 24-03-2009 23:26:43 0.2 C 3.68 g/m*3 0.2 C 0 km/h
478 24-03-2009 23:38:43 0.2 C 3.68 g/m*3 0.2 C 0 km/h
479 24-03-2009 23:50:43 0 C 3.63 g/m*3 0 C 0 km/h
480 25-03-2009 00:02:43 0 C 3.68 g/m*3 0 C 0 km/h
481 25-03-2009 00:14:43 0.1 C 3.71 g/m*3 0.1 C 0 km/h
482 25-03-2009 00:26:43 0.2 C 3.68 g/m*3 0.2 C 0 km/h
483 25-03-2009 00:38:44 0.2 C 3.68 g/m*3 0.2 C 0 km/h
484 25-03-2009 00:50:44 0.3 C 3.61 g/m*3 0.3 C 0 km/h
485 25-03-2009 01:02:44 0.2 C 3.59 g/m*3 0.2 C 0 km/h
486 25-03-2009 01:14:44 0.2 C 3.59 g/m*3 0.2 C 0 km/h
487 25-03-2009 01:26:44 0.1 C 3.56 g/m*3 0.1 C 0 km/h
488 25-03-2009 01:38:44 0.2 C 3.64 g/m*3 0.2 C 0 km/h
489 25-03-2009 01:50:44 0 C 3.63 g/m*3 0 C 0 km/h
490 25-03-2009 02:02:44 0.1 C 3.71 g/m*3 0.1 C 0 km/h
491 25-03-2009 02:14:44 0.2 C 3.78 g/m*3 0.2 C 0 km/h
492 25-03-2009 02:26:44 0.4 C 3.84 g/m*3 0.4 C 0 km/h
493 25-03-2009 02:38:44 0.2 C 3.78 g/m*3 0.2 C 0 km/h
494 25-03-2009 02:50:44 0.2 C 3.78 g/m*3 0.2 C 0 km/h
495 25-03-2009 03:02:44 0.3 C 3.86 g/m*3 0.3 C 0 km/h
496 25-03-2009 03:14:44 0.6 C 3.94 g/m*3 0.6 C 0 km/h
497 25-03-2009 03:26:44 0.9 C 3.97 g/m*3 0.9 C 0 km/h
498 25-03-2009 03:38:44 1.1 C 3.97 g/m*3 1.1 C 0 km/h
499 25-03-2009 03:50:44 1.1 C 3.92 g/m*3 1.1 C 0 km/h
500 25-03-2009 04:02:44 1.1 C 3.97 g/m*3 1.1 C 0 km/h
Sensor: Nr:Datum:Temp:Abs-Feuchte:Windchill:Wind:
Aussen-T/F 501 25-03-2009 04:14:44 1.2 C 4 g/m*3 1.2 C 0 km/h
502 25-03-2009 04:26:45 1.3 C 3.97 g/m*3 1.3 C 0 km/h
503 25-03-2009 04:38:45 1.3 C 3.97 g/m*3 1.3 C 0 km/h
504 25-03-2009 04:50:45 1.5 C 4.03 g/m*3 1.5 C 0 km/h
505 25-03-2009 05:02:45 1.6 C 4.06 g/m*3 1.6 C 0 km/h
506 25-03-2009 05:14:45 1.8 C 4.06 g/m*3 1.8 C 0 km/h
507 25-03-2009 05:26:45 1.8 C 4.06 g/m*3 1.8 C 0 km/h
508 25-03-2009 05:38:45 2.2 C 4.06 g/m*3 2.2 C 0 km/h
509 25-03-2009 05:50:45 2.4 C 4.11 g/m*3 2.4 C 0 km/h
510 25-03-2009 06:02:45 2.3 C 4.08 g/m*3 2.3 C 0 km/h
511 25-03-2009 06:14:45 2.1 C 4.2 g/m*3 2.1 C 0 km/h
512 25-03-2009 06:26:45 1.6 C 4.27 g/m*3 1.6 C 0 km/h
513 25-03-2009 06:38:43 1.7 C 4.46 g/m*3 1.7 C 0 km/h
514 25-03-2009 06:50:42 1.8 C 4.6 g/m*3 1.8 C 0 km/h
515 25-03-2009 07:02:43 1.8 C 4.71 g/m*3 1.8 C 0 km/h
516 25-03-2009 07:14:43 1.8 C 4.71 g/m*3 1.8 C 0 km/h
517 25-03-2009 07:26:43 1.9 C 4.8 g/m*3 1.9 C 0 km/h
518 25-03-2009 07:38:42 1.9 C 4.75 g/m*3 1.9 C 0 km/h
519 25-03-2009 07:50:42 1.9 C 4.75 g/m*3 1.9 C 0 km/h
520 25-03-2009 08:02:42 2.1 C 4.76 g/m*3 2.1 C 0 km/h
521 25-03-2009 08:14:41 2.3 C 4.82 g/m*3 2.3 C 0 km/h
522 25-03-2009 08:26:41 2.3 C 4.76 g/m*3 2.3 C 0 km/h
523 25-03-2009 08:38:42 2.4 C 4.74 g/m*3 2.4 C 0 km/h
524 25-03-2009 08:50:41 2.3 C 4.65 g/m*3 2.3 C 0 km/h
525 25-03-2009 09:02:41 2.5 C 4.66 g/m*3 2.5 C 0 km/h
Sensor: Nr:Datum:Temp:Abs-Feuchte:Windchill:Wind:
Aussen-T/F 526 25-03-2009 09:14:42 2.6 C 4.63 g/m*3 2.6 C 0 km/h
527 25-03-2009 09:26:42 2.9 C 4.61 g/m*3 2.9 C 0 km/h
528 25-03-2009 09:38:41 3 C 4.46 g/m*3 3 C 0 km/h
529 25-03-2009 09:50:41 3.1 C 4.49 g/m*3 3.1 C 0 km/h
530 25-03-2009 10:02:41 3.3 C 4.49 g/m*3 3.3 C 0 km/h
531 25-03-2009 10:14:41 3.3 C 4.49 g/m*3 3.3 C 0 km/h
532 25-03-2009 10:26:41 3.1 C 4.49 g/m*3 3.1 C 0 km/h
533 25-03-2009 10:38:41 3.3 C 4.55 g/m*3 3.3 C 0 km/h
534 25-03-2009 10:50:40 3.8 C 4.52 g/m*3 3.8 C 0 km/h
535 25-03-2009 11:02:41 3.8 C 4.52 g/m*3 3.8 C 0 km/h
536 25-03-2009 11:14:40 4 C 4.39 g/m*3 4 C 0 km/h
537 25-03-2009 11:26:40 4 C 4.45 g/m*3 4 C 0 km/h
538 25-03-2009 11:38:40 4.3 C 4.48 g/m*3 4.3 C 0 km/h
539 25-03-2009 11:50:40 4.2 C 4.45 g/m*3 4.2 C 0 km/h
540 25-03-2009 12:02:40 4.2 C 4.45 g/m*3 4.2 C 0 km/h
541 25-03-2009 12:14:39 4.7 C 4.53 g/m*3 4.7 C 0 km/h
542 25-03-2009 12:26:39 4.4 C 4.37 g/m*3 4.4 C 0 km/h
543 25-03-2009 12:38:39 4.3 C 4.54 g/m*3 4.3 C 0 km/h
544 25-03-2009 12:50:39 4.4 C 4.51 g/m*3 4.4 C 0 km/h
545 25-03-2009 13:02:39 4.3 C 4.54 g/m*3 4.3 C 0 km/h
546 25-03-2009 13:14:39 4.4 C 4.57 g/m*3 4.4 C 0 km/h
547 25-03-2009 13:26:39 5.3 C 4.71 g/m*3 5.3 C 0 km/h
548 25-03-2009 13:38:39 5.9 C 4.69 g/m*3 5.9 C 0 km/h
549 25-03-2009 13:50:39 5.6 C 4.52 g/m*3 5.6 C 0 km/h
550 25-03-2009 14:02:38 5.6 C 4.6 g/m*3 5.6 C 0 km/h
Sensor: Nr:Datum:Temp:Abs-Feuchte:Windchill:Wind:
Aussen-T/F 551 25-03-2009 14:14:39 6.1 C 4.6 g/m*3 6.1 C 0 km/h
552 25-03-2009 14:26:40 6 C 4.5 g/m*3 6 C 0 km/h
553 25-03-2009 14:38:38 6 C 4.5 g/m*3 6 C 0 km/h
554 25-03-2009 14:50:38 6.1 C 4.6 g/m*3 6.1 C 0 km/h
555 25-03-2009 15:02:37 5.7 C 4.63 g/m*3 5.7 C 0 km/h
556 25-03-2009 15:14:38 5 C 4.89 g/m*3 5 C 0 km/h
557 25-03-2009 15:26:38 4.7 C 5.13 g/m*3 4.7 C 0 km/h
558 25-03-2009 15:38:38 5.3 C 5.41 g/m*3 5.3 C 0 km/h
559 25-03-2009 15:50:37 5.4 C 5.44 g/m*3 5.4 C 0 km/h
560 25-03-2009 16:02:38 5.7 C 5.41 g/m*3 5.7 C 0 km/h
561 25-03-2009 16:14:37 6.5 C 5.47 g/m*3 6.5 C 0 km/h
562 25-03-2009 16:26:37 6.9 C 5.31 g/m*3 6.9 C 0 km/h
563 25-03-2009 16:38:37 6.9 C 5.08 g/m*3 6.9 C 0 km/h
564 25-03-2009 16:50:37 6.4 C 4.99 g/m*3 6.4 C 0 km/h
565 25-03-2009 17:02:37 5.8 C 5.09 g/m*3 5.8 C 0 km/h
566 25-03-2009 17:14:37 4.7 C 5.2 g/m*3 4.7 C 0 km/h
567 25-03-2009 17:26:37 4.5 C 5.32 g/m*3 4.5 C 0 km/h
568 25-03-2009 17:38:36 4.6 C 5.49 g/m*3 4.6 C 0 km/h
569 25-03-2009 17:50:37 4.9 C 5.74 g/m*3 4.9 C 0 km/h
570 25-03-2009 18:02:36 4.8 C 5.7 g/m*3 4.8 C 0 km/h
571 25-03-2009 18:14:36 4.8 C 5.7 g/m*3 4.8 C 0 km/h
572 25-03-2009 18:26:36 4.7 C 5.6 g/m*3 4.7 C 0 km/h
573 25-03-2009 18:38:36 4.5 C 5.59 g/m*3 4.5 C 0 km/h
574 25-03-2009 18:50:36 4.2 C 5.41 g/m*3 4.2 C 0 km/h
575 25-03-2009 19:02:35 4 C 5.34 g/m*3 4 C 0 km/h
Sensor: Nr:Datum:Temp:Abs-Feuchte:Windchill:Wind:
Aussen-T/F 576 25-03-2009 19:14:36 3.8 C 5.4 g/m*3 3.8 C 0 km/h
577 25-03-2009 19:26:37 3.7 C 5.42 g/m*3 3.7 C 0 km/h
578 25-03-2009 19:38:35 3.6 C 5.45 g/m*3 3.6 C 0 km/h
579 25-03-2009 19:50:36 3.5 C 5.41 g/m*3 3.5 C 0 km/h
580 25-03-2009 20:02:35 3.6 C 5.51 g/m*3 3.6 C 0 km/h
581 25-03-2009 20:14:35 3.5 C 5.47 g/m*3 3.5 C 0 km/h
582 25-03-2009 20:26:35 3.6 C 5.57 g/m*3 3.6 C 0 km/h
583 25-03-2009 20:38:35 3.6 C 5.57 g/m*3 3.6 C 0 km/h
584 25-03-2009 20:50:35 3.6 C 5.57 g/m*3 3.6 C 0 km/h
585 25-03-2009 21:02:34 3.5 C 5.53 g/m*3 3.5 C 0 km/h
586 25-03-2009 21:14:34 3.5 C 5.53 g/m*3 3.5 C 0 km/h
587 25-03-2009 21:26:34 3.6 C 5.63 g/m*3 3.6 C 0 km/h
588 25-03-2009 21:38:35 3.7 C 5.67 g/m*3 3.7 C 0 km/h
589 25-03-2009 21:50:34 3.7 C 5.67 g/m*3 3.7 C 0 km/h
590 25-03-2009 22:02:35 3.7 C 5.67 g/m*3 3.7 C 0 km/h
591 25-03-2009 22:14:33 3.7 C 5.67 g/m*3 3.7 C 0 km/h
592 25-03-2009 22:26:33 3.8 C 5.71 g/m*3 3.8 C 0 km/h
593 25-03-2009 22:38:34 3.9 C 5.68 g/m*3 3.9 C 0 km/h
594 25-03-2009 22:50:33 3.9 C 5.62 g/m*3 3.9 C 0 km/h
595 25-03-2009 23:02:33 3.9 C 5.62 g/m*3 3.9 C 0 km/h
596 25-03-2009 23:14:34 4.1 C 5.63 g/m*3 4.1 C 0 km/h
597 25-03-2009 23:26:34 4.3 C 5.64 g/m*3 4.3 C 0 km/h
598 25-03-2009 23:38:33 4.4 C 5.48 g/m*3 4.4 C 0 km/h
599 25-03-2009 23:50:33 4.4 C 5.35 g/m*3 4.4 C 0 km/h
600 26-03-2009 00:02:33 4.3 C 5.25 g/m*3 4.3 C 0 km/h
Sensor: Nr:Datum:Temp:Abs-Feuchte:Windchill:Wind:
Aussen-T/F 601 26-03-2009 00:14:32 4.2 C 5.28 g/m*3 4.2 C 0 km/h
602 26-03-2009 00:26:32 4 C 5.28 g/m*3 4 C 0 km/h
603 26-03-2009 00:38:33 4 C 5.28 g/m*3 4 C 0 km/h
604 26-03-2009 00:50:32 4.1 C 5.31 g/m*3 4.1 C 0 km/h
605 26-03-2009 01:02:32 4.2 C 5.28 g/m*3 4.2 C 0 km/h
606 26-03-2009 01:14:32 4.3 C 5.25 g/m*3 4.3 C 0 km/h
607 26-03-2009 01:26:32 4.3 C 5.25 g/m*3 4.3 C 0 km/h
608 26-03-2009 01:38:32 4.2 C 5.22 g/m*3 4.2 C 0 km/h
609 26-03-2009 01:50:31 4.2 C 5.22 g/m*3 4.2 C 0 km/h
610 26-03-2009 02:02:32 4.2 C 5.22 g/m*3 4.2 C 0 km/h
611 26-03-2009 02:14:31 4.1 C 5.25 g/m*3 4.1 C 0 km/h
612 26-03-2009 02:26:31 4 C 5.34 g/m*3 4 C 0 km/h
613 26-03-2009 02:38:31 4 C 5.4 g/m*3 4 C 0 km/h
614 26-03-2009 02:51:32 4 C 5.4 g/m*3 4 C 0 km/h
615 26-03-2009 03:03:32 4 C 5.4 g/m*3 4 C 0 km/h
616 26-03-2009 03:15:32 4 C 5.4 g/m*3 4 C 0 km/h
617 26-03-2009 03:27:32 4 C 5.34 g/m*3 4 C 0 km/h
618 26-03-2009 03:39:32 4.1 C 5.38 g/m*3 4.1 C 0 km/h
619 26-03-2009 03:51:32 4.1 C 5.31 g/m*3 4.1 C 0 km/h
620 26-03-2009 04:03:32 4.1 C 5.25 g/m*3 4.1 C 0 km/h
621 26-03-2009 04:15:31 4.1 C 5.18 g/m*3 4.1 C 0 km/h
622 26-03-2009 04:27:31 4.2 C 5.09 g/m*3 4.2 C 0 km/h
623 26-03-2009 04:39:31 4.2 C 5.03 g/m*3 4.2 C 0 km/h
624 26-03-2009 04:51:31 4.2 C 5.03 g/m*3 4.2 C 0 km/h
625 26-03-2009 05:03:31 4.2 C 5.03 g/m*3 4.2 C 0 km/h
Sensor: Nr:Datum:Temp:Abs-Feuchte:Windchill:Wind:
Aussen-T/F 626 26-03-2009 05:15:31 4.1 C 5.06 g/m*3 4.1 C 0 km/h
627 26-03-2009 05:27:31 4.2 C 5.09 g/m*3 4.2 C 0 km/h
628 26-03-2009 05:39:31 4.3 C 5.06 g/m*3 4.3 C 0 km/h
629 26-03-2009 05:51:31 4.3 C 5.06 g/m*3 4.3 C 0 km/h
630 26-03-2009 06:03:30 4.2 C 5.03 g/m*3 4.2 C 0 km/h
631 26-03-2009 06:15:31 4 C 4.96 g/m*3 4 C 0 km/h
632 26-03-2009 06:27:32 4.1 C 4.99 g/m*3 4.1 C 0 km/h
633 26-03-2009 06:39:30 4 C 4.96 g/m*3 4 C 0 km/h
634 26-03-2009 06:51:30 3.8 C 4.96 g/m*3 3.8 C 0 km/h
635 26-03-2009 07:03:30 3.8 C 4.96 g/m*3 3.8 C 0 km/h
636 26-03-2009 07:15:30 4.2 C 5.09 g/m*3 4.2 C 0 km/h
637 26-03-2009 07:27:30 4.5 C 5.06 g/m*3 4.5 C 0 km/h
638 26-03-2009 07:39:30 4.5 C 4.93 g/m*3 4.5 C 0 km/h
639 26-03-2009 07:51:30 4.7 C 4.93 g/m*3 4.7 C 0 km/h
640 26-03-2009 08:03:30 5 C 4.89 g/m*3 5 C 0 km/h
641 26-03-2009 08:15:29 5.3 C 4.99 g/m*3 5.3 C 0 km/h
642 26-03-2009 08:27:29 5.5 C 4.99 g/m*3 5.5 C 0 km/h
643 26-03-2009 08:39:29 6.1 C 5.04 g/m*3 6.1 C 0 km/h
644 26-03-2009 08:51:29 6.4 C 5.07 g/m*3 6.4 C 0 km/h
645 26-03-2009 09:03:29 6.5 C 5.1 g/m*3 6.5 C 0 km/h
646 26-03-2009 09:15:29 6.6 C 5.06 g/m*3 6.6 C 0 km/h
647 26-03-2009 09:27:29 7 C 5.11 g/m*3 7 C 0 km/h
648 26-03-2009 09:39:29 7.4 C 5.17 g/m*3 7.4 C 0 km/h
649 26-03-2009 09:51:29 7.8 C 5.14 g/m*3 7.8 C 0 km/h
650 26-03-2009 10:03:29 7.9 C 5.09 g/m*3 7.9 C 0 km/h
Sensor: Nr:Datum:Temp:Abs-Feuchte:Windchill:Wind:
Aussen-T/F 651 26-03-2009 10:15:28 7.7 C 5.03 g/m*3 7.7 C 0 km/h
652 26-03-2009 10:27:28 7.8 C 4.98 g/m*3 7.8 C 0 km/h
653 26-03-2009 10:39:28 8.2 C 5.02 g/m*3 8.2 C 0 km/h
654 26-03-2009 10:51:28 8.5 C 4.95 g/m*3 8.5 C 0 km/h
655 26-03-2009 11:03:28 9.1 C 5.06 g/m*3 9.1 C 0 km/h
656 26-03-2009 11:15:27 8.8 C 4.96 g/m*3 8.8 C 0 km/h
657 26-03-2009 11:27:27 8.4 C 5.01 g/m*3 8.4 C 0 km/h
658 26-03-2009 11:39:28 8.4 C 5.09 g/m*3 8.4 C 0 km/h
659 26-03-2009 11:51:27 9 C 5.11 g/m*3 9 C 0 km/h
660 26-03-2009 12:03:27 9.3 C 4.94 g/m*3 9.3 C 0 km/h
661 26-03-2009 12:15:27 9.2 C 5 g/m*3 9.2 C 0 km/h
662 26-03-2009 12:27:27 9 C 4.94 g/m*3 9 C 0 km/h
663 26-03-2009 12:39:27 8.6 C 5.16 g/m*3 8.6 C 0 km/h
664 26-03-2009 12:51:27 8.2 C 5.19 g/m*3 8.2 C 0 km/h
665 26-03-2009 13:03:26 8 C 5.29 g/m*3 8 C 0 km/h
666 26-03-2009 13:15:27 7.7 C 5.35 g/m*3 7.7 C 0 km/h
667 26-03-2009 13:27:27 7.6 C 5.48 g/m*3 7.6 C 0 km/h
668 26-03-2009 13:39:26 7.5 C 5.6 g/m*3 7.5 C 0 km/h
669 26-03-2009 13:51:26 7.2 C 5.73 g/m*3 7.2 C 0 km/h
670 26-03-2009 14:03:26 7 C 5.81 g/m*3 7 C 0 km/h
671 26-03-2009 14:15:26 7 C 5.97 g/m*3 7 C 0 km/h
672 26-03-2009 14:27:26 7.2 C 5.89 g/m*3 7.2 C 0 km/h
673 26-03-2009 14:39:26 7.3 C 5.77 g/m*3 7.3 C 0 km/h
674 26-03-2009 14:51:25 7.1 C 5.69 g/m*3 7.1 C 0 km/h
675 26-03-2009 15:03:26 7.1 C 5.69 g/m*3 7.1 C 0 km/h
Sensor: Nr:Datum:Temp:Abs-Feuchte:Windchill:Wind:
Aussen-T/F 676 26-03-2009 15:15:25 7.1 C 5.62 g/m*3 7.1 C 0 km/h
677 26-03-2009 15:27:25 7.1 C 5.62 g/m*3 7.1 C 0 km/h
678 26-03-2009 15:39:25 7.3 C 5.61 g/m*3 7.3 C 0 km/h
679 26-03-2009 15:51:25 7.3 C 5.53 g/m*3 7.3 C 0 km/h
680 26-03-2009 16:03:25 7.2 C 5.65 g/m*3 7.2 C 0 km/h
681 26-03-2009 16:15:25 7.3 C 5.61 g/m*3 7.3 C 0 km/h
682 26-03-2009 16:27:25 7.4 C 5.65 g/m*3 7.4 C 0 km/h
683 26-03-2009 16:39:24 7.4 C 5.73 g/m*3 7.4 C 0 km/h
684 26-03-2009 16:51:25 7.2 C 5.81 g/m*3 7.2 C 0 km/h
685 26-03-2009 17:03:24 7.1 C 5.93 g/m*3 7.1 C 0 km/h
686 26-03-2009 17:15:24 7.1 C 5.93 g/m*3 7.1 C 0 km/h
687 26-03-2009 17:27:24 7.3 C 5.93 g/m*3 7.3 C 0 km/h
688 26-03-2009 17:39:24 7.3 C 5.93 g/m*3 7.3 C 0 km/h
689 26-03-2009 17:51:24 7.3 C 5.93 g/m*3 7.3 C 0 km/h
690 26-03-2009 18:03:23 7.3 C 6 g/m*3 7.3 C 0 km/h
691 26-03-2009 18:15:24 7.3 C 5.93 g/m*3 7.3 C 0 km/h
692 26-03-2009 18:27:24 7.5 C 5.92 g/m*3 7.5 C 0 km/h
693 26-03-2009 18:39:24 7.5 C 5.84 g/m*3 7.5 C 0 km/h
694 26-03-2009 18:51:23 7.6 C 5.8 g/m*3 7.6 C 0 km/h
695 26-03-2009 19:03:23 7.5 C 5.76 g/m*3 7.5 C 0 km/h
696 26-03-2009 19:15:23 7.5 C 5.68 g/m*3 7.5 C 0 km/h
697 26-03-2009 19:27:23 7.6 C 5.64 g/m*3 7.6 C 0 km/h
698 26-03-2009 19:39:23 7.6 C 5.64 g/m*3 7.6 C 0 km/h
699 26-03-2009 19:51:22 7.4 C 5.65 g/m*3 7.4 C 0 km/h
700 26-03-2009 20:03:23 7.2 C 5.65 g/m*3 7.2 C 0 km/h
Sensor: Nr:Datum:Temp:Abs-Feuchte:Windchill:Wind:
Aussen-T/F 701 26-03-2009 20:15:22 7.4 C 5.81 g/m*3 7.4 C 0 km/h
702 26-03-2009 20:27:22 7.7 C 5.84 g/m*3 7.7 C 0 km/h
703 26-03-2009 20:39:22 7.7 C 5.84 g/m*3 7.7 C 0 km/h
704 26-03-2009 20:51:22 7.7 C 5.92 g/m*3 7.7 C 0 km/h
705 26-03-2009 21:03:22 7.6 C 5.96 g/m*3 7.6 C 0 km/h
706 26-03-2009 21:15:22 7.6 C 6.04 g/m*3 7.6 C 0 km/h
707 26-03-2009 21:27:22 7.7 C 6.08 g/m*3 7.7 C 0 km/h
708 26-03-2009 21:39:21 7.7 C 6.08 g/m*3 7.7 C 0 km/h
709 26-03-2009 21:51:22 7.7 C 6 g/m*3 7.7 C 0 km/h
710 26-03-2009 22:04:21 7.6 C 6.12 g/m*3 7.6 C 0 km/h
711 26-03-2009 22:16:21 7.5 C 6.32 g/m*3 7.5 C 0 km/h
712 26-03-2009 22:28:21 7.5 C 6.4 g/m*3 7.5 C 0 km/h
713 26-03-2009 22:40:21 7.6 C 6.36 g/m*3 7.6 C 0 km/h
714 26-03-2009 22:52:21 7.9 C 6.32 g/m*3 7.9 C 0 km/h
715 26-03-2009 23:04:21 8 C 6.2 g/m*3 8 C 0 km/h
716 26-03-2009 23:16:21 8 C 6.2 g/m*3 8 C 0 km/h
717 26-03-2009 23:28:21 7.9 C 6.32 g/m*3 7.9 C 0 km/h
718 26-03-2009 23:40:21 7.9 C 6.41 g/m*3 7.9 C 0 km/h
719 26-03-2009 23:52:21 7.6 C 6.44 g/m*3 7.6 C 0 km/h
720 27-03-2009 00:04:21 7.5 C 6.56 g/m*3 7.5 C 0 km/h
721 27-03-2009 00:16:21 7.5 C 6.64 g/m*3 7.5 C 0 km/h
722 27-03-2009 00:28:22 7.6 C 6.69 g/m*3 7.6 C 0 km/h
723 27-03-2009 00:40:22 7.6 C 6.69 g/m*3 7.6 C 0 km/h
724 27-03-2009 00:52:22 7.6 C 6.69 g/m*3 7.6 C 0 km/h
725 27-03-2009 01:04:22 7.6 C 6.69 g/m*3 7.6 C 0 km/h
Sensor: Nr:Datum:Temp:Abs-Feuchte:Windchill:Wind:
Aussen-T/F 726 27-03-2009 01:16:22 7.4 C 6.76 g/m*3 7.4 C 0 km/h
727 27-03-2009 01:28:22 7.4 C 6.84 g/m*3 7.4 C 0 km/h
728 27-03-2009 01:40:22 7.3 C 6.95 g/m*3 7.3 C 0 km/h
729 27-03-2009 01:52:22 7.4 C 7 g/m*3 7.4 C 0 km/h
730 27-03-2009 02:04:22 7.4 C 7 g/m*3 7.4 C 0 km/h
731 27-03-2009 02:16:22 7.3 C 6.95 g/m*3 7.3 C 0 km/h
732 27-03-2009 02:28:22 7.2 C 6.83 g/m*3 7.2 C 0 km/h
733 27-03-2009 02:40:22 7.3 C 6.72 g/m*3 7.3 C 0 km/h
734 27-03-2009 02:52:22 7.4 C 6.6 g/m*3 7.4 C 0 km/h
735 27-03-2009 03:04:22 7.6 C 6.53 g/m*3 7.6 C 0 km/h
736 27-03-2009 03:16:22 7.5 C 6.4 g/m*3 7.5 C 0 km/h
737 27-03-2009 03:28:22 7.5 C 6.4 g/m*3 7.5 C 0 km/h
738 27-03-2009 03:40:22 7.5 C 6.4 g/m*3 7.5 C 0 km/h
739 27-03-2009 03:52:22 7.4 C 6.36 g/m*3 7.4 C 0 km/h
740 27-03-2009 04:04:22 7.4 C 6.52 g/m*3 7.4 C 0 km/h
741 27-03-2009 04:16:23 7.3 C 6.48 g/m*3 7.3 C 0 km/h
742 27-03-2009 04:28:23 7.3 C 6.56 g/m*3 7.3 C 0 km/h
743 27-03-2009 04:40:23 7.1 C 6.55 g/m*3 7.1 C 0 km/h
744 27-03-2009 04:52:23 7 C 6.51 g/m*3 7 C 0 km/h
745 27-03-2009 05:04:23 6.9 C 6.62 g/m*3 6.9 C 0 km/h
746 27-03-2009 05:16:23 7 C 6.43 g/m*3 7 C 0 km/h
747 27-03-2009 05:28:23 7 C 6.35 g/m*3 7 C 0 km/h
748 27-03-2009 05:40:23 7.1 C 6.16 g/m*3 7.1 C 0 km/h
749 27-03-2009 05:52:23 7.1 C 5.85 g/m*3 7.1 C 0 km/h
750 27-03-2009 06:04:23 7.3 C 5.53 g/m*3 7.3 C 0 km/h
Sensor: Nr:Datum:Temp:Abs-Feuchte:Windchill:Wind:
Aussen-T/F 751 27-03-2009 06:16:23 7.2 C 5.26 g/m*3 7.2 C 0 km/h
752 27-03-2009 06:28:23 7 C 5.19 g/m*3 7 C 0 km/h
753 27-03-2009 06:40:23 7 C 5.27 g/m*3 7 C 0 km/h
754 27-03-2009 06:52:23 6.9 C 5.47 g/m*3 6.9 C 0 km/h
755 27-03-2009 07:04:21 7 C 5.5 g/m*3 7 C 0 km/h
756 27-03-2009 07:16:22 7.1 C 5.46 g/m*3 7.1 C 0 km/h
757 27-03-2009 07:28:22 7.2 C 5.18 g/m*3 7.2 C 0 km/h
758 27-03-2009 07:40:21 7.3 C 5.14 g/m*3 7.3 C 0 km/h
759 27-03-2009 07:52:21 7.3 C 5.21 g/m*3 7.3 C 0 km/h
760 27-03-2009 08:04:21 7.5 C 5.2 g/m*3 7.5 C 0 km/h
761 27-03-2009 08:16:21 7.6 C 5.08 g/m*3 7.6 C 0 km/h
762 27-03-2009 08:28:21 7.8 C 5.06 g/m*3 7.8 C 0 km/h
763 27-03-2009 08:40:21 8 C 4.96 g/m*3 8 C 0 km/h
764 27-03-2009 08:52:21 8 C 4.96 g/m*3 8 C 0 km/h
765 27-03-2009 09:04:21 8.1 C 4.99 g/m*3 8.1 C 0 km/h
766 27-03-2009 09:16:20 8 C 4.88 g/m*3 8 C 0 km/h
767 27-03-2009 09:28:20 7.9 C 4.93 g/m*3 7.9 C 0 km/h
768 27-03-2009 09:40:20 8.4 C 4.84 g/m*3 8.4 C 0 km/h
769 27-03-2009 09:52:20 8.5 C 4.78 g/m*3 8.5 C 0 km/h
770 27-03-2009 10:04:20 8.5 C 4.7 g/m*3 8.5 C 0 km/h
771 27-03-2009 10:16:19 7 C 5.11 g/m*3 7 C 0 km/h
772 27-03-2009 10:28:19 7.2 C 5.65 g/m*3 7.2 C 0 km/h
773 27-03-2009 10:40:20 7.7 C 5.76 g/m*3 7.7 C 0 km/h
774 27-03-2009 10:52:19 8.3 C 5.14 g/m*3 8.3 C 0 km/h
775 27-03-2009 11:04:19 8.4 C 4.58 g/m*3 8.4 C 0 km/h
Sensor: Nr:Datum:Temp:Abs-Feuchte:Windchill:Wind:
Aussen-T/F 776 27-03-2009 11:16:19 8.5 C 4.35 g/m*3 8.5 C 0 km/h
777 27-03-2009 11:28:19 7.9 C 4.76 g/m*3 7.9 C 0 km/h
778 27-03-2009 11:40:19 8.1 C 4.99 g/m*3 8.1 C 0 km/h
779 27-03-2009 11:52:19 9 C 4.67 g/m*3 9 C 0 km/h
780 27-03-2009 12:04:18 9.3 C 4.31 g/m*3 9.3 C 0 km/h
781 27-03-2009 12:16:19 9.3 C 4.13 g/m*3 9.3 C 0 km/h
782 27-03-2009 12:28:19 8.8 C 4 g/m*3 8.8 C 0 km/h
783 27-03-2009 12:40:18 8.9 C 4.2 g/m*3 8.9 C 0 km/h
784 27-03-2009 12:52:18 9.1 C 3.99 g/m*3 9.1 C 0 km/h
785 27-03-2009 13:04:19 9.7 C 3.87 g/m*3 9.7 C 0 km/h
786 27-03-2009 13:16:18 9.7 C 3.69 g/m*3 9.7 C 0 km/h
787 27-03-2009 13:28:18 9.6 C 3.39 g/m*3 9.6 C 0 km/h
788 27-03-2009 13:40:18 9.7 C 3.41 g/m*3 9.7 C 0 km/h
789 27-03-2009 13:52:18 9.8 C 3.43 g/m*3 9.8 C 0 km/h
790 27-03-2009 14:04:18 10.4 C 3.37 g/m*3 10.4 C 0 km/h
791 27-03-2009 14:16:17 10.3 C 3.35 g/m*3 10.3 C 0 km/h
792 27-03-2009 14:28:17 10.3 C 3.35 g/m*3 10.3 C 0 km/h
793 27-03-2009 14:40:17 10.2 C 3.43 g/m*3 10.2 C 0 km/h
794 27-03-2009 14:52:17 10.1 C 3.69 g/m*3 10.1 C 0 km/h
795 27-03-2009 15:04:17 9.7 C 3.69 g/m*3 9.7 C 0 km/h
796 27-03-2009 15:16:17 9.6 C 3.85 g/m*3 9.6 C 0 km/h
797 27-03-2009 15:28:17 9.7 C 3.69 g/m*3 9.7 C 0 km/h
798 27-03-2009 15:40:17 9.8 C 3.8 g/m*3 9.8 C 0 km/h
799 27-03-2009 15:52:17 9.6 C 3.76 g/m*3 9.6 C 0 km/h
800 27-03-2009 16:04:16 8.5 C 3.84 g/m*3 8.5 C 0 km/h
Sensor: Nr:Datum:Temp:Abs-Feuchte:Windchill:Wind:
Aussen-T/F 801 27-03-2009 16:16:16 7.9 C 3.94 g/m*3 7.9 C 0 km/h
802 27-03-2009 16:28:16 7.9 C 4.11 g/m*3 7.9 C 0 km/h
803 27-03-2009 16:40:16 7.4 C 4.37 g/m*3 7.4 C 0 km/h
804 27-03-2009 16:52:16 6.9 C 5.08 g/m*3 6.9 C 0 km/h
805 27-03-2009 17:04:15 6.6 C 5.36 g/m*3 6.6 C 0 km/h
806 27-03-2009 17:16:16 6.6 C 5.13 g/m*3 6.6 C 0 km/h
807 27-03-2009 17:28:16 6.3 C 5.33 g/m*3 6.3 C 0 km/h
808 27-03-2009 17:40:16 5.9 C 5.34 g/m*3 5.9 C 0 km/h
809 27-03-2009 17:52:15 5.2 C 5.23 g/m*3 5.2 C 0 km/h
810 27-03-2009 18:04:16 5 C 5.37 g/m*3 5 C 0 km/h
811 27-03-2009 18:16:15 4.9 C 5.54 g/m*3 4.9 C 0 km/h
812 27-03-2009 18:28:15 4.9 C 5.54 g/m*3 4.9 C 0 km/h
813 27-03-2009 18:40:15 5.1 C 5.47 g/m*3 5.1 C 0 km/h
814 27-03-2009 18:52:15 5.6 C 5.23 g/m*3 5.6 C 0 km/h
815 27-03-2009 19:04:15 5.7 C 4.84 g/m*3 5.7 C 0 km/h
816 27-03-2009 19:16:14 5.9 C 4.76 g/m*3 5.9 C 0 km/h
817 27-03-2009 19:28:14 6 C 4.79 g/m*3 6 C 0 km/h
818 27-03-2009 19:40:02 5.8 C 4.94 g/m*3 5.8 C 0 km/h
819 27-03-2009 19:52:01 5.8 C 5.01 g/m*3 5.8 C 0 km/h
820 27-03-2009 20:04:02 5.6 C 5.09 g/m*3 5.6 C 0 km/h
821 27-03-2009 20:16:01 5.6 C 5.16 g/m*3 5.6 C 0 km/h
822 27-03-2009 20:28:01 5.5 C 5.13 g/m*3 5.5 C 0 km/h
823 27-03-2009 20:40:01 5.3 C 5.13 g/m*3 5.3 C 0 km/h
824 27-03-2009 20:52:01 5 C 5.1 g/m*3 5 C 0 km/h
825 27-03-2009 21:04:02 4.8 C 5.1 g/m*3 4.8 C 0 km/h
Sensor: Nr:Datum:Temp:Abs-Feuchte:Windchill:Wind:
Aussen-T/F 826 27-03-2009 21:16:01 4.8 C 5.16 g/m*3 4.8 C 0 km/h
827 27-03-2009 21:28:01 4.9 C 5.27 g/m*3 4.9 C 0 km/h
828 27-03-2009 21:40:01 4.7 C 5.26 g/m*3 4.7 C 0 km/h
829 27-03-2009 21:52:01 5.2 C 5.37 g/m*3 5.2 C 0 km/h
830 27-03-2009 22:04:01 5.7 C 5.34 g/m*3 5.7 C 0 km/h
831 27-03-2009 22:16:00 5.8 C 5.16 g/m*3 5.8 C 0 km/h
832 27-03-2009 22:28:00 5.7 C 5.12 g/m*3 5.7 C 0 km/h
833 27-03-2009 22:40:01 5.6 C 5.16 g/m*3 5.6 C 0 km/h
834 27-03-2009 22:53:01 5.6 C 5.23 g/m*3 5.6 C 0 km/h
835 27-03-2009 23:05:01 5.3 C 5.2 g/m*3 5.3 C 0 km/h
836 27-03-2009 23:17:01 5.1 C 5.27 g/m*3 5.1 C 0 km/h
837 27-03-2009 23:29:01 4.8 C 5.43 g/m*3 4.8 C 0 km/h
838 27-03-2009 23:41:01 4.8 C 5.57 g/m*3 4.8 C 0 km/h
839 27-03-2009 23:53:01 4.8 C 5.63 g/m*3 4.8 C 0 km/h
840 28-03-2009 00:05:01 4.9 C 5.74 g/m*3 4.9 C 0 km/h
841 28-03-2009 00:17:01 4.8 C 5.77 g/m*3 4.8 C 0 km/h
842 28-03-2009 00:29:01 4.7 C 5.8 g/m*3 4.7 C 0 km/h
843 28-03-2009 00:41:01 4.4 C 5.75 g/m*3 4.4 C 0 km/h
844 28-03-2009 00:53:01 4 C 5.59 g/m*3 4 C 0 km/h
845 28-03-2009 01:05:01 3.6 C 5.45 g/m*3 3.6 C 0 km/h
846 28-03-2009 01:17:01 3.6 C 5.51 g/m*3 3.6 C 0 km/h
847 28-03-2009 01:29:02 3.4 C 5.44 g/m*3 3.4 C 0 km/h
848 28-03-2009 01:41:02 3.3 C 5.4 g/m*3 3.3 C 0 km/h
849 28-03-2009 01:53:02 3.4 C 5.5 g/m*3 3.4 C 0 km/h
850 28-03-2009 02:05:02 3.4 C 5.5 g/m*3 3.4 C 0 km/h
Sensor: Nr:Datum:Temp:Abs-Feuchte:Windchill:Wind:
Aussen-T/F 851 28-03-2009 02:17:02 3.5 C 5.6 g/m*3 3.5 C 0 km/h
852 28-03-2009 02:29:02 3.7 C 5.67 g/m*3 3.7 C 0 km/h
853 28-03-2009 02:41:02 3.7 C 5.73 g/m*3 3.7 C 0 km/h
854 28-03-2009 02:53:02 3.8 C 5.77 g/m*3 3.8 C 0 km/h
855 28-03-2009 03:05:02 3.8 C 5.77 g/m*3 3.8 C 0 km/h
856 28-03-2009 03:17:02 3.9 C 5.81 g/m*3 3.9 C 0 km/h
857 28-03-2009 03:29:02 4 C 5.85 g/m*3 4 C 0 km/h
858 28-03-2009 03:41:02 4.1 C 5.89 g/m*3 4.1 C 0 km/h
859 28-03-2009 03:53:02 4.2 C 5.93 g/m*3 4.2 C 0 km/h
860 28-03-2009 04:05:02 4.3 C 6.03 g/m*3 4.3 C 0 km/h
861 28-03-2009 04:17:02 4.3 C 6.03 g/m*3 4.3 C 0 km/h
862 28-03-2009 04:29:02 4.3 C 6.03 g/m*3 4.3 C 0 km/h
863 28-03-2009 04:41:02 4.3 C 6.03 g/m*3 4.3 C 0 km/h
864 28-03-2009 04:53:02 4.3 C 6.03 g/m*3 4.3 C 0 km/h
865 28-03-2009 05:05:02 4.3 C 6.03 g/m*3 4.3 C 0 km/h
866 28-03-2009 05:17:03 4.3 C 6.03 g/m*3 4.3 C 0 km/h
867 28-03-2009 05:29:03 4.4 C 6.07 g/m*3 4.4 C 0 km/h
868 28-03-2009 05:41:03 4.6 C 6.15 g/m*3 4.6 C 0 km/h
869 28-03-2009 05:53:03 4.7 C 6.19 g/m*3 4.7 C 0 km/h
870 28-03-2009 06:05:03 4.8 C 6.24 g/m*3 4.8 C 0 km/h
871 28-03-2009 06:17:03 4.8 C 6.17 g/m*3 4.8 C 0 km/h
872 28-03-2009 06:29:03 4.9 C 6.21 g/m*3 4.9 C 0 km/h
873 28-03-2009 06:41:03 5 C 6.18 g/m*3 5 C 0 km/h
874 28-03-2009 06:53:03 5.2 C 6.2 g/m*3 5.2 C 0 km/h
875 28-03-2009 07:05:03 5 C 6.05 g/m*3 5 C 0 km/h
Sensor: Nr:Datum:Temp:Abs-Feuchte:Windchill:Wind:
Aussen-T/F 876 28-03-2009 07:17:03 4.7 C 6 g/m*3 4.7 C 0 km/h
877 28-03-2009 07:29:03 4.9 C 6.08 g/m*3 4.9 C 0 km/h
878 28-03-2009 07:41:03 4.8 C 6.04 g/m*3 4.8 C 0 km/h
879 28-03-2009 07:53:03 5.2 C 6.13 g/m*3 5.2 C 0 km/h
880 28-03-2009 08:05:03 5.6 C 6.36 g/m*3 5.6 C 0 km/h
881 28-03-2009 08:17:03 5.8 C 6.45 g/m*3 5.8 C 0 km/h
882 28-03-2009 08:29:03 5.9 C 6.42 g/m*3 5.9 C 0 km/h
883 28-03-2009 08:41:03 6.8 C 6.73 g/m*3 6.8 C 0 km/h
884 28-03-2009 08:53:03 7.6 C 6.28 g/m*3 7.6 C 0 km/h
885 28-03-2009 09:05:04 8.2 C 5.95 g/m*3 8.2 C 0 km/h
886 28-03-2009 09:17:04 8.9 C 5.78 g/m*3 8.9 C 0 km/h
887 28-03-2009 09:29:04 9 C 5.38 g/m*3 9 C 0 km/h
888 28-03-2009 09:41:02 8.6 C 5.76 g/m*3 8.6 C 0 km/h
889 28-03-2009 09:53:01 7.9 C 5.83 g/m*3 7.9 C 0 km/h
890 28-03-2009 10:05:01 7.7 C 6 g/m*3 7.7 C 0 km/h
891 28-03-2009 10:17:01 7.6 C 6.2 g/m*3 7.6 C 0 km/h
892 28-03-2009 10:29:01 7.6 C 6.28 g/m*3 7.6 C 0 km/h
893 28-03-2009 10:41:01 7.9 C 6.57 g/m*3 7.9 C 0 km/h
894 28-03-2009 10:53:00 7.9 C 6.65 g/m*3 7.9 C 0 km/h
895 28-03-2009 11:05:01 7.9 C 6.57 g/m*3 7.9 C 0 km/h
896 28-03-2009 11:17:00 8.5 C 6.32 g/m*3 8.5 C 0 km/h
897 28-03-2009 11:29:00 8.6 C 6.02 g/m*3 8.6 C 0 km/h
898 28-03-2009 11:41:00 8.6 C 5.84 g/m*3 8.6 C 0 km/h
899 28-03-2009 11:53:02 8.5 C 5.98 g/m*3 8.5 C 0 km/h
900 28-03-2009 12:05:01 8.3 C 6.07 g/m*3 8.3 C 0 km/h
Sensor: Nr:Datum:Temp:Abs-Feuchte:Windchill:Wind:
Aussen-T/F 901 28-03-2009 12:17:01 8.3 C 6.15 g/m*3 8.3 C 0 km/h
902 28-03-2009 12:29:01 8.1 C 5.91 g/m*3 8.1 C 0 km/h
903 28-03-2009 12:41:02 8.5 C 6.06 g/m*3 8.5 C 0 km/h
904 28-03-2009 12:53:01 9 C 5.55 g/m*3 9 C 0 km/h
905 28-03-2009 13:05:01 9.1 C 5.59 g/m*3 9.1 C 0 km/h
906 28-03-2009 13:17:01 9.4 C 5.52 g/m*3 9.4 C 0 km/h
907 28-03-2009 13:29:01 9.9 C 5.32 g/m*3 9.9 C 0 km/h
908 28-03-2009 13:41:01 10.3 C 5.17 g/m*3 10.3 C 0 km/h
909 28-03-2009 13:53:00 8.9 C 5.43 g/m*3 8.9 C 0 km/h
910 28-03-2009 14:05:01 7 C 5.35 g/m*3 7 C 0 km/h
911 28-03-2009 14:17:00 7.1 C 5.54 g/m*3 7.1 C 0 km/h
912 28-03-2009 14:29:00 8.2 C 5.53 g/m*3 8.2 C 0 km/h
913 28-03-2009 14:41:00 9.2 C 5.54 g/m*3 9.2 C 0 km/h
914 28-03-2009 14:53:00 10.5 C 5.24 g/m*3 10.5 C 0 km/h
915 28-03-2009 15:05:00 11.2 C 5.27 g/m*3 11.2 C 0 km/h
916 28-03-2009 15:17:00 11.6 C 4.78 g/m*3 11.6 C 0 km/h
917 28-03-2009 15:29:00 11 C 4.7 g/m*3 11 C 0 km/h
918 28-03-2009 15:41:59 10.7 C 4.81 g/m*3 10.7 C 0 km/h
919 28-03-2009 15:53:00 11.2 C 4.26 g/m*3 11.2 C 0 km/h
920 28-03-2009 16:05:59 10.5 C 4.17 g/m*3 10.5 C 0 km/h
921 28-03-2009 16:17:59 10.9 C 4.28 g/m*3 10.9 C 0 km/h
922 28-03-2009 16:29:59 10.3 C 4.21 g/m*3 10.3 C 0 km/h
923 28-03-2009 16:41:58 10.7 C 4.13 g/m*3 10.7 C 0 km/h
924 28-03-2009 16:53:59 11.3 C 3.67 g/m*3 11.3 C 0 km/h
925 28-03-2009 17:05:59 10.6 C 3.51 g/m*3 10.6 C 0 km/h
Sensor: Nr:Datum:Temp:Abs-Feuchte:Windchill:Wind:
Aussen-T/F 926 28-03-2009 17:17:58 10.2 C 3.52 g/m*3 10.2 C 0 km/h
927 28-03-2009 17:29:58 9.7 C 3.6 g/m*3 9.7 C 0 km/h
928 28-03-2009 17:41:59 9.7 C 3.5 g/m*3 9.7 C 0 km/h
929 28-03-2009 17:53:58 9.7 C 3.69 g/m*3 9.7 C 0 km/h
930 28-03-2009 18:05:58 9.7 C 3.69 g/m*3 9.7 C 0 km/h
931 28-03-2009 18:17:58 10.5 C 3.59 g/m*3 10.5 C 0 km/h
932 28-03-2009 18:29:58 10.2 C 3.33 g/m*3 10.2 C 0 km/h
933 28-03-2009 18:41:58 9.5 C 3.37 g/m*3 9.5 C 0 km/h
934 28-03-2009 18:53:57 9 C 3.35 g/m*3 9 C 0 km/h
935 28-03-2009 19:05:58 8.7 C 3.46 g/m*3 8.7 C 0 km/h
936 28-03-2009 19:17:58 8.2 C 3.43 g/m*3 8.2 C 0 km/h
937 28-03-2009 19:29:58 7.9 C 3.7 g/m*3 7.9 C 0 km/h
938 28-03-2009 19:41:57 7.6 C 3.71 g/m*3 7.6 C 0 km/h
939 28-03-2009 19:53:57 7.3 C 3.95 g/m*3 7.3 C 0 km/h
940 28-03-2009 20:05:57 6.9 C 4.16 g/m*3 6.9 C 0 km/h
941 28-03-2009 20:17:57 6.7 C 4.33 g/m*3 6.7 C 0 km/h
942 28-03-2009 20:29:57 6.9 C 4.31 g/m*3 6.9 C 0 km/h
943 28-03-2009 20:41:57 7 C 4.34 g/m*3 7 C 0 km/h
944 28-03-2009 20:53:57 6.9 C 4.39 g/m*3 6.9 C 0 km/h
945 28-03-2009 21:05:57 6.4 C 4.32 g/m*3 6.4 C 0 km/h
946 28-03-2009 21:17:56 6.2 C 4.41 g/m*3 6.2 C 0 km/h
947 28-03-2009 21:29:56 6 C 4.43 g/m*3 6 C 0 km/h
948 28-03-2009 21:41:56 6 C 4.43 g/m*3 6 C 0 km/h
949 28-03-2009 21:53:56 6.4 C 4.55 g/m*3 6.4 C 0 km/h
950 28-03-2009 22:05:56 6.4 C 4.55 g/m*3 6.4 C 0 km/h
Sensor: Nr:Datum:Temp:Abs-Feuchte:Windchill:Wind:
Aussen-T/F 951 28-03-2009 22:17:56 6.5 C 4.5 g/m*3 6.5 C 0 km/h
952 28-03-2009 22:29:56 6.9 C 4.46 g/m*3 6.9 C 0 km/h
953 28-03-2009 22:42:56 7.1 C 4.29 g/m*3 7.1 C 0 km/h
954 28-03-2009 22:54:56 7.2 C 4.24 g/m*3 7.2 C 0 km/h
955 28-03-2009 23:06:56 7.2 C 4.24 g/m*3 7.2 C 0 km/h
956 28-03-2009 23:18:56 6.6 C 4.76 g/m*3 6.6 C 0 km/h
957 28-03-2009 23:30:57 6 C 5.01 g/m*3 6 C 0 km/h
958 28-03-2009 23:42:57 5.8 C 5.16 g/m*3 5.8 C 0 km/h
959 28-03-2009 23:54:57 5.9 C 5.34 g/m*3 5.9 C 0 km/h
960 29-03-2009 00:06:57 6 C 5.08 g/m*3 6 C 0 km/h
961 29-03-2009 00:18:57 6.3 C 4.96 g/m*3 6.3 C 0 km/h
962 29-03-2009 00:30:57 6.3 C 4.74 g/m*3 6.3 C 0 km/h
963 29-03-2009 00:42:57 6 C 4.79 g/m*3 6 C 0 km/h
964 29-03-2009 00:54:57 5.9 C 4.9 g/m*3 5.9 C 0 km/h
965 29-03-2009 01:06:57 5.9 C 4.98 g/m*3 5.9 C 0 km/h
966 29-03-2009 01:18:57 5.9 C 4.9 g/m*3 5.9 C 0 km/h
967 29-03-2009 01:30:57 6 C 4.94 g/m*3 6 C 0 km/h
968 29-03-2009 01:42:57 5.9 C 4.98 g/m*3 5.9 C 0 km/h
969 29-03-2009 01:54:57 5.9 C 5.12 g/m*3 5.9 C 0 km/h
970 29-03-2009 02:06:57 5.7 C 4.98 g/m*3 5.7 C 0 km/h
971 29-03-2009 02:18:57 5.3 C 4.99 g/m*3 5.3 C 0 km/h
972 29-03-2009 02:30:57 5.1 C 4.92 g/m*3 5.1 C 0 km/h
973 29-03-2009 02:42:57 4.8 C 4.96 g/m*3 4.8 C 0 km/h
974 29-03-2009 02:54:57 4.9 C 5.06 g/m*3 4.9 C 0 km/h
975 29-03-2009 04:06:57 5 C 5.03 g/m*3 5 C 0 km/h
Sensor: Nr:Datum:Temp:Abs-Feuchte:Windchill:Wind:
Aussen-T/F 976 29-03-2009 04:18:57 5.2 C 5.03 g/m*3 5.2 C 0 km/h
977 29-03-2009 04:30:58 5.2 C 4.82 g/m*3 5.2 C 0 km/h
978 29-03-2009 04:42:58 5.2 C 4.68 g/m*3 5.2 C 0 km/h
979 29-03-2009 04:54:58 5.2 C 4.54 g/m*3 5.2 C 0 km/h
980 29-03-2009 05:06:58 5.1 C 4.31 g/m*3 5.1 C 0 km/h
981 29-03-2009 05:18:58 5.1 C 4.24 g/m*3 5.1 C 0 km/h
982 29-03-2009 05:30:58 5.1 C 4.17 g/m*3 5.1 C 0 km/h
983 29-03-2009 05:42:58 5.1 C 4.31 g/m*3 5.1 C 0 km/h
984 29-03-2009 05:54:58 5.2 C 4.27 g/m*3 5.2 C 0 km/h
985 29-03-2009 06:06:58 5.2 C 4.2 g/m*3 5.2 C 0 km/h
986 29-03-2009 06:18:58 5.2 C 4.2 g/m*3 5.2 C 0 km/h
987 29-03-2009 06:30:58 5.1 C 4.24 g/m*3 5.1 C 0 km/h
988 29-03-2009 06:42:58 5 C 4.21 g/m*3 5 C 0 km/h
989 29-03-2009 06:54:58 4.8 C 4.43 g/m*3 4.8 C 0 km/h
990 29-03-2009 07:06:58 4.6 C 4.43 g/m*3 4.6 C 0 km/h
991 29-03-2009 07:18:58 4.6 C 4.5 g/m*3 4.6 C 0 km/h
992 29-03-2009 07:30:58 4.7 C 4.53 g/m*3 4.7 C 0 km/h
993 29-03-2009 07:42:58 4.5 C 4.47 g/m*3 4.5 C 0 km/h
994 29-03-2009 07:54:58 4.4 C 4.44 g/m*3 4.4 C 0 km/h
995 29-03-2009 08:06:58 4.7 C 4.53 g/m*3 4.7 C 0 km/h
996 29-03-2009 08:18:59 5 C 4.48 g/m*3 5 C 0 km/h
997 29-03-2009 08:30:59 5.1 C 4.45 g/m*3 5.1 C 0 km/h
998 29-03-2009 08:42:59 5.1 C 4.45 g/m*3 5.1 C 0 km/h
999 29-03-2009 08:54:59 5.2 C 4.48 g/m*3 5.2 C 0 km/h
1000 29-03-2009 09:06:59 5.4 C 4.47 g/m*3 5.4 C 0 km/h
Sensor: Nr:Datum:Temp:Abs-Feuchte:Windchill:Wind:
Aussen-T/F 1001 29-03-2009 09:18:59 5.5 C 4.57 g/m*3 5.5 C 0 km/h
1002 29-03-2009 09:30:56 5.5 C 4.57 g/m*3 5.5 C 0 km/h
1003 29-03-2009 09:42:56 5.6 C 4.67 g/m*3 5.6 C 0 km/h
1004 29-03-2009 09:54:56 5.1 C 4.99 g/m*3 5.1 C 0 km/h
1005 29-03-2009 10:06:56 5.3 C 5.27 g/m*3 5.3 C 0 km/h
1006 29-03-2009 10:18:01 5.4 C 5.37 g/m*3 5.4 C 0 km/h
1007 29-03-2009 10:30:01 5.9 C 5.55 g/m*3 5.9 C 0 km/h
1008 29-03-2009 10:42:02 6.3 C 5.4 g/m*3 6.3 C 0 km/h
1009 29-03-2009 10:54:01 6.4 C 5.22 g/m*3 6.4 C 0 km/h
1010 29-03-2009 11:06:02 6.2 C 5.07 g/m*3 6.2 C 0 km/h
1011 29-03-2009 11:18:01 6.2 C 5.07 g/m*3 6.2 C 0 km/h
1012 29-03-2009 11:30:01 6.5 C 5.02 g/m*3 6.5 C 0 km/h
1013 29-03-2009 11:42:01 6.5 C 4.95 g/m*3 6.5 C 0 km/h
1014 29-03-2009 11:54:01 6.7 C 5.01 g/m*3 6.7 C 0 km/h
1015 29-03-2009 12:06:01 6.9 C 5 g/m*3 6.9 C 0 km/h
1016 29-03-2009 12:18:00 7.6 C 5.08 g/m*3 7.6 C 0 km/h
1017 29-03-2009 12:30:00 8.4 C 5.09 g/m*3 8.4 C 0 km/h
1018 29-03-2009 12:42:01 8 C 4.88 g/m*3 8 C 0 km/h
1019 29-03-2009 12:54:00 8.1 C 4.99 g/m*3 8.1 C 0 km/h
1020 29-03-2009 13:06:00 8.9 C 4.99 g/m*3 8.9 C 0 km/h
1021 29-03-2009 13:18:00 7.8 C 4.73 g/m*3 7.8 C 0 km/h
1022 29-03-2009 13:30:00 7.8 C 5.06 g/m*3 7.8 C 0 km/h
1023 29-03-2009 13:42:00 8.5 C 4.95 g/m*3 8.5 C 0 km/h
1024 29-03-2009 13:54:00 8.8 C 4.96 g/m*3 8.8 C 0 km/h
1025 29-03-2009 14:06:00 9 C 4.58 g/m*3 9 C 0 km/h
Sensor: Nr:Datum:Temp:Abs-Feuchte:Windchill:Wind:
Aussen-T/F 1026 29-03-2009 14:18:00 7.9 C 4.85 g/m*3 7.9 C 0 km/h
1027 29-03-2009 14:30:00 6.7 C 5.09 g/m*3 6.7 C 0 km/h
1028 29-03-2009 14:42:59 6.6 C 5.44 g/m*3 6.6 C 0 km/h
1029 29-03-2009 14:54:00 6.9 C 5.77 g/m*3 6.9 C 0 km/h
1030 29-03-2009 15:06:59 8.3 C 6.32 g/m*3 8.3 C 0 km/h
1031 29-03-2009 15:18:59 9 C 6.08 g/m*3 9 C 0 km/h
1032 29-03-2009 15:30:58 8.4 C 5.26 g/m*3 8.4 C 0 km/h
1033 29-03-2009 15:42:58 9 C 5.47 g/m*3 9 C 0 km/h
1034 29-03-2009 15:54:59 8.1 C 4.66 g/m*3 8.1 C 0 km/h
1035 29-03-2009 16:06:58 7.4 C 4.61 g/m*3 7.4 C 0 km/h
1036 29-03-2009 16:18:58 7.7 C 4.54 g/m*3 7.7 C 0 km/h
1037 29-03-2009 16:30:58 8.1 C 4.58 g/m*3 8.1 C 0 km/h
1038 29-03-2009 16:42:58 8.3 C 4.38 g/m*3 8.3 C 0 km/h
1039 29-03-2009 16:54:58 8.4 C 4.16 g/m*3 8.4 C 0 km/h
1040 29-03-2009 17:06:58 9 C 4.14 g/m*3 9 C 0 km/h
1041 29-03-2009 17:18:57 9.5 C 4.28 g/m*3 9.5 C 0 km/h
1042 29-03-2009 17:30:58 9.8 C 4.08 g/m*3 9.8 C 0 km/h
1043 29-03-2009 17:42:58 9 C 3.97 g/m*3 9 C 0 km/h
1044 29-03-2009 17:54:57 8.5 C 3.84 g/m*3 8.5 C 0 km/h
1045 29-03-2009 18:06:58 8.2 C 4.02 g/m*3 8.2 C 0 km/h
1046 29-03-2009 18:18:57 8 C 4.22 g/m*3 8 C 0 km/h
1047 29-03-2009 18:30:57 8 C 4.38 g/m*3 8 C 0 km/h
1048 29-03-2009 18:42:57 7.8 C 4.49 g/m*3 7.8 C 0 km/h
1049 29-03-2009 18:54:57 7.5 C 4.72 g/m*3 7.5 C 0 km/h
1050 29-03-2009 19:06:57 7.3 C 4.82 g/m*3 7.3 C 0 km/h
Sensor: Nr:Datum:Temp:Abs-Feuchte:Windchill:Wind:
Aussen-T/F 1051 29-03-2009 19:18:56 7 C 4.8 g/m*3 7 C 0 km/h
1052 29-03-2009 19:30:56 6.3 C 5.26 g/m*3 6.3 C 0 km/h
1053 29-03-2009 19:42:56 6.1 C 5.48 g/m*3 6.1 C 0 km/h
1054 29-03-2009 19:54:56 6 C 5.66 g/m*3 6 C 0 km/h
1055 29-03-2009 20:06:56 5.9 C 5.84 g/m*3 5.9 C 0 km/h
1056 29-03-2009 20:18:56 5.7 C 5.84 g/m*3 5.7 C 0 km/h
1057 29-03-2009 20:30:56 5.5 C 5.83 g/m*3 5.5 C 0 km/h
1058 29-03-2009 20:42:56 5.4 C 5.86 g/m*3 5.4 C 0 km/h
1059 29-03-2009 20:54:56 5.3 C 5.82 g/m*3 5.3 C 0 km/h
1060 29-03-2009 21:06:55 5 C 5.71 g/m*3 5 C 0 km/h
1061 29-03-2009 21:18:56 4.8 C 5.7 g/m*3 4.8 C 0 km/h
1062 29-03-2009 21:30:55 4.7 C 5.66 g/m*3 4.7 C 0 km/h
1063 29-03-2009 21:42:55 4.5 C 5.59 g/m*3 4.5 C 0 km/h
1064 29-03-2009 21:54:55 4.5 C 5.65 g/m*3 4.5 C 0 km/h
1065 29-03-2009 22:06:55 4.6 C 5.69 g/m*3 4.6 C 0 km/h
1066 29-03-2009 22:18:55 4.6 C 5.69 g/m*3 4.6 C 0 km/h
1067 29-03-2009 22:30:55 4.4 C 5.55 g/m*3 4.4 C 0 km/h
1068 29-03-2009 22:42:55 4.3 C 5.51 g/m*3 4.3 C 0 km/h
1069 29-03-2009 22:54:55 4.3 C 5.45 g/m*3 4.3 C 0 km/h
1070 29-03-2009 23:06:55 4.3 C 5.38 g/m*3 4.3 C 0 km/h
1071 29-03-2009 23:18:54 4.3 C 5.32 g/m*3 4.3 C 0 km/h
1072 29-03-2009 23:31:02 4.1 C 5.18 g/m*3 4.1 C 0 km/h
1073 29-03-2009 23:43:02 3.8 C 5.14 g/m*3 3.8 C 0 km/h
1074 29-03-2009 23:55:02 3.6 C 5.08 g/m*3 3.6 C 0 km/h
1075 30-03-2009 00:07:02 3.5 C 5.04 g/m*3 3.5 C 0 km/h
Sensor: Nr:Datum:Temp:Abs-Feuchte:Windchill:Wind:
Aussen-T/F 1076 30-03-2009 00:19:02 3.3 C 4.97 g/m*3 3.3 C 0 km/h
1077 30-03-2009 00:31:02 3.1 C 4.91 g/m*3 3.1 C 0 km/h
1078 30-03-2009 00:43:02 3 C 4.93 g/m*3 3 C 0 km/h
1079 30-03-2009 00:55:02 3 C 4.93 g/m*3 3 C 0 km/h
1080 30-03-2009 01:07:02 2.7 C 4.89 g/m*3 2.7 C 0 km/h
1081 30-03-2009 01:19:02 2.5 C 4.83 g/m*3 2.5 C 0 km/h
1082 30-03-2009 01:31:02 2.3 C 4.82 g/m*3 2.3 C 0 km/h
1083 30-03-2009 01:43:02 2.1 C 4.76 g/m*3 2.1 C 0 km/h
1084 30-03-2009 01:55:02 2 C 4.72 g/m*3 2 C 0 km/h
1085 30-03-2009 02:07:03 2 C 4.78 g/m*3 2 C 0 km/h
1086 30-03-2009 02:19:03 1.9 C 4.8 g/m*3 1.9 C 0 km/h
1087 30-03-2009 02:31:03 1.8 C 4.77 g/m*3 1.8 C 0 km/h
1088 30-03-2009 02:43:03 1.7 C 4.74 g/m*3 1.7 C 0 km/h
1089 30-03-2009 02:55:03 1.8 C 4.77 g/m*3 1.8 C 0 km/h
1090 30-03-2009 03:07:03 1.5 C 4.73 g/m*3 1.5 C 0 km/h
1091 30-03-2009 03:19:03 1.5 C 4.67 g/m*3 1.5 C 0 km/h
1092 30-03-2009 03:31:03 1.4 C 4.69 g/m*3 1.4 C 0 km/h
1093 30-03-2009 03:43:03 1.3 C 4.66 g/m*3 1.3 C 0 km/h
1094 30-03-2009 03:55:03 1.2 C 4.63 g/m*3 1.2 C 0 km/h
1095 30-03-2009 04:07:03 1.2 C 4.63 g/m*3 1.2 C 0 km/h
1096 30-03-2009 04:19:03 1.2 C 4.63 g/m*3 1.2 C 0 km/h
1097 30-03-2009 04:31:03 1.1 C 4.6 g/m*3 1.1 C 0 km/h
1098 30-03-2009 04:43:03 1.2 C 4.63 g/m*3 1.2 C 0 km/h
1099 30-03-2009 04:55:03 1.3 C 4.66 g/m*3 1.3 C 0 km/h
1100 30-03-2009 05:07:03 1 C 4.57 g/m*3 1 C 0 km/h
Sensor: Nr:Datum:Temp:Abs-Feuchte:Windchill:Wind:
Aussen-T/F 1101 30-03-2009 05:19:03 1 C 4.57 g/m*3 1 C 0 km/h
1102 30-03-2009 05:31:03 0.8 C 4.56 g/m*3 0.8 C 0 km/h
1103 30-03-2009 05:43:03 0.7 C 4.53 g/m*3 0.7 C 0 km/h
1104 30-03-2009 05:55:03 0.7 C 4.53 g/m*3 0.7 C 0 km/h
1105 30-03-2009 06:07:04 0.6 C 4.49 g/m*3 0.6 C 0 km/h
1106 30-03-2009 06:19:04 0.4 C 4.43 g/m*3 0.4 C 0 km/h
1107 30-03-2009 06:31:04 0.3 C 4.4 g/m*3 0.3 C 0 km/h
1108 30-03-2009 06:43:04 0.3 C 4.45 g/m*3 0.3 C 0 km/h
1109 30-03-2009 06:55:04 0 C 4.31 g/m*3 0 C 0 km/h
1110 30-03-2009 07:07:01 -0.2 C 4.25 g/m*3 -0.2 C 0 km/h
1111 30-03-2009 07:19:01 -0.2 C 4.25 g/m*3 -0.2 C 0 km/h
1112 30-03-2009 07:31:01 -0.2 C 4.25 g/m*3 -0.2 C 0 km/h
1113 30-03-2009 07:43:01 -0.2 C 4.3 g/m*3 -0.2 C 0 km/h
1114 30-03-2009 07:55:01 -0.2 C 4.3 g/m*3 -0.2 C 0 km/h
1115 30-03-2009 08:07:00 0 C 4.36 g/m*3 0 C 0 km/h
1116 30-03-2009 08:19:01 0.3 C 4.45 g/m*3 0.3 C 0 km/h
1117 30-03-2009 08:31:00 0.5 C 4.56 g/m*3 0.5 C 0 km/h
1118 30-03-2009 08:43:00 0.6 C 4.6 g/m*3 0.6 C 0 km/h
1119 30-03-2009 08:55:00 0.9 C 4.69 g/m*3 0.9 C 0 km/h
1120 30-03-2009 09:07:00 1.3 C 4.82 g/m*3 1.3 C 0 km/h
1121 30-03-2009 09:19:00 1.4 C 4.91 g/m*3 1.4 C 0 km/h
1122 30-03-2009 09:31:00 1.5 C 4.89 g/m*3 1.5 C 0 km/h
1123 30-03-2009 09:43:00 1.9 C 5.08 g/m*3 1.9 C 0 km/h
1124 30-03-2009 09:55:00 2.7 C 5.36 g/m*3 2.7 C 0 km/h
1125 30-03-2009 10:07:00 3.1 C 5.51 g/m*3 3.1 C 0 km/h
Sensor: Nr:Datum:Temp:Abs-Feuchte:Windchill:Wind:
Aussen-T/F 1126 30-03-2009 10:19:59 3.4 C 5.62 g/m*3 3.4 C 0 km/h
1127 30-03-2009 10:31:59 3.7 C 5.73 g/m*3 3.7 C 0 km/h
1128 30-03-2009 10:43:59 4.1 C 5.89 g/m*3 4.1 C 0 km/h
1129 30-03-2009 10:55:59 4.6 C 6.09 g/m*3 4.6 C 0 km/h
1130 30-03-2009 11:07:59 5.1 C 6.22 g/m*3 5.1 C 0 km/h
1131 30-03-2009 11:19:59 5.7 C 6.48 g/m*3 5.7 C 0 km/h
1132 30-03-2009 11:31:58 6.2 C 6.55 g/m*3 6.2 C 0 km/h
1133 30-03-2009 11:43:58 6.7 C 6.38 g/m*3 6.7 C 0 km/h
1134 30-03-2009 11:55:59 7 C 5.73 g/m*3 7 C 0 km/h
1135 30-03-2009 12:07:58 7.7 C 5.76 g/m*3 7.7 C 0 km/h
1136 30-03-2009 12:19:58 8.2 C 5.28 g/m*3 8.2 C 0 km/h
1137 30-03-2009 12:31:58 8.5 C 4.95 g/m*3 8.5 C 0 km/h
1138 30-03-2009 12:43:58 9.1 C 4.88 g/m*3 9.1 C 0 km/h
1139 30-03-2009 12:55:58 10.1 C 4.73 g/m*3 10.1 C 0 km/h
1140 30-03-2009 13:07:57 10.4 C 4.34 g/m*3 10.4 C 0 km/h
1141 30-03-2009 13:19:58 10 C 4.13 g/m*3 10 C 0 km/h
1142 30-03-2009 13:31:58 10.1 C 4.26 g/m*3 10.1 C 0 km/h
1143 30-03-2009 13:43:58 10.7 C 4.13 g/m*3 10.7 C 0 km/h
1144 30-03-2009 13:55:57 11.7 C 4.08 g/m*3 11.7 C 0 km/h
1145 30-03-2009 14:07:58 12.9 C 3.94 g/m*3 12.9 C 0 km/h
1146 30-03-2009 14:19:57 12.9 C 3.49 g/m*3 12.9 C 0 km/h
1147 30-03-2009 14:31:57 12.8 C 3.36 g/m*3 12.8 C 0 km/h
1148 30-03-2009 14:43:57 12.7 C 3.34 g/m*3 12.7 C 0 km/h
1149 30-03-2009 14:55:57 13.4 C 2.79 g/m*3 13.4 C 0 km/h
1150 30-03-2009 15:07:57 13.9 C 2.76 g/m*3 13.9 C 0 km/h
Sensor: Nr:Datum:Temp:Abs-Feuchte:Windchill:Wind:
Aussen-T/F 1151 30-03-2009 15:19:56 13.2 C 2.87 g/m*3 13.2 C 0 km/h
1152 30-03-2009 15:31:56 12.9 C 3.04 g/m*3 12.9 C 0 km/h
1153 30-03-2009 15:43:56 14.5 C 2.49 g/m*3 14.5 C 0 km/h
1154 30-03-2009 15:55:56 15.8 C 2.69 g/m*3 15.8 C 0 km/h
1155 30-03-2009 16:07:56 16.6 C 2.83 g/m*3 16.6 C 0 km/h
1156 30-03-2009 16:19:55 16.7 C 2.84 g/m*3 16.7 C 0 km/h
1157 30-03-2009 16:31:56 15.2 C 2.6 g/m*3 15.2 C 0 km/h
1158 30-03-2009 16:43:56 15 C 2.56 g/m*3 15 C 0 km/h
1159 30-03-2009 16:55:55 15.6 C 2.66 g/m*3 15.6 C 0 km/h
1160 30-03-2009 17:07:55 14.2 C 2.44 g/m*3 14.2 C 0 km/h
1161 30-03-2009 17:19:56 14.1 C 2.43 g/m*3 14.1 C 0 km/h
1162 30-03-2009 17:31:55 15.4 C 2.63 g/m*3 15.4 C 0 km/h
1163 30-03-2009 17:43:55 16.3 C 2.77 g/m*3 16.3 C 0 km/h
1164 30-03-2009 17:55:55 14.8 C 2.53 g/m*3 14.8 C 0 km/h
1165 30-03-2009 18:07:55 14.3 C 2.46 g/m*3 14.3 C 0 km/h
1166 30-03-2009 18:19:55 13.5 C 2.46 g/m*3 13.5 C 0 km/h
1167 30-03-2009 18:31:54 13.3 C 3 g/m*3 13.3 C 0 km/h
1168 30-03-2009 18:43:54 13.5 C 3.04 g/m*3 13.5 C 0 km/h
1169 30-03-2009 18:55:55 13.9 C 3.12 g/m*3 13.9 C 0 km/h
1170 30-03-2009 19:07:54 12.9 C 3.38 g/m*3 12.9 C 0 km/h
1171 30-03-2009 19:19:54 12.5 C 3.41 g/m*3 12.5 C 0 km/h
1172 30-03-2009 19:31:54 12.1 C 3.43 g/m*3 12.1 C 0 km/h
1173 30-03-2009 19:43:54 11.5 C 3.82 g/m*3 11.5 C 0 km/h
1174 30-03-2009 19:55:54 10.7 C 4.03 g/m*3 10.7 C 0 km/h
1175 30-03-2009 20:07:54 10.1 C 4.07 g/m*3 10.1 C 0 km/h
Sensor: Nr:Datum:Temp:Abs-Feuchte:Windchill:Wind:
Aussen-T/F 1176 30-03-2009 20:19:53 9.8 C 4.27 g/m*3 9.8 C 0 km/h
1177 30-03-2009 20:31:54 9.3 C 4.4 g/m*3 9.3 C 0 km/h
1178 30-03-2009 20:43:54 8.7 C 4.32 g/m*3 8.7 C 0 km/h
1179 30-03-2009 20:55:53 8.3 C 4.3 g/m*3 8.3 C 0 km/h
1180 30-03-2009 21:07:53 8 C 4.3 g/m*3 8 C 0 km/h
1181 30-03-2009 21:19:53 7.7 C 4.38 g/m*3 7.7 C 0 km/h
1182 30-03-2009 21:32:54 7.4 C 4.37 g/m*3 7.4 C 0 km/h
1183 30-03-2009 21:44:54 7.2 C 4.47 g/m*3 7.2 C 0 km/h
1184 30-03-2009 21:56:54 7 C 4.49 g/m*3 7 C 0 km/h
1185 30-03-2009 22:08:54 6.9 C 4.46 g/m*3 6.9 C 0 km/h
1186 30-03-2009 22:20:54 6.5 C 4.5 g/m*3 6.5 C 0 km/h
1187 30-03-2009 22:32:54 6.3 C 4.52 g/m*3 6.3 C 0 km/h
1188 30-03-2009 22:44:54 6.4 C 4.55 g/m*3 6.4 C 0 km/h
1189 30-03-2009 22:56:54 5.9 C 4.54 g/m*3 5.9 C 0 km/h
1190 30-03-2009 23:08:54 5.5 C 4.42 g/m*3 5.5 C 0 km/h
1191 30-03-2009 23:20:54 5.3 C 4.51 g/m*3 5.3 C 0 km/h
1192 30-03-2009 23:32:54 5.2 C 4.54 g/m*3 5.2 C 0 km/h
1193 30-03-2009 23:44:54 5.1 C 4.58 g/m*3 5.1 C 0 km/h
1194 30-03-2009 23:56:54 4.9 C 4.52 g/m*3 4.9 C 0 km/h
1195 31-03-2009 00:08:54 4.7 C 4.46 g/m*3 4.7 C 0 km/h
1196 31-03-2009 00:20:54 4.5 C 4.47 g/m*3 4.5 C 0 km/h
1197 31-03-2009 00:32:54 4.3 C 4.48 g/m*3 4.3 C 0 km/h
1198 31-03-2009 00:44:54 4 C 4.45 g/m*3 4 C 0 km/h
1199 31-03-2009 00:56:54 3.8 C 4.45 g/m*3 3.8 C 0 km/h
1200 31-03-2009 01:08:54 3.6 C 4.46 g/m*3 3.6 C 0 km/h
Sensor: Nr:Datum:Temp:Abs-Feuchte:Windchill:Wind:
Aussen-T/F 1201 31-03-2009 01:20:54 3.5 C 4.43 g/m*3 3.5 C 0 km/h
1202 31-03-2009 01:32:54 3.2 C 4.4 g/m*3 3.2 C 0 km/h
1203 31-03-2009 01:44:55 3.1 C 4.43 g/m*3 3.1 C 0 km/h
1204 31-03-2009 01:56:55 3 C 4.4 g/m*3 3 C 0 km/h
1205 31-03-2009 02:08:55 2.9 C 4.49 g/m*3 2.9 C 0 km/h
1206 31-03-2009 02:20:55 2.7 C 4.37 g/m*3 2.7 C 0 km/h
1207 31-03-2009 02:32:55 2.5 C 4.31 g/m*3 2.5 C 0 km/h
1208 31-03-2009 02:44:55 2.3 C 4.31 g/m*3 2.3 C 0 km/h
1209 31-03-2009 02:56:55 2.1 C 4.25 g/m*3 2.1 C 0 km/h
1210 31-03-2009 03:08:55 2.1 C 4.31 g/m*3 2.1 C 0 km/h
1211 31-03-2009 03:20:55 2 C 4.33 g/m*3 2 C 0 km/h
1212 31-03-2009 03:32:55 1.8 C 4.33 g/m*3 1.8 C 0 km/h
1213 31-03-2009 03:44:55 1.6 C 4.27 g/m*3 1.6 C 0 km/h
1214 31-03-2009 03:56:55 1.5 C 4.3 g/m*3 1.5 C 0 km/h
1215 31-03-2009 04:08:55 1.3 C 4.29 g/m*3 1.3 C 0 km/h
1216 31-03-2009 04:20:55 1.2 C 4.26 g/m*3 1.2 C 0 km/h
1217 31-03-2009 04:32:55 1 C 4.2 g/m*3 1 C 0 km/h
1218 31-03-2009 04:44:55 1 C 4.2 g/m*3 1 C 0 km/h
1219 31-03-2009 04:56:55 1 C 4.2 g/m*3 1 C 0 km/h
1220 31-03-2009 05:08:55 0.8 C 4.2 g/m*3 0.8 C 0 km/h
1221 31-03-2009 05:20:55 0.6 C 4.14 g/m*3 0.6 C 0 km/h
1222 31-03-2009 05:32:55 0.6 C 4.14 g/m*3 0.6 C 0 km/h
1223 31-03-2009 05:44:56 0.4 C 4.08 g/m*3 0.4 C 0 km/h
1224 31-03-2009 05:56:56 0.3 C 4.06 g/m*3 0.3 C 0 km/h
1225 31-03-2009 06:08:56 0.3 C 4.11 g/m*3 0.3 C 0 km/h
Sensor: Nr:Datum:Temp:Abs-Feuchte:Windchill:Wind:
Aussen-T/F 1226 31-03-2009 06:20:56 0.2 C 4.08 g/m*3 0.2 C 0 km/h
1227 31-03-2009 06:32:56 0 C 4.07 g/m*3 0 C 0 km/h
1228 31-03-2009 06:44:56 -0.2 C 3.97 g/m*3 -0.2 C 0 km/h
1229 31-03-2009 06:56:56 -0.3 C 3.94 g/m*3 -0.3 C 0 km/h
1230 31-03-2009 07:08:53 -0.3 C 3.99 g/m*3 -0.3 C 0 km/h
1231 31-03-2009 07:20:54 -0.3 C 3.99 g/m*3 -0.3 C 0 km/h
1232 31-03-2009 07:32:53 -0.5 C 3.93 g/m*3 -0.5 C 0 km/h
1233 31-03-2009 07:44:53 -0.4 C 3.96 g/m*3 -0.4 C 0 km/h
1234 31-03-2009 07:56:53 -0.3 C 3.99 g/m*3 -0.3 C 0 km/h
1235 31-03-2009 08:08:53 -0.1 C 4.09 g/m*3 -0.1 C 0 km/h
1236 31-03-2009 08:20:53 0 C 4.12 g/m*3 0 C 0 km/h
1237 31-03-2009 08:32:52 0.1 C 4.2 g/m*3 0.1 C 0 km/h
1238 31-03-2009 08:44:53 0.3 C 4.25 g/m*3 0.3 C 0 km/h
1239 31-03-2009 08:56:53 0.4 C 4.28 g/m*3 0.4 C 0 km/h
1240 31-03-2009 09:08:52 0.6 C 4.34 g/m*3 0.6 C 0 km/h
1241 31-03-2009 09:20:52 0.8 C 4.4 g/m*3 0.8 C 0 km/h
1242 31-03-2009 09:32:52 1.1 C 4.49 g/m*3 1.1 C 0 km/h
1243 31-03-2009 09:44:52 1.5 C 4.67 g/m*3 1.5 C 0 km/h
1244 31-03-2009 09:56:52 2.1 C 4.87 g/m*3 2.1 C 0 km/h
1245 31-03-2009 10:08:52 2.8 C 5.04 g/m*3 2.8 C 0 km/h
1246 31-03-2009 10:20:51 3.4 C 5.01 g/m*3 3.4 C 0 km/h
1247 31-03-2009 10:32:52 4.1 C 4.99 g/m*3 4.1 C 0 km/h
1248 31-03-2009 10:44:51 4.6 C 5.03 g/m*3 4.6 C 0 km/h
1249 31-03-2009 10:56:51 5.2 C 4.82 g/m*3 5.2 C 0 km/h
1250 31-03-2009 11:08:52 5.9 C 4.76 g/m*3 5.9 C 0 km/h
Sensor: Nr:Datum:Temp:Abs-Feuchte:Windchill:Wind:
Aussen-T/F 1251 31-03-2009 11:20:51 6.5 C 4.57 g/m*3 6.5 C 0 km/h
1252 31-03-2009 11:32:51 7.4 C 4.69 g/m*3 7.4 C 0 km/h
1253 31-03-2009 11:44:51 7.9 C 4.68 g/m*3 7.9 C 0 km/h
1254 31-03-2009 11:56:51 8.5 C 4.61 g/m*3 8.5 C 0 km/h
1255 31-03-2009 12:08:51 9.1 C 4.44 g/m*3 9.1 C 0 km/h
1256 31-03-2009 12:20:50 9.6 C 4.12 g/m*3 9.6 C 0 km/h
1257 31-03-2009 12:32:50 10.6 C 4 g/m*3 10.6 C 0 km/h
1258 31-03-2009 12:44:50 11 C 3.6 g/m*3 11 C 0 km/h
1259 31-03-2009 12:56:50 11.6 C 3.33 g/m*3 11.6 C 0 km/h
1260 31-03-2009 13:08:50 12.1 C 3.32 g/m*3 12.1 C 0 km/h
1261 31-03-2009 13:20:49 12.5 C 2.97 g/m*3 12.5 C 0 km/h
1262 31-03-2009 13:32:50 13.2 C 2.53 g/m*3 13.2 C 0 km/h
1263 31-03-2009 13:44:49 13.6 C 2.59 g/m*3 13.6 C 0 km/h
1264 31-03-2009 13:56:49 14.2 C 2.44 g/m*3 14.2 C 0 km/h
1265 31-03-2009 14:08:49 14.7 C 2.52 g/m*3 14.7 C 0 km/h
1266 31-03-2009 14:20:50 15.1 C 2.58 g/m*3 15.1 C 0 km/h
1267 31-03-2009 14:32:49 15.9 C 2.71 g/m*3 15.9 C 0 km/h
1268 31-03-2009 14:44:49 16 C 2.72 g/m*3 16 C 0 km/h
1269 31-03-2009 14:56:49 16.8 C 2.86 g/m*3 16.8 C 0 km/h
1270 31-03-2009 15:08:49 17.2 C 2.93 g/m*3 17.2 C 0 km/h
1271 31-03-2009 15:20:49 17.3 C 2.95 g/m*3 17.3 C 0 km/h
1272 31-03-2009 15:32:48 17.8 C 3.04 g/m*3 17.8 C 0 km/h
1273 31-03-2009 15:44:49 18.1 C 3.09 g/m*3 18.1 C 0 km/h
1274 31-03-2009 15:56:49 18.6 C 3.18 g/m*3 18.6 C 0 km/h
1275 31-03-2009 16:08:48 18.3 C 3.13 g/m*3 18.3 C 0 km/h
Sensor: Nr:Datum:Temp:Abs-Feuchte:Windchill:Wind:
Aussen-T/F 1276 31-03-2009 16:20:48 19 C 3.26 g/m*3 19 C 0 km/h
1277 31-03-2009 16:32:48 19.6 C 3.38 g/m*3 19.6 C 0 km/h
1278 31-03-2009 16:44:48 20 C 3.46 g/m*3 20 C 0 km/h
1279 31-03-2009 16:56:49 20.3 C 3.52 g/m*3 20.3 C 0 km/h
1280 31-03-2009 17:08:47 20.3 C 3.52 g/m*3 20.3 C 0 km/h
1281 31-03-2009 17:20:48 20.3 C 3.52 g/m*3 20.3 C 0 km/h
1282 31-03-2009 17:32:48 20 C 3.46 g/m*3 20 C 0 km/h
1283 31-03-2009 17:44:47 20.6 C 3.58 g/m*3 20.6 C 0 km/h
1284 31-03-2009 17:56:47 20.1 C 3.48 g/m*3 20.1 C 0 km/h
1285 31-03-2009 18:08:48 20 C 3.46 g/m*3 20 C 0 km/h
1286 31-03-2009 18:20:47 19.8 C 3.42 g/m*3 19.8 C 0 km/h
1287 31-03-2009 18:32:47 19.3 C 3.32 g/m*3 19.3 C 0 km/h
1288 31-03-2009 18:44:46 19.2 C 3.3 g/m*3 19.2 C 0 km/h
1289 31-03-2009 18:56:46 19 C 3.26 g/m*3 19 C 0 km/h
1290 31-03-2009 19:08:47 18.5 C 3.16 g/m*3 18.5 C 0 km/h
1291 31-03-2009 19:20:46 17.7 C 3.02 g/m*3 17.7 C 0 km/h
1292 31-03-2009 19:32:46 17 C 2.89 g/m*3 17 C 0 km/h
1293 31-03-2009 19:44:46 15.7 C 2.81 g/m*3 15.7 C 0 km/h
1294 31-03-2009 19:56:46 14.4 C 3.09 g/m*3 14.4 C 0 km/h
1295 31-03-2009 20:08:46 13.6 C 3.3 g/m*3 13.6 C 0 km/h
1296 31-03-2009 20:20:46 12.7 C 3.34 g/m*3 12.7 C 0 km/h
1297 31-03-2009 20:32:46 12.3 C 3.26 g/m*3 12.3 C 0 km/h
1298 31-03-2009 20:44:46 11.8 C 3.26 g/m*3 11.8 C 0 km/h
1299 31-03-2009 20:56:46 11.7 C 3.24 g/m*3 11.7 C 0 km/h
1300 31-03-2009 21:08:46 11.5 C 3.1 g/m*3 11.5 C 0 km/h
Sensor: Nr:Datum:Temp:Abs-Feuchte:Windchill:Wind:
Aussen-T/F 1301 31-03-2009 21:21:46 11.4 C 3.28 g/m*3 11.4 C 0 km/h
1302 31-03-2009 21:33:46 11.1 C 3.22 g/m*3 11.1 C 0 km/h
1303 31-03-2009 21:45:46 10.9 C 3.48 g/m*3 10.9 C 0 km/h
1304 31-03-2009 21:57:46 10.7 C 3.54 g/m*3 10.7 C 0 km/h
1305 31-03-2009 22:09:46 10.3 C 3.73 g/m*3 10.3 C 0 km/h
1306 31-03-2009 22:21:46 9.8 C 3.9 g/m*3 9.8 C 0 km/h
1307 31-03-2009 22:33:46 9.5 C 3.82 g/m*3 9.5 C 0 km/h
1308 31-03-2009 22:45:46 9.1 C 3.9 g/m*3 9.1 C 0 km/h
1309 31-03-2009 22:57:46 8.9 C 4.03 g/m*3 8.9 C 0 km/h
1310 31-03-2009 23:09:46 8.7 C 4.06 g/m*3 8.7 C 0 km/h
1311 31-03-2009 23:21:46 8.6 C 4.04 g/m*3 8.6 C 0 km/h
1312 31-03-2009 23:33:46 8.3 C 4.13 g/m*3 8.3 C 0 km/h
1313 31-03-2009 23:45:46 8.1 C 4.08 g/m*3 8.1 C 0 km/h
1314 31-03-2009 23:57:46 8.1 C 4.08 g/m*3 8.1 C 0 km/h
1315 01-04-2009 00:09:46 8 C 3.97 g/m*3 8 C 0 km/h
1316 01-04-2009 00:21:46 7.6 C 4.11 g/m*3 7.6 C 0 km/h
1317 01-04-2009 00:33:46 7.5 C 4.16 g/m*3 7.5 C 0 km/h
1318 01-04-2009 00:45:47 7.3 C 4.19 g/m*3 7.3 C 0 km/h
1319 01-04-2009 00:57:47 7.2 C 4.24 g/m*3 7.2 C 0 km/h
1320 01-04-2009 01:09:47 7 C 4.34 g/m*3 7 C 0 km/h
1321 01-04-2009 01:21:47 6.9 C 4.31 g/m*3 6.9 C 0 km/h
1322 01-04-2009 01:33:47 6.7 C 4.33 g/m*3 6.7 C 0 km/h
1323 01-04-2009 01:45:47 6.6 C 4.38 g/m*3 6.6 C 0 km/h
1324 01-04-2009 01:57:47 6.3 C 4.44 g/m*3 6.3 C 0 km/h
1325 01-04-2009 02:09:47 6.2 C 4.49 g/m*3 6.2 C 0 km/h
Sensor: Nr:Datum:Temp:Abs-Feuchte:Windchill:Wind:
Aussen-T/F 1326 01-04-2009 02:21:47 5.8 C 4.44 g/m*3 5.8 C 0 km/h
1327 01-04-2009 02:33:47 5.6 C 4.45 g/m*3 5.6 C 0 km/h
1328 01-04-2009 02:45:47 5.5 C 4.49 g/m*3 5.5 C 0 km/h
1329 01-04-2009 02:57:47 5.2 C 4.41 g/m*3 5.2 C 0 km/h
1330 01-04-2009 03:09:47 4.9 C 4.39 g/m*3 4.9 C 0 km/h
1331 01-04-2009 03:21:47 4.8 C 4.43 g/m*3 4.8 C 0 km/h
1332 01-04-2009 03:33:47 4.7 C 4.46 g/m*3 4.7 C 0 km/h
1333 01-04-2009 03:45:47 4.6 C 4.5 g/m*3 4.6 C 0 km/h
1334 01-04-2009 03:57:47 4.4 C 4.51 g/m*3 4.4 C 0 km/h
1335 01-04-2009 04:09:47 4 C 4.39 g/m*3 4 C 0 km/h
1336 01-04-2009 04:21:47 4.1 C 4.48 g/m*3 4.1 C 0 km/h
1337 01-04-2009 04:33:47 3.8 C 4.45 g/m*3 3.8 C 0 km/h
1338 01-04-2009 04:45:48 3.9 C 4.55 g/m*3 3.9 C 0 km/h
1339 01-04-2009 04:57:48 3.6 C 4.46 g/m*3 3.6 C 0 km/h
1340 01-04-2009 05:09:48 3.3 C 4.37 g/m*3 3.3 C 0 km/h
1341 01-04-2009 05:21:48 3.4 C 4.52 g/m*3 3.4 C 0 km/h
1342 01-04-2009 05:33:48 3.2 C 4.46 g/m*3 3.2 C 0 km/h
1343 01-04-2009 05:45:48 3.2 C 4.46 g/m*3 3.2 C 0 km/h
1344 01-04-2009 05:57:48 3.1 C 4.43 g/m*3 3.1 C 0 km/h
1345 01-04-2009 06:09:48 3.3 C 4.49 g/m*3 3.3 C 0 km/h
1346 01-04-2009 06:21:48 3.2 C 4.58 g/m*3 3.2 C 0 km/h
1347 01-04-2009 06:33:48 2.9 C 4.49 g/m*3 2.9 C 0 km/h
1348 01-04-2009 06:45:48 2.7 C 4.49 g/m*3 2.7 C 0 km/h
1349 01-04-2009 06:57:48 2.5 C 4.43 g/m*3 2.5 C 0 km/h
1350 01-04-2009 07:09:46 2.5 C 4.48 g/m*3 2.5 C 0 km/h
Sensor: Nr:Datum:Temp:Abs-Feuchte:Windchill:Wind:
Aussen-T/F 1351 01-04-2009 07:21:45 2.1 C 4.31 g/m*3 2.1 C 0 km/h
1352 01-04-2009 07:33:45 2.2 C 4.39 g/m*3 2.2 C 0 km/h
1353 01-04-2009 07:45:45 2.3 C 4.48 g/m*3 2.3 C 0 km/h
1354 01-04-2009 07:57:45 2.4 C 4.51 g/m*3 2.4 C 0 km/h
1355 01-04-2009 08:09:45 2.4 C 4.57 g/m*3 2.4 C 0 km/h
1356 01-04-2009 08:21:44 2.5 C 4.6 g/m*3 2.5 C 0 km/h
1357 01-04-2009 08:33:45 2.6 C 4.63 g/m*3 2.6 C 0 km/h
1358 01-04-2009 08:45:45 2.7 C 4.66 g/m*3 2.7 C 0 km/h
1359 01-04-2009 08:57:45 3 C 4.7 g/m*3 3 C 0 km/h
1360 01-04-2009 09:09:44 3.3 C 4.79 g/m*3 3.3 C 0 km/h
1361 01-04-2009 09:21:45 3.7 C 4.92 g/m*3 3.7 C 0 km/h
1362 01-04-2009 09:33:44 4.1 C 4.99 g/m*3 4.1 C 0 km/h
1363 01-04-2009 09:45:44 4.9 C 5.06 g/m*3 4.9 C 0 km/h
1364 01-04-2009 09:57:44 5.7 C 4.98 g/m*3 5.7 C 0 km/h
1365 01-04-2009 10:09:44 6.7 C 4.94 g/m*3 6.7 C 0 km/h
1366 01-04-2009 10:21:44 7.4 C 4.85 g/m*3 7.4 C 0 km/h
1367 01-04-2009 10:33:44 8.1 C 4.74 g/m*3 8.1 C 0 km/h
1368 01-04-2009 10:45:43 8.8 C 4.7 g/m*3 8.8 C 0 km/h
1369 01-04-2009 10:57:43 9.4 C 4.61 g/m*3 9.4 C 0 km/h
1370 01-04-2009 11:09:44 10.5 C 4.36 g/m*3 10.5 C 0 km/h
1371 01-04-2009 11:21:43 11.2 C 4.16 g/m*3 11.2 C 0 km/h
1372 01-04-2009 11:33:43 11.8 C 3.89 g/m*3 11.8 C 0 km/h
1373 01-04-2009 11:45:43 12.2 C 3.67 g/m*3 12.2 C 0 km/h
1374 01-04-2009 11:57:43 12.7 C 3.45 g/m*3 12.7 C 0 km/h
1375 01-04-2009 12:09:43 12.9 C 3.27 g/m*3 12.9 C 0 km/h
Sensor: Nr:Datum:Temp:Abs-Feuchte:Windchill:Wind:
Aussen-T/F 1376 01-04-2009 12:21:42 13.4 C 3.14 g/m*3 13.4 C 0 km/h
1377 01-04-2009 12:33:43 13.7 C 3.32 g/m*3 13.7 C 0 km/h
1378 01-04-2009 12:45:42 14.1 C 3.16 g/m*3 14.1 C 0 km/h
1379 01-04-2009 12:57:42 14.4 C 3.09 g/m*3 14.4 C 0 km/h
1380 01-04-2009 13:09:42 14.8 C 2.91 g/m*3 14.8 C 0 km/h
1381 01-04-2009 13:21:42 14.9 C 3.19 g/m*3 14.9 C 0 km/h
1382 01-04-2009 13:33:42 15.6 C 2.79 g/m*3 15.6 C 0 km/h
1383 01-04-2009 13:45:42 16 C 2.72 g/m*3 16 C 0 km/h
1384 01-04-2009 13:57:42 16.5 C 2.81 g/m*3 16.5 C 0 km/h
1385 01-04-2009 14:09:41 17.2 C 3.08 g/m*3 17.2 C 0 km/h
1386 01-04-2009 14:21:42 17.6 C 3 g/m*3 17.6 C 0 km/h
1387 01-04-2009 14:33:41 18.3 C 3.13 g/m*3 18.3 C 0 km/h
1388 01-04-2009 14:45:41 18.6 C 3.18 g/m*3 18.6 C 0 km/h
1389 01-04-2009 14:57:42 18.8 C 3.22 g/m*3 18.8 C 0 km/h
1390 01-04-2009 15:09:41 18.8 C 3.22 g/m*3 18.8 C 0 km/h
1391 01-04-2009 15:21:41 19.5 C 3.36 g/m*3 19.5 C 0 km/h
1392 01-04-2009 15:33:41 19.9 C 3.44 g/m*3 19.9 C 0 km/h
1393 01-04-2009 15:45:41 19.7 C 3.4 g/m*3 19.7 C 0 km/h
1394 01-04-2009 15:57:41 20.2 C 3.5 g/m*3 20.2 C 0 km/h
1395 01-04-2009 16:09:41 20.3 C 3.52 g/m*3 20.3 C 0 km/h
1396 01-04-2009 16:21:40 20.5 C 3.56 g/m*3 20.5 C 0 km/h
1397 01-04-2009 16:33:40 20.8 C 3.62 g/m*3 20.8 C 0 km/h
1398 01-04-2009 16:45:40 21.1 C 3.69 g/m*3 21.1 C 0 km/h
1399 01-04-2009 16:57:40 21.4 C 3.75 g/m*3 21.4 C 0 km/h
1400 01-04-2009 17:09:40 21.2 C 3.71 g/m*3 21.2 C 0 km/h
Sensor: Nr:Datum:Temp:Abs-Feuchte:Windchill:Wind:
Aussen-T/F 1401 01-04-2009 17:21:39 21.5 C 3.77 g/m*3 21.5 C 0 km/h
1402 01-04-2009 17:33:40 21.5 C 3.77 g/m*3 21.5 C 0 km/h
1403 01-04-2009 17:45:39 21.5 C 3.77 g/m*3 21.5 C 0 km/h
1404 01-04-2009 17:57:39 21.1 C 3.69 g/m*3 21.1 C 0 km/h
1405 01-04-2009 18:09:39 20.8 C 3.62 g/m*3 20.8 C 0 km/h
1406 01-04-2009 18:21:40 20.3 C 3.52 g/m*3 20.3 C 0 km/h
1407 01-04-2009 18:33:39 20.4 C 3.54 g/m*3 20.4 C 0 km/h
1408 01-04-2009 18:45:39 19.7 C 3.4 g/m*3 19.7 C 0 km/h
1409 01-04-2009 18:57:39 19.1 C 3.28 g/m*3 19.1 C 0 km/h
1410 01-04-2009 19:09:39 18.6 C 3.18 g/m*3 18.6 C 0 km/h
1411 01-04-2009 19:21:39 18.2 C 3.11 g/m*3 18.2 C 0 km/h
1412 01-04-2009 19:33:38 17.5 C 3.13 g/m*3 17.5 C 0 km/h
1413 01-04-2009 19:45:39 16.7 C 3.69 g/m*3 16.7 C 0 km/h
1414 01-04-2009 19:57:39 15.8 C 3.77 g/m*3 15.8 C 0 km/h
1415 01-04-2009 20:09:38 15.1 C 3.74 g/m*3 15.1 C 0 km/h
1416 01-04-2009 20:21:38 14.6 C 3.75 g/m*3 14.6 C 0 km/h
1417 01-04-2009 20:33:38 14.3 C 3.81 g/m*3 14.3 C 0 km/h
1418 01-04-2009 20:45:38 13.8 C 3.93 g/m*3 13.8 C 0 km/h
1419 01-04-2009 20:57:38 13.5 C 3.86 g/m*3 13.5 C 0 km/h
1420 01-04-2009 21:09:37 13.4 C 3.84 g/m*3 13.4 C 0 km/h
1421 01-04-2009 21:21:38 13.1 C 3.77 g/m*3 13.1 C 0 km/h
1422 01-04-2009 21:33:38 13 C 3.86 g/m*3 13 C 0 km/h
1423 01-04-2009 21:45:37 12.8 C 3.92 g/m*3 12.8 C 0 km/h
1424 01-04-2009 21:57:37 12.5 C 3.96 g/m*3 12.5 C 0 km/h
1425 01-04-2009 22:10:38 12.5 C 3.96 g/m*3 12.5 C 0 km/h
Sensor: Nr:Datum:Temp:Abs-Feuchte:Windchill:Wind:
Aussen-T/F 1426 01-04-2009 22:22:38 12.2 C 3.99 g/m*3 12.2 C 0 km/h
1427 01-04-2009 22:34:38 12.2 C 3.99 g/m*3 12.2 C 0 km/h
1428 01-04-2009 22:46:38 11.9 C 4.13 g/m*3 11.9 C 0 km/h
1429 01-04-2009 22:58:38 11.8 C 4.21 g/m*3 11.8 C 0 km/h
1430 01-04-2009 23:10:39 11.7 C 4.18 g/m*3 11.7 C 0 km/h
1431 01-04-2009 23:22:39 11.7 C 4.29 g/m*3 11.7 C 0 km/h
1432 01-04-2009 23:34:39 12 C 4.26 g/m*3 12 C 0 km/h
1433 01-04-2009 23:46:39 12.2 C 4.21 g/m*3 12.2 C 0 km/h
1434 01-04-2009 23:58:39 12.4 C 4.15 g/m*3 12.4 C 0 km/h
1435 02-04-2009 00:10:39 12.5 C 4.18 g/m*3 12.5 C 0 km/h
1436 02-04-2009 00:22:39 12.6 C 4.2 g/m*3 12.6 C 0 km/h
1437 02-04-2009 00:34:39 12.5 C 4.29 g/m*3 12.5 C 0 km/h
1438 02-04-2009 00:46:39 12.4 C 4.37 g/m*3 12.4 C 0 km/h
1439 02-04-2009 00:58:39 12.4 C 4.26 g/m*3 12.4 C 0 km/h
1440 02-04-2009 01:10:39 12 C 4.26 g/m*3 12 C 0 km/h
1441 02-04-2009 01:22:39 11.8 C 4.32 g/m*3 11.8 C 0 km/h
1442 02-04-2009 01:34:39 11.5 C 4.34 g/m*3 11.5 C 0 km/h
1443 02-04-2009 01:46:39 11.4 C 4.31 g/m*3 11.4 C 0 km/h
1444 02-04-2009 01:58:39 11.5 C 4.44 g/m*3 11.5 C 0 km/h
1445 02-04-2009 02:10:39 11.5 C 4.44 g/m*3 11.5 C 0 km/h
1446 02-04-2009 02:22:39 11.3 C 4.39 g/m*3 11.3 C 0 km/h
1447 02-04-2009 02:34:39 10.8 C 4.45 g/m*3 10.8 C 0 km/h
1448 02-04-2009 02:46:39 10.6 C 4.39 g/m*3 10.6 C 0 km/h
1449 02-04-2009 02:58:40 10.5 C 4.36 g/m*3 10.5 C 0 km/h
1450 02-04-2009 03:10:40 10.3 C 4.41 g/m*3 10.3 C 0 km/h
Sensor: Nr:Datum:Temp:Abs-Feuchte:Windchill:Wind:
Aussen-T/F 1451 02-04-2009 03:22:40 10.2 C 4.38 g/m*3 10.2 C 0 km/h
1452 02-04-2009 03:34:40 10.2 C 4.38 g/m*3 10.2 C 0 km/h
1453 02-04-2009 03:46:40 10.1 C 4.35 g/m*3 10.1 C 0 km/h
1454 02-04-2009 03:58:40 10 C 4.32 g/m*3 10 C 0 km/h
1455 02-04-2009 04:10:40 10 C 4.32 g/m*3 10 C 0 km/h
1456 02-04-2009 04:22:40 10 C 4.32 g/m*3 10 C 0 km/h
1457 02-04-2009 04:34:40 9.9 C 4.39 g/m*3 9.9 C 0 km/h
1458 02-04-2009 04:46:40 9.8 C 4.36 g/m*3 9.8 C 0 km/h
1459 02-04-2009 04:58:40 9.7 C 4.33 g/m*3 9.7 C 0 km/h
1460 02-04-2009 05:10:40 9.6 C 4.31 g/m*3 9.6 C 0 km/h
1461 02-04-2009 05:22:40 9.5 C 4.37 g/m*3 9.5 C 0 km/h
1462 02-04-2009 05:34:40 9.3 C 4.4 g/m*3 9.3 C 0 km/h
1463 02-04-2009 05:46:40 9.2 C 4.46 g/m*3 9.2 C 0 km/h
1464 02-04-2009 05:58:40 9.3 C 4.49 g/m*3 9.3 C 0 km/h
1465 02-04-2009 06:10:40 9.2 C 4.46 g/m*3 9.2 C 0 km/h
1466 02-04-2009 06:22:40 8.9 C 4.56 g/m*3 8.9 C 0 km/h
1467 02-04-2009 06:34:40 8.7 C 4.58 g/m*3 8.7 C 0 km/h
1468 02-04-2009 06:46:41 8.5 C 4.61 g/m*3 8.5 C 0 km/h
1469 02-04-2009 06:58:41 8.5 C 4.61 g/m*3 8.5 C 0 km/h
1470 02-04-2009 07:10:38 8.5 C 4.61 g/m*3 8.5 C 0 km/h
1471 02-04-2009 07:22:38 8.4 C 4.67 g/m*3 8.4 C 0 km/h
1472 02-04-2009 07:34:38 8.3 C 4.72 g/m*3 8.3 C 0 km/h
1473 02-04-2009 07:46:38 8.2 C 4.77 g/m*3 8.2 C 0 km/h
1474 02-04-2009 07:58:38 8.2 C 4.77 g/m*3 8.2 C 0 km/h
1475 02-04-2009 08:10:38 8.1 C 4.74 g/m*3 8.1 C 0 km/h
Sensor: Nr:Datum:Temp:Abs-Feuchte:Windchill:Wind:
Aussen-T/F 1476 02-04-2009 08:22:37 8.2 C 4.77 g/m*3 8.2 C 0 km/h
1477 02-04-2009 08:34:38 8.3 C 4.8 g/m*3 8.3 C 0 km/h
1478 02-04-2009 08:46:37 8.5 C 4.87 g/m*3 8.5 C 0 km/h
1479 02-04-2009 08:58:37 8.9 C 4.99 g/m*3 8.9 C 0 km/h
1480 02-04-2009 09:10:37 9.1 C 4.97 g/m*3 9.1 C 0 km/h
1481 02-04-2009 09:22:37 9.5 C 4.92 g/m*3 9.5 C 0 km/h
1482 02-04-2009 09:34:37 10.1 C 4.92 g/m*3 10.1 C 0 km/h
1483 02-04-2009 09:46:36 10.7 C 4.91 g/m*3 10.7 C 0 km/h
1484 02-04-2009 09:58:36 11.1 C 4.94 g/m*3 11.1 C 0 km/h
1485 02-04-2009 10:10:37 11.6 C 4.89 g/m*3 11.6 C 0 km/h
1486 02-04-2009 10:22:36 12.1 C 5.04 g/m*3 12.1 C 0 km/h
1487 02-04-2009 10:34:36 12.6 C 5.09 g/m*3 12.6 C 0 km/h
1488 02-04-2009 10:46:37 13.1 C 5.02 g/m*3 13.1 C 0 km/h
1489 02-04-2009 10:58:37 13.5 C 5.03 g/m*3 13.5 C 0 km/h
1490 02-04-2009 11:10:36 14 C 4.95 g/m*3 14 C 0 km/h
1491 02-04-2009 11:22:36 14.3 C 5.04 g/m*3 14.3 C 0 km/h
1492 02-04-2009 11:34:35 14.6 C 5.01 g/m*3 14.6 C 0 km/h
1493 02-04-2009 11:46:36 15.1 C 5.03 g/m*3 15.1 C 0 km/h
1494 02-04-2009 11:58:36 15.4 C 4.99 g/m*3 15.4 C 0 km/h
1495 02-04-2009 12:10:35 15.8 C 5.12 g/m*3 15.8 C 0 km/h
1496 02-04-2009 12:22:35 16.4 C 5.3 g/m*3 16.4 C 0 km/h
1497 02-04-2009 12:34:35 16.6 C 5.23 g/m*3 16.6 C 0 km/h
1498 02-04-2009 12:46:35 17 C 5.21 g/m*3 17 C 0 km/h
1499 02-04-2009 12:58:35 17.4 C 5.19 g/m*3 17.4 C 0 km/h
1500 02-04-2009 13:10:34 17.8 C 5.31 g/m*3 17.8 C 0 km/h
Sensor: Nr:Datum:Temp:Abs-Feuchte:Windchill:Wind:
Aussen-T/F 1501 02-04-2009 13:22:35 18.2 C 5.44 g/m*3 18.2 C 0 km/h
1502 02-04-2009 13:34:35 18.7 C 5.12 g/m*3 18.7 C 0 km/h
1503 02-04-2009 13:46:34 19.4 C 5.34 g/m*3 19.4 C 0 km/h
1504 02-04-2009 13:58:34 19.6 C 5.06 g/m*3 19.6 C 0 km/h
1505 02-04-2009 14:10:35 20 C 5.18 g/m*3 20 C 0 km/h
1506 02-04-2009 14:22:34 20.3 C 5.1 g/m*3 20.3 C 0 km/h
1507 02-04-2009 14:34:34 20.8 C 5.07 g/m*3 20.8 C 0 km/h
1508 02-04-2009 14:46:34 21.6 C 4.93 g/m*3 21.6 C 0 km/h
1509 02-04-2009 14:58:34 22.2 C 5.1 g/m*3 22.2 C 0 km/h
1510 02-04-2009 15:10:34 22.6 C 4.82 g/m*3 22.6 C 0 km/h
1511 02-04-2009 15:22:33 23 C 4.52 g/m*3 23 C 0 km/h
1512 02-04-2009 15:34:33 23.5 C 4.86 g/m*3 23.5 C 0 km/h
1513 02-04-2009 15:46:33 23.6 C 4.47 g/m*3 23.6 C 0 km/h
1514 02-04-2009 15:58:33 24.4 C 4.67 g/m*3 24.4 C 0 km/h
1515 02-04-2009 16:10:33 24.1 C 4.38 g/m*3 24.1 C 0 km/h
1516 02-04-2009 16:22:33 24.1 C 4.59 g/m*3 24.1 C 0 km/h
1517 02-04-2009 16:34:33 25.3 C 4.68 g/m*3 25.3 C 0 km/h
1518 02-04-2009 16:46:33 25.1 C 4.63 g/m*3 25.1 C 0 km/h
1519 02-04-2009 16:58:33 25.4 C 4.71 g/m*3 25.4 C 0 km/h
1520 02-04-2009 17:10:32 25.5 C 4.73 g/m*3 25.5 C 0 km/h
1521 02-04-2009 17:22:33 25.7 C 4.79 g/m*3 25.7 C 0 km/h
1522 02-04-2009 17:34:32 25.6 C 4.76 g/m*3 25.6 C 0 km/h
1523 02-04-2009 17:46:32 25.8 C 4.82 g/m*3 25.8 C 0 km/h
1524 02-04-2009 17:58:32 25.4 C 4.71 g/m*3 25.4 C 0 km/h
1525 02-04-2009 18:10:32 25.3 C 4.68 g/m*3 25.3 C 0 km/h
Sensor: Nr:Datum:Temp:Abs-Feuchte:Windchill:Wind:
Aussen-T/F 1526 02-04-2009 18:22:32 25.1 C 4.63 g/m*3 25.1 C 0 km/h
1527 02-04-2009 18:34:32 24.9 C 4.81 g/m*3 24.9 C 0 km/h
1528 02-04-2009 18:46:31 24.7 C 4.75 g/m*3 24.7 C 0 km/h
1529 02-04-2009 18:58:31 24.1 C 4.81 g/m*3 24.1 C 0 km/h
1530 02-04-2009 19:10:32 22.9 C 5.11 g/m*3 22.9 C 0 km/h
1531 02-04-2009 19:22:31 22.5 C 5.19 g/m*3 22.5 C 0 km/h
1532 02-04-2009 19:34:31 21.6 C 5.31 g/m*3 21.6 C 0 km/h
1533 02-04-2009 19:46:31 20.7 C 5.58 g/m*3 20.7 C 0 km/h
1534 02-04-2009 19:58:31 19.8 C 5.98 g/m*3 19.8 C 0 km/h
1535 02-04-2009 20:10:31 19.2 C 5.77 g/m*3 19.2 C 0 km/h
1536 02-04-2009 20:22:30 18.7 C 5.92 g/m*3 18.7 C 0 km/h
1537 02-04-2009 20:34:31 18.2 C 5.75 g/m*3 18.2 C 0 km/h
1538 02-04-2009 20:46:30 17.6 C 6 g/m*3 17.6 C 0 km/h
1539 02-04-2009 20:58:30 17.1 C 5.82 g/m*3 17.1 C 0 km/h
1540 02-04-2009 21:10:30 16.8 C 5.72 g/m*3 16.8 C 0 km/h
1541 02-04-2009 21:22:31 16.8 C 5.86 g/m*3 16.8 C 0 km/h
1542 02-04-2009 21:34:30 16.6 C 5.79 g/m*3 16.6 C 0 km/h
1543 02-04-2009 21:46:30 16.5 C 5.76 g/m*3 16.5 C 0 km/h
1544 02-04-2009 21:58:30 16.1 C 5.76 g/m*3 16.1 C 0 km/h
1545 02-04-2009 22:11:32 15.8 C 5.79 g/m*3 15.8 C 0 km/h
1546 02-04-2009 22:23:32 15.6 C 5.72 g/m*3 15.6 C 0 km/h
1547 02-04-2009 22:35:32 15.4 C 5.78 g/m*3 15.4 C 0 km/h
1548 02-04-2009 22:47:32 15.1 C 5.81 g/m*3 15.1 C 0 km/h
1549 02-04-2009 22:59:32 14.8 C 5.83 g/m*3 14.8 C 0 km/h
1550 02-04-2009 23:11:32 14.5 C 5.85 g/m*3 14.5 C 0 km/h
Sensor: Nr:Datum:Temp:Abs-Feuchte:Windchill:Wind:
Aussen-T/F 1551 02-04-2009 23:23:32 14.4 C 5.81 g/m*3 14.4 C 0 km/h
1552 02-04-2009 23:35:32 14 C 5.91 g/m*3 14 C 0 km/h
1553 02-04-2009 23:47:32 14 C 5.79 g/m*3 14 C 0 km/h
1554 02-04-2009 23:59:32 13.9 C 5.99 g/m*3 13.9 C 0 km/h
1555 03-04-2009 00:11:32 13.6 C 5.88 g/m*3 13.6 C 0 km/h
1556 03-04-2009 00:23:32 13.8 C 5.96 g/m*3 13.8 C 0 km/h
1557 03-04-2009 00:35:32 13.6 C 5.88 g/m*3 13.6 C 0 km/h
1558 03-04-2009 00:47:32 13.4 C 5.93 g/m*3 13.4 C 0 km/h
1559 03-04-2009 00:59:32 13.2 C 5.86 g/m*3 13.2 C 0 km/h
1560 03-04-2009 01:11:32 13.1 C 5.82 g/m*3 13.1 C 0 km/h
1561 03-04-2009 01:23:32 12.8 C 6.05 g/m*3 12.8 C 0 km/h
1562 03-04-2009 01:35:32 12.6 C 5.97 g/m*3 12.6 C 0 km/h
1563 03-04-2009 01:47:32 12.6 C 6.08 g/m*3 12.6 C 0 km/h
1564 03-04-2009 01:59:33 12.4 C 6.01 g/m*3 12.4 C 0 km/h
1565 03-04-2009 02:11:33 12.2 C 6.04 g/m*3 12.2 C 0 km/h
1566 03-04-2009 02:23:33 12 C 5.97 g/m*3 12 C 0 km/h
1567 03-04-2009 02:35:33 11.6 C 6.13 g/m*3 11.6 C 0 km/h
1568 03-04-2009 02:47:33 11.4 C 6.16 g/m*3 11.4 C 0 km/h
1569 03-04-2009 02:59:33 11.1 C 6.14 g/m*3 11.1 C 0 km/h
1570 03-04-2009 03:11:33 10.7 C 6.09 g/m*3 10.7 C 0 km/h
1571 03-04-2009 03:23:33 10.4 C 6.07 g/m*3 10.4 C 0 km/h
1572 03-04-2009 03:35:33 10.2 C 6.19 g/m*3 10.2 C 0 km/h
1573 03-04-2009 03:47:33 10.1 C 6.15 g/m*3 10.1 C 0 km/h
1574 03-04-2009 03:59:33 9.8 C 6.12 g/m*3 9.8 C 0 km/h
1575 03-04-2009 04:11:33 9.6 C 6.14 g/m*3 9.6 C 0 km/h
Sensor: Nr:Datum:Temp:Abs-Feuchte:Windchill:Wind:
Aussen-T/F 1576 03-04-2009 04:23:33 9.5 C 6.19 g/m*3 9.5 C 0 km/h
1577 03-04-2009 04:35:33 9.2 C 6.16 g/m*3 9.2 C 0 km/h
1578 03-04-2009 04:47:33 9 C 6.17 g/m*3 9 C 0 km/h
1579 03-04-2009 04:59:33 8.9 C 6.22 g/m*3 8.9 C 0 km/h
1580 03-04-2009 05:11:33 8.9 C 6.13 g/m*3 8.9 C 0 km/h
1581 03-04-2009 05:23:33 8.7 C 6.23 g/m*3 8.7 C 0 km/h
1582 03-04-2009 05:35:33 8.6 C 6.19 g/m*3 8.6 C 0 km/h
1583 03-04-2009 05:47:34 8.4 C 6.19 g/m*3 8.4 C 0 km/h
1584 03-04-2009 05:59:34 8.2 C 6.11 g/m*3 8.2 C 0 km/h
1585 03-04-2009 06:11:34 8 C 6.12 g/m*3 8 C 0 km/h
1586 03-04-2009 06:23:34 7.8 C 6.2 g/m*3 7.8 C 0 km/h
1587 03-04-2009 06:35:34 7.8 C 6.28 g/m*3 7.8 C 0 km/h
1588 03-04-2009 06:47:34 7.7 C 6.16 g/m*3 7.7 C 0 km/h
1589 03-04-2009 06:59:34 7.6 C 6.12 g/m*3 7.6 C 0 km/h
1590 03-04-2009 07:11:31 7.6 C 6.12 g/m*3 7.6 C 0 km/h
1591 03-04-2009 07:23:31 7.5 C 6.08 g/m*3 7.5 C 0 km/h
1592 03-04-2009 07:35:31 7.4 C 6.04 g/m*3 7.4 C 0 km/h
1593 03-04-2009 07:47:31 7.3 C 6 g/m*3 7.3 C 0 km/h
1594 03-04-2009 07:59:31 7.4 C 6.12 g/m*3 7.4 C 0 km/h
1595 03-04-2009 08:11:30 7.4 C 6.12 g/m*3 7.4 C 0 km/h
1596 03-04-2009 08:23:31 7.5 C 6.16 g/m*3 7.5 C 0 km/h
1597 03-04-2009 08:35:30 7.6 C 6.2 g/m*3 7.6 C 0 km/h
1598 03-04-2009 08:47:30 7.7 C 6.32 g/m*3 7.7 C 0 km/h
1599 03-04-2009 08:59:30 8 C 6.37 g/m*3 8 C 0 km/h
1600 03-04-2009 09:11:30 8.3 C 6.49 g/m*3 8.3 C 0 km/h
Sensor: Nr:Datum:Temp:Abs-Feuchte:Windchill:Wind:
Aussen-T/F 1601 03-04-2009 09:23:30 8.7 C 6.57 g/m*3 8.7 C 0 km/h
1602 03-04-2009 09:35:30 9.1 C 6.57 g/m*3 9.1 C 0 km/h
1603 03-04-2009 09:47:30 9.7 C 6.73 g/m*3 9.7 C 0 km/h
1604 03-04-2009 09:59:30 10.5 C 6.69 g/m*3 10.5 C 0 km/h
1605 03-04-2009 10:11:29 11.2 C 6.79 g/m*3 11.2 C 0 km/h
1606 03-04-2009 10:23:29 11.7 C 6.59 g/m*3 11.7 C 0 km/h
1607 03-04-2009 10:35:29 12.4 C 6.45 g/m*3 12.4 C 0 km/h
1608 03-04-2009 10:47:29 13 C 6.58 g/m*3 13 C 0 km/h
1609 03-04-2009 10:59:29 13.6 C 6.71 g/m*3 13.6 C 0 km/h
1610 03-04-2009 11:11:29 14.3 C 6.63 g/m*3 14.3 C 0 km/h
1611 03-04-2009 11:23:28 14.9 C 6.63 g/m*3 14.9 C 0 km/h
1612 03-04-2009 11:35:29 15.5 C 6.34 g/m*3 15.5 C 0 km/h
1613 03-04-2009 11:47:28 16.1 C 6.17 g/m*3 16.1 C 0 km/h
1614 03-04-2009 11:59:28 17 C 6.08 g/m*3 17 C 0 km/h
1615 03-04-2009 12:11:28 17.6 C 6 g/m*3 17.6 C 0 km/h
1616 03-04-2009 12:23:29 18.1 C 6.03 g/m*3 18.1 C 0 km/h
1617 03-04-2009 12:35:28 18.4 C 5.98 g/m*3 18.4 C 0 km/h
1618 03-04-2009 12:47:28 18.8 C 6.12 g/m*3 18.8 C 0 km/h
1619 03-04-2009 12:59:28 19 C 5.87 g/m*3 19 C 0 km/h
1620 03-04-2009 13:11:28 19.5 C 6.04 g/m*3 19.5 C 0 km/h
1621 03-04-2009 13:23:28 20.2 C 6.12 g/m*3 20.2 C 0 km/h
1622 03-04-2009 13:35:27 20.6 C 5.73 g/m*3 20.6 C 0 km/h
1623 03-04-2009 13:47:27 20.7 C 5.76 g/m*3 20.7 C 0 km/h
1624 03-04-2009 13:59:27 21.2 C 5.56 g/m*3 21.2 C 0 km/h
1625 03-04-2009 14:11:27 21.7 C 5.72 g/m*3 21.7 C 0 km/h
Sensor: Nr:Datum:Temp:Abs-Feuchte:Windchill:Wind:
Aussen-T/F 1626 03-04-2009 14:23:27 22.9 C 6.13 g/m*3 22.9 C 0 km/h
1627 03-04-2009 14:35:27 23.3 C 5.44 g/m*3 23.3 C 0 km/h
1628 03-04-2009 14:47:27 23.9 C 5.41 g/m*3 23.9 C 0 km/h
1629 03-04-2009 14:59:27 24 C 5.44 g/m*3 24 C 0 km/h
1630 03-04-2009 15:11:27 23.8 C 5.38 g/m*3 23.8 C 0 km/h
1631 03-04-2009 15:23:27 24.3 C 5.09 g/m*3 24.3 C 0 km/h
1632 03-04-2009 15:35:26 25.1 C 5.09 g/m*3 25.1 C 0 km/h
1633 03-04-2009 15:47:26 25.5 C 5.21 g/m*3 25.5 C 0 km/h
1634 03-04-2009 15:59:26 23.4 C 5.26 g/m*3 23.4 C 0 km/h
1635 03-04-2009 16:11:26 24.6 C 5.4 g/m*3 24.6 C 0 km/h
1636 03-04-2009 16:23:25 23.7 C 5.35 g/m*3 23.7 C 0 km/h
1637 03-04-2009 16:35:26 24.5 C 5.6 g/m*3 24.5 C 0 km/h
1638 03-04-2009 16:47:25 24.5 C 5.6 g/m*3 24.5 C 0 km/h
1639 03-04-2009 16:59:25 24.4 C 5.56 g/m*3 24.4 C 0 km/h
1640 03-04-2009 17:11:26 26 C 5.11 g/m*3 26 C 0 km/h
1641 03-04-2009 17:23:25 24.8 C 5.69 g/m*3 24.8 C 0 km/h
1642 03-04-2009 17:35:25 25.8 C 5.54 g/m*3 25.8 C 0 km/h
1643 03-04-2009 17:47:25 25.8 C 5.54 g/m*3 25.8 C 0 km/h
1644 03-04-2009 17:59:25 26.5 C 5.26 g/m*3 26.5 C 0 km/h
1645 03-04-2009 18:11:25 26.8 C 5.35 g/m*3 26.8 C 0 km/h
1646 03-04-2009 18:23:25 26.1 C 5.39 g/m*3 26.1 C 0 km/h
1647 03-04-2009 18:35:24 25.6 C 5.48 g/m*3 25.6 C 0 km/h
1648 03-04-2009 18:47:25 25.3 C 5.62 g/m*3 25.3 C 0 km/h
1649 03-04-2009 18:59:25 24.7 C 5.88 g/m*3 24.7 C 0 km/h
1650 03-04-2009 19:11:24 24.3 C 5.97 g/m*3 24.3 C 0 km/h
Sensor: Nr:Datum:Temp:Abs-Feuchte:Windchill:Wind:
Aussen-T/F 1651 03-04-2009 19:23:24 23.5 C 6.34 g/m*3 23.5 C 0 km/h
1652 03-04-2009 19:35:24 22.4 C 6.55 g/m*3 22.4 C 0 km/h
1653 03-04-2009 19:47:24 21.5 C 6.6 g/m*3 21.5 C 0 km/h
1654 03-04-2009 19:59:24 20.8 C 6.88 g/m*3 20.8 C 0 km/h
1655 03-04-2009 20:11:23 20.2 C 6.82 g/m*3 20.2 C 0 km/h
1656 03-04-2009 20:23:24 19.5 C 6.88 g/m*3 19.5 C 0 km/h
1657 03-04-2009 20:35:24 19.1 C 6.88 g/m*3 19.1 C 0 km/h
1658 03-04-2009 20:47:23 18.8 C 6.76 g/m*3 18.8 C 0 km/h
1659 03-04-2009 20:59:24 18.9 C 6.8 g/m*3 18.9 C 0 km/h
1660 03-04-2009 21:11:23 18.6 C 6.84 g/m*3 18.6 C 0 km/h
1661 03-04-2009 21:23:23 18.3 C 6.72 g/m*3 18.3 C 0 km/h
1662 03-04-2009 21:35:23 18.1 C 6.95 g/m*3 18.1 C 0 km/h
1663 03-04-2009 21:47:23 17.7 C 6.94 g/m*3 17.7 C 0 km/h
1664 03-04-2009 21:59:23 17.4 C 6.97 g/m*3 17.4 C 0 km/h
1665 03-04-2009 22:11:22 17.2 C 7.03 g/m*3 17.2 C 0 km/h
1666 03-04-2009 22:23:22 17.2 C 7.03 g/m*3 17.2 C 0 km/h
1667 03-04-2009 22:36:24 17 C 6.95 g/m*3 17 C 0 km/h
1668 03-04-2009 22:48:24 16.7 C 7.11 g/m*3 16.7 C 0 km/h
1669 03-04-2009 23:00:24 16.4 C 7.12 g/m*3 16.4 C 0 km/h
1670 03-04-2009 23:12:24 16.3 C 7.08 g/m*3 16.3 C 0 km/h
1671 03-04-2009 23:24:24 16.1 C 7.13 g/m*3 16.1 C 0 km/h
1672 03-04-2009 23:36:24 15.9 C 7.31 g/m*3 15.9 C 0 km/h
1673 03-04-2009 23:48:24 15.8 C 7.27 g/m*3 15.8 C 0 km/h
1674 04-04-2009 00:00:24 15.6 C 7.31 g/m*3 15.6 C 0 km/h
1675 04-04-2009 00:12:24 15.4 C 7.36 g/m*3 15.4 C 0 km/h
Sensor: Nr:Datum:Temp:Abs-Feuchte:Windchill:Wind:
Aussen-T/F 1676 04-04-2009 00:24:24 15.4 C 7.23 g/m*3 15.4 C 0 km/h
1677 04-04-2009 00:36:24 15.6 C 7.31 g/m*3 15.6 C 0 km/h
1678 04-04-2009 00:48:24 15.5 C 7.27 g/m*3 15.5 C 0 km/h
1679 04-04-2009 01:00:24 15.3 C 7.31 g/m*3 15.3 C 0 km/h
1680 04-04-2009 01:12:24 15.2 C 7.4 g/m*3 15.2 C 0 km/h
1681 04-04-2009 01:24:24 15.1 C 7.35 g/m*3 15.1 C 0 km/h
1682 04-04-2009 01:36:24 15.1 C 7.35 g/m*3 15.1 C 0 km/h
1683 04-04-2009 01:48:24 15 C 7.44 g/m*3 15 C 0 km/h
1684 04-04-2009 02:00:24 14.9 C 7.52 g/m*3 14.9 C 0 km/h
1685 04-04-2009 02:12:25 14.8 C 7.47 g/m*3 14.8 C 0 km/h
1686 04-04-2009 02:24:25 14.7 C 7.43 g/m*3 14.7 C 0 km/h
1687 04-04-2009 02:36:25 14.5 C 7.46 g/m*3 14.5 C 0 km/h
1688 04-04-2009 02:48:25 14.2 C 7.45 g/m*3 14.2 C 0 km/h
1689 04-04-2009 03:00:25 14.1 C 7.52 g/m*3 14.1 C 0 km/h
1690 04-04-2009 03:12:25 14 C 7.6 g/m*3 14 C 0 km/h
1691 04-04-2009 03:24:25 13.6 C 7.65 g/m*3 13.6 C 0 km/h
1692 04-04-2009 03:36:25 13.6 C 7.65 g/m*3 13.6 C 0 km/h
1693 04-04-2009 03:48:25 13.7 C 7.7 g/m*3 13.7 C 0 km/h
1694 04-04-2009 04:00:25 13.6 C 7.65 g/m*3 13.6 C 0 km/h
1695 04-04-2009 04:12:25 13.6 C 7.65 g/m*3 13.6 C 0 km/h
1696 04-04-2009 04:24:25 13.6 C 7.65 g/m*3 13.6 C 0 km/h
1697 04-04-2009 04:36:25 13.7 C 7.7 g/m*3 13.7 C 0 km/h
1698 04-04-2009 04:48:25 13.7 C 7.58 g/m*3 13.7 C 0 km/h
1699 04-04-2009 05:00:25 13.8 C 7.63 g/m*3 13.8 C 0 km/h
1700 04-04-2009 05:12:25 13.9 C 7.55 g/m*3 13.9 C 0 km/h
Sensor: Nr:Datum:Temp:Abs-Feuchte:Windchill:Wind:
Aussen-T/F 1701 04-04-2009 05:24:25 13.9 C 7.55 g/m*3 13.9 C 0 km/h
1702 04-04-2009 05:36:25 13.9 C 7.55 g/m*3 13.9 C 0 km/h
1703 04-04-2009 05:48:25 14 C 7.48 g/m*3 14 C 0 km/h
1704 04-04-2009 06:00:26 14.2 C 7.57 g/m*3 14.2 C 0 km/h
1705 04-04-2009 06:12:26 13.8 C 7.51 g/m*3 13.8 C 0 km/h
1706 04-04-2009 06:24:26 13.7 C 7.58 g/m*3 13.7 C 0 km/h
1707 04-04-2009 06:36:26 13.7 C 7.58 g/m*3 13.7 C 0 km/h
1708 04-04-2009 06:48:26 13.6 C 7.53 g/m*3 13.6 C 0 km/h
1709 04-04-2009 07:00:26 13.7 C 7.58 g/m*3 13.7 C 0 km/h
1710 04-04-2009 07:12:26 13.6 C 7.53 g/m*3 13.6 C 0 km/h
1711 04-04-2009 07:24:26 13.5 C 7.49 g/m*3 13.5 C 0 km/h
1712 04-04-2009 07:36:26 13.7 C 7.46 g/m*3 13.7 C 0 km/h
1713 04-04-2009 07:48:26 13.6 C 7.41 g/m*3 13.6 C 0 km/h
1714 04-04-2009 08:00:26 13.5 C 7.49 g/m*3 13.5 C 0 km/h
1715 04-04-2009 08:12:26 13.5 C 7.49 g/m*3 13.5 C 0 km/h
1716 04-04-2009 08:24:26 13.7 C 7.58 g/m*3 13.7 C 0 km/h
1717 04-04-2009 08:36:24 13.9 C 7.55 g/m*3 13.9 C 0 km/h
1718 04-04-2009 08:48:24 14.1 C 7.4 g/m*3 14.1 C 0 km/h
1719 04-04-2009 09:00:24 14.2 C 7.33 g/m*3 14.2 C 0 km/h
1720 04-04-2009 09:12:24 14.4 C 7.42 g/m*3 14.4 C 0 km/h
1721 04-04-2009 09:24:23 14.4 C 7.42 g/m*3 14.4 C 0 km/h
1722 04-04-2009 09:36:24 14.5 C 7.34 g/m*3 14.5 C 0 km/h
1723 04-04-2009 09:48:23 14.6 C 7.38 g/m*3 14.6 C 0 km/h
1724 04-04-2009 10:00:23 14.9 C 7.39 g/m*3 14.9 C 0 km/h
1725 04-04-2009 10:12:23 15.3 C 7.44 g/m*3 15.3 C 0 km/h
Sensor: Nr:Datum:Temp:Abs-Feuchte:Windchill:Wind:
Aussen-T/F 1726 04-04-2009 10:24:23 15.5 C 7.4 g/m*3 15.5 C 0 km/h
1727 04-04-2009 10:36:23 15.7 C 7.36 g/m*3 15.7 C 0 km/h
1728 04-04-2009 10:48:23 16 C 7.22 g/m*3 16 C 0 km/h
1729 04-04-2009 11:00:23 16.4 C 7.4 g/m*3 16.4 C 0 km/h
1730 04-04-2009 11:12:23 16.7 C 7.25 g/m*3 16.7 C 0 km/h
1731 04-04-2009 11:24:22 17.6 C 7.2 g/m*3 17.6 C 0 km/h
1732 04-04-2009 11:36:23 17.7 C 6.94 g/m*3 17.7 C 0 km/h
1733 04-04-2009 11:48:22 18 C 6.91 g/m*3 18 C 0 km/h
1734 04-04-2009 12:00:22 18.4 C 6.76 g/m*3 18.4 C 0 km/h
1735 04-04-2009 12:12:22 18.5 C 6.8 g/m*3 18.5 C 0 km/h
1736 04-04-2009 12:24:21 18.7 C 6.72 g/m*3 18.7 C 0 km/h
1737 04-04-2009 12:36:22 18.7 C 6.56 g/m*3 18.7 C 0 km/h
1738 04-04-2009 12:48:22 19.1 C 6.56 g/m*3 19.1 C 0 km/h
1739 04-04-2009 13:00:21 19.5 C 6.55 g/m*3 19.5 C 0 km/h
1740 04-04-2009 13:12:21 19.5 C 6.38 g/m*3 19.5 C 0 km/h
1741 04-04-2009 13:24:22 19.4 C 6.17 g/m*3 19.4 C 0 km/h
1742 04-04-2009 13:36:21 19.3 C 6.14 g/m*3 19.3 C 0 km/h
1743 04-04-2009 13:48:21 19.9 C 6.19 g/m*3 19.9 C 0 km/h
1744 04-04-2009 14:00:21 20.1 C 6.08 g/m*3 20.1 C 0 km/h
1745 04-04-2009 14:12:21 20.3 C 6.16 g/m*3 20.3 C 0 km/h
1746 04-04-2009 14:24:21 20.7 C 6.3 g/m*3 20.7 C 0 km/h
1747 04-04-2009 14:36:20 20.9 C 6.19 g/m*3 20.9 C 0 km/h
1748 04-04-2009 14:48:20 21.1 C 6.08 g/m*3 21.1 C 0 km/h
1749 04-04-2009 15:00:21 21.6 C 6.07 g/m*3 21.6 C 0 km/h
1750 04-04-2009 15:12:21 21.6 C 5.88 g/m*3 21.6 C 0 km/h
Sensor: Nr:Datum:Temp:Abs-Feuchte:Windchill:Wind:
Aussen-T/F 1751 04-04-2009 15:24:20 21.9 C 5.79 g/m*3 21.9 C 0 km/h
1752 04-04-2009 15:36:21 22.1 C 5.86 g/m*3 22.1 C 0 km/h
1753 04-04-2009 15:48:20 22.1 C 5.86 g/m*3 22.1 C 0 km/h
1754 04-04-2009 16:00:20 22.1 C 5.86 g/m*3 22.1 C 0 km/h
1755 04-04-2009 16:12:20 21.7 C 6.68 g/m*3 21.7 C 0 km/h
1756 04-04-2009 16:24:20 20.3 C 7.03 g/m*3 20.3 C 0 km/h
1757 04-04-2009 16:36:20 20.9 C 6.92 g/m*3 20.9 C 0 km/h
1758 04-04-2009 16:48:19 20.8 C 6.88 g/m*3 20.8 C 0 km/h
1759 04-04-2009 17:00:20 21.8 C 7.1 g/m*3 21.8 C 0 km/h
1760 04-04-2009 17:12:20 22.2 C 6.87 g/m*3 22.2 C 0 km/h
1761 04-04-2009 17:24:19 21.9 C 7.14 g/m*3 21.9 C 0 km/h
1762 04-04-2009 17:36:19 21.6 C 7.02 g/m*3 21.6 C 0 km/h
1763 04-04-2009 17:48:19 20.7 C 7.02 g/m*3 20.7 C 0 km/h
1764 04-04-2009 18:00:19 21.6 C 7.02 g/m*3 21.6 C 0 km/h
1765 04-04-2009 18:12:19 21.4 C 6.75 g/m*3 21.4 C 0 km/h
1766 04-04-2009 18:24:18 20.1 C 6.95 g/m*3 20.1 C 0 km/h
1767 04-04-2009 18:36:18 19.7 C 6.96 g/m*3 19.7 C 0 km/h
1768 04-04-2009 18:48:19 19.2 C 6.76 g/m*3 19.2 C 0 km/h
1769 04-04-2009 19:00:18 18.8 C 6.76 g/m*3 18.8 C 0 km/h
1770 04-04-2009 19:12:18 18.7 C 6.72 g/m*3 18.7 C 0 km/h
1771 04-04-2009 19:24:18 18.2 C 6.68 g/m*3 18.2 C 0 km/h
1772 04-04-2009 19:36:18 17.9 C 7.02 g/m*3 17.9 C 0 km/h
1773 04-04-2009 19:48:18 17.6 C 7.05 g/m*3 17.6 C 0 km/h
1774 04-04-2009 20:00:17 17.4 C 7.11 g/m*3 17.4 C 0 km/h
1775 04-04-2009 20:12:17 17.2 C 7.03 g/m*3 17.2 C 0 km/h
Sensor: Nr:Datum:Temp:Abs-Feuchte:Windchill:Wind:
Aussen-T/F 1776 04-04-2009 20:24:18 17.1 C 7.13 g/m*3 17.1 C 0 km/h
1777 04-04-2009 20:36:17 17 C 7.23 g/m*3 17 C 0 km/h
1778 04-04-2009 20:48:17 16.9 C 7.34 g/m*3 16.9 C 0 km/h
1779 04-04-2009 21:00:17 16.8 C 7.29 g/m*3 16.8 C 0 km/h
1780 04-04-2009 21:12:17 16.8 C 7.43 g/m*3 16.8 C 0 km/h
1781 04-04-2009 21:24:17 16.5 C 7.3 g/m*3 16.5 C 0 km/h
1782 04-04-2009 21:36:17 16.3 C 7.35 g/m*3 16.3 C 0 km/h
1783 04-04-2009 21:48:16 16.2 C 7.31 g/m*3 16.2 C 0 km/h
1784 04-04-2009 22:00:17 15.9 C 7.45 g/m*3 15.9 C 0 km/h
1785 04-04-2009 22:12:17 15.6 C 7.45 g/m*3 15.6 C 0 km/h
1786 04-04-2009 22:24:16 15.2 C 7.4 g/m*3 15.2 C 0 km/h
1787 04-04-2009 22:37:17 15.1 C 7.35 g/m*3 15.1 C 0 km/h
1788 04-04-2009 22:49:17 14.9 C 7.52 g/m*3 14.9 C 0 km/h
1789 04-04-2009 23:01:17 14.5 C 7.46 g/m*3 14.5 C 0 km/h
1790 04-04-2009 23:13:17 14.3 C 7.62 g/m*3 14.3 C 0 km/h
1791 04-04-2009 23:25:17 14.2 C 7.57 g/m*3 14.2 C 0 km/h
1792 04-04-2009 23:37:17 14.4 C 7.54 g/m*3 14.4 C 0 km/h
1793 04-04-2009 23:49:17 14.4 C 7.54 g/m*3 14.4 C 0 km/h
1794 05-04-2009 00:01:17 14.4 C 7.42 g/m*3 14.4 C 0 km/h
1795 05-04-2009 00:13:17 14.2 C 7.45 g/m*3 14.2 C 0 km/h
1796 05-04-2009 00:25:17 14 C 7.36 g/m*3 14 C 0 km/h
1797 05-04-2009 00:37:17 13.7 C 7.34 g/m*3 13.7 C 0 km/h
1798 05-04-2009 00:49:17 13.7 C 7.46 g/m*3 13.7 C 0 km/h
1799 05-04-2009 01:01:17 13.9 C 7.43 g/m*3 13.9 C 0 km/h
1800 05-04-2009 01:13:18 14.1 C 7.4 g/m*3 14.1 C 0 km/h
Sensor: Nr:Datum:Temp:Abs-Feuchte:Windchill:Wind:
Aussen-T/F 1801 05-04-2009 01:25:18 13.8 C 7.51 g/m*3 13.8 C 0 km/h
1802 05-04-2009 01:37:18 13.5 C 7.25 g/m*3 13.5 C 0 km/h
1803 05-04-2009 01:49:18 13.1 C 7.19 g/m*3 13.1 C 0 km/h
1804 05-04-2009 02:01:18 13 C 7.26 g/m*3 13 C 0 km/h
1805 05-04-2009 02:13:18 12.8 C 7.39 g/m*3 12.8 C 0 km/h
1806 05-04-2009 02:25:18 12.7 C 7.35 g/m*3 12.7 C 0 km/h
1807 05-04-2009 02:37:18 12.5 C 7.26 g/m*3 12.5 C 0 km/h
1808 05-04-2009 02:49:18 12.8 C 7.39 g/m*3 12.8 C 0 km/h
1809 05-04-2009 03:01:18 12.6 C 7.3 g/m*3 12.6 C 0 km/h
1810 05-04-2009 03:13:18 12.3 C 7.17 g/m*3 12.3 C 0 km/h
1811 05-04-2009 03:25:18 12.2 C 7.23 g/m*3 12.2 C 0 km/h
1812 05-04-2009 03:37:18 12 C 7.25 g/m*3 12 C 0 km/h
1813 05-04-2009 03:49:18 11.9 C 7.31 g/m*3 11.9 C 0 km/h
1814 05-04-2009 04:01:18 11.7 C 7.22 g/m*3 11.7 C 0 km/h
1815 05-04-2009 04:13:18 11.2 C 6.99 g/m*3 11.2 C 0 km/h
1816 05-04-2009 04:25:18 11 C 7.01 g/m*3 11 C 0 km/h
1817 05-04-2009 04:37:18 10.8 C 7.12 g/m*3 10.8 C 0 km/h
1818 05-04-2009 04:49:18 10.7 C 7.07 g/m*3 10.7 C 0 km/h
1819 05-04-2009 05:01:19 10.8 C 7.22 g/m*3 10.8 C 0 km/h
1820 05-04-2009 05:13:19 10.7 C 7.17 g/m*3 10.7 C 0 km/h
1821 05-04-2009 05:25:19 10.7 C 7.17 g/m*3 10.7 C 0 km/h
1822 05-04-2009 05:37:19 10.7 C 7.17 g/m*3 10.7 C 0 km/h
1823 05-04-2009 05:49:16 10.8 C 7.22 g/m*3 10.8 C 0 km/h
1824 05-04-2009 06:01:17 10.7 C 7.17 g/m*3 10.7 C 0 km/h
1825 05-04-2009 06:13:17 10.6 C 7.12 g/m*3 10.6 C 0 km/h
Sensor: Nr:Datum:Temp:Abs-Feuchte:Windchill:Wind:
Aussen-T/F 1826 05-04-2009 06:25:17 10.6 C 7.12 g/m*3 10.6 C 0 km/h
1827 05-04-2009 06:37:16 10.6 C 7.12 g/m*3 10.6 C 0 km/h
1828 05-04-2009 06:49:17 10.7 C 7.17 g/m*3 10.7 C 0 km/h
1829 05-04-2009 07:01:01 10.8 C 7.22 g/m*3 10.8 C 0 km/h
1830 05-04-2009 07:13:01 10.6 C 7.12 g/m*3 10.6 C 0 km/h
1831 05-04-2009 07:25:01 10.7 C 7.27 g/m*3 10.7 C 0 km/h
1832 05-04-2009 07:37:01 10.9 C 7.26 g/m*3 10.9 C 0 km/h
1833 05-04-2009 07:49:01 11 C 7.21 g/m*3 11 C 0 km/h
1834 05-04-2009 08:01:01 11 C 7.21 g/m*3 11 C 0 km/h
1835 05-04-2009 08:13:01 11 C 7.21 g/m*3 11 C 0 km/h
1836 05-04-2009 08:25:00 11.2 C 7.3 g/m*3 11.2 C 0 km/h
1837 05-04-2009 08:37:01 11.3 C 7.24 g/m*3 11.3 C 0 km/h
1838 05-04-2009 08:49:00 11.5 C 7.33 g/m*3 11.5 C 0 km/h
1839 05-04-2009 09:01:01 11.6 C 7.28 g/m*3 11.6 C 0 km/h
1840 05-04-2009 09:13:01 12.4 C 7.43 g/m*3 12.4 C 0 km/h
1841 05-04-2009 09:25:00 12.3 C 7.17 g/m*3 12.3 C 0 km/h
1842 05-04-2009 09:37:01 12.6 C 7.19 g/m*3 12.6 C 0 km/h
1843 05-04-2009 09:49:00 12.7 C 7.12 g/m*3 12.7 C 0 km/h
1844 05-04-2009 10:01:00 13.1 C 7.19 g/m*3 13.1 C 0 km/h
1845 05-04-2009 10:13:00 13.2 C 6.77 g/m*3 13.2 C 0 km/h
1846 05-04-2009 10:25:59 13.4 C 6.86 g/m*3 13.4 C 0 km/h
1847 05-04-2009 10:37:00 13.9 C 6.83 g/m*3 13.9 C 0 km/h
1848 05-04-2009 10:49:59 14.2 C 6.47 g/m*3 14.2 C 0 km/h
1849 05-04-2009 11:01:01 15 C 6.54 g/m*3 15 C 0 km/h
1850 05-04-2009 11:13:01 15.2 C 6.49 g/m*3 15.2 C 0 km/h
Sensor: Nr:Datum:Temp:Abs-Feuchte:Windchill:Wind:
Aussen-T/F 1851 05-04-2009 11:25:02 15.2 C 6.1 g/m*3 15.2 C 0 km/h
1852 05-04-2009 11:37:02 15.5 C 6.48 g/m*3 15.5 C 0 km/h
1853 05-04-2009 11:49:02 16.3 C 6.1 g/m*3 16.3 C 0 km/h
1854 05-04-2009 12:01:01 16 C 6.27 g/m*3 16 C 0 km/h
1855 05-04-2009 12:13:01 16.7 C 6.25 g/m*3 16.7 C 0 km/h
1856 05-04-2009 12:25:02 17.4 C 6.52 g/m*3 17.4 C 0 km/h
1857 05-04-2009 12:37:01 17.7 C 6.49 g/m*3 17.7 C 0 km/h
1858 05-04-2009 12:49:01 17.8 C 6.68 g/m*3 17.8 C 0 km/h
1859 05-04-2009 13:01:01 18.2 C 6.53 g/m*3 18.2 C 0 km/h
1860 05-04-2009 13:13:01 18.7 C 6.56 g/m*3 18.7 C 0 km/h
1861 05-04-2009 13:25:01 19.2 C 6.43 g/m*3 19.2 C 0 km/h
1862 05-04-2009 13:37:00 19.5 C 6.21 g/m*3 19.5 C 0 km/h
1863 05-04-2009 13:49:00 19 C 6.19 g/m*3 19 C 0 km/h
1864 05-04-2009 14:01:00 19.2 C 6.43 g/m*3 19.2 C 0 km/h
1865 05-04-2009 14:13:00 20.2 C 6.29 g/m*3 20.2 C 0 km/h
1866 05-04-2009 14:25:00 19.9 C 6.19 g/m*3 19.9 C 0 km/h
1867 05-04-2009 14:37:00 20 C 6.05 g/m*3 20 C 0 km/h
1868 05-04-2009 14:49:00 19.7 C 5.94 g/m*3 19.7 C 0 km/h
1869 05-04-2009 15:01:00 20.7 C 6.12 g/m*3 20.7 C 0 km/h
1870 05-04-2009 15:13:00 21.2 C 5.93 g/m*3 21.2 C 0 km/h
1871 05-04-2009 15:24:59 20.1 C 5.74 g/m*3 20.1 C 0 km/h
1872 05-04-2009 15:37:00 20.2 C 5.94 g/m*3 20.2 C 0 km/h
1873 05-04-2009 15:49:59 21.6 C 5.69 g/m*3 21.6 C 0 km/h
1874 05-04-2009 16:01:59 20.3 C 5.28 g/m*3 20.3 C 0 km/h
1875 05-04-2009 16:13:00 21.5 C 5.28 g/m*3 21.5 C 0 km/h
Sensor: Nr:Datum:Temp:Abs-Feuchte:Windchill:Wind:
Aussen-T/F 1876 05-04-2009 16:25:59 21.8 C 5.37 g/m*3 21.8 C 0 km/h
1877 05-04-2009 16:37:59 20.8 C 5.61 g/m*3 20.8 C 0 km/h
1878 05-04-2009 16:49:58 21.1 C 5.34 g/m*3 21.1 C 0 km/h
1879 05-04-2009 17:01:59 20.5 C 5.16 g/m*3 20.5 C 0 km/h
1880 05-04-2009 17:13:59 21.2 C 5 g/m*3 21.2 C 0 km/h
1881 05-04-2009 17:25:59 19.7 C 5.09 g/m*3 19.7 C 0 km/h
1882 05-04-2009 17:37:58 19.9 C 5.33 g/m*3 19.9 C 0 km/h
1883 05-04-2009 17:49:59 19.1 C 5.41 g/m*3 19.1 C 0 km/h
1884 05-04-2009 18:01:58 18.9 C 5.51 g/m*3 18.9 C 0 km/h
1885 05-04-2009 18:13:58 19.5 C 5.54 g/m*3 19.5 C 0 km/h
1886 05-04-2009 18:25:58 19 C 5.7 g/m*3 19 C 0 km/h
1887 05-04-2009 18:37:58 18.3 C 5.63 g/m*3 18.3 C 0 km/h
1888 05-04-2009 18:49:58 17.8 C 5.77 g/m*3 17.8 C 0 km/h
1889 05-04-2009 19:01:58 17.4 C 5.93 g/m*3 17.4 C 0 km/h
1890 05-04-2009 19:13:58 17.2 C 5.86 g/m*3 17.2 C 0 km/h
1891 05-04-2009 19:25:57 17 C 5.93 g/m*3 17 C 0 km/h
1892 05-04-2009 19:37:58 16.8 C 6 g/m*3 16.8 C 0 km/h
1893 05-04-2009 19:49:57 16.7 C 6.25 g/m*3 16.7 C 0 km/h
1894 05-04-2009 20:01:57 16.3 C 6.24 g/m*3 16.3 C 0 km/h
1895 05-04-2009 20:13:57 15.9 C 6.37 g/m*3 15.9 C 0 km/h
1896 05-04-2009 20:25:57 15.8 C 6.6 g/m*3 15.8 C 0 km/h
1897 05-04-2009 20:37:57 15.7 C 6.56 g/m*3 15.7 C 0 km/h
1898 05-04-2009 20:49:56 15.5 C 6.61 g/m*3 15.5 C 0 km/h
1899 05-04-2009 21:01:57 15.4 C 6.7 g/m*3 15.4 C 0 km/h
1900 05-04-2009 21:13:57 15.2 C 6.62 g/m*3 15.2 C 0 km/h
Sensor: Nr:Datum:Temp:Abs-Feuchte:Windchill:Wind:
Aussen-T/F 1901 05-04-2009 21:25:56 14.8 C 6.59 g/m*3 14.8 C 0 km/h
1902 05-04-2009 21:37:56 14.4 C 6.8 g/m*3 14.4 C 0 km/h
1903 05-04-2009 21:49:56 14.3 C 6.76 g/m*3 14.3 C 0 km/h
1904 05-04-2009 22:01:56 14.1 C 6.67 g/m*3 14.1 C 0 km/h
1905 05-04-2009 22:13:56 14 C 6.75 g/m*3 14 C 0 km/h
1906 05-04-2009 22:25:55 13.8 C 6.91 g/m*3 13.8 C 0 km/h
1907 05-04-2009 22:38:57 13.6 C 6.94 g/m*3 13.6 C 0 km/h
1908 05-04-2009 22:50:57 13.4 C 6.97 g/m*3 13.4 C 0 km/h
1909 05-04-2009 23:02:57 13 C 6.92 g/m*3 13 C 0 km/h
1910 05-04-2009 23:14:57 13 C 6.92 g/m*3 13 C 0 km/h
1911 05-04-2009 23:26:57 13 C 7.03 g/m*3 13 C 0 km/h
1912 05-04-2009 23:38:57 12.7 C 6.9 g/m*3 12.7 C 0 km/h
1913 05-04-2009 23:50:57 12.6 C 6.97 g/m*3 12.6 C 0 km/h
1914 06-04-2009 00:02:57 12.8 C 7.06 g/m*3 12.8 C 0 km/h
1915 06-04-2009 00:14:57 12.9 C 7.1 g/m*3 12.9 C 0 km/h
1916 06-04-2009 00:26:57 12.6 C 6.97 g/m*3 12.6 C 0 km/h
1917 06-04-2009 00:38:57 12.5 C 7.04 g/m*3 12.5 C 0 km/h
1918 06-04-2009 00:50:57 12.7 C 7.12 g/m*3 12.7 C 0 km/h
1919 06-04-2009 01:02:57 12.7 C 7.12 g/m*3 12.7 C 0 km/h
1920 06-04-2009 01:14:57 12.7 C 7.12 g/m*3 12.7 C 0 km/h
1921 06-04-2009 01:26:57 12.7 C 7.12 g/m*3 12.7 C 0 km/h
1922 06-04-2009 01:38:57 12.2 C 6.91 g/m*3 12.2 C 0 km/h
1923 06-04-2009 01:50:57 11.8 C 6.95 g/m*3 11.8 C 0 km/h
1924 06-04-2009 02:02:57 11.5 C 6.92 g/m*3 11.5 C 0 km/h
1925 06-04-2009 02:14:57 11.4 C 6.88 g/m*3 11.4 C 0 km/h
Sensor: Nr:Datum:Temp:Abs-Feuchte:Windchill:Wind:
Aussen-T/F 1926 06-04-2009 02:26:58 11 C 6.91 g/m*3 11 C 0 km/h
1927 06-04-2009 02:38:58 10.9 C 6.96 g/m*3 10.9 C 0 km/h
1928 06-04-2009 02:50:58 10.7 C 6.97 g/m*3 10.7 C 0 km/h
1929 06-04-2009 03:02:58 10.5 C 6.89 g/m*3 10.5 C 0 km/h
1930 06-04-2009 03:14:58 10.2 C 6.76 g/m*3 10.2 C 0 km/h
1931 06-04-2009 03:26:58 10.1 C 6.81 g/m*3 10.1 C 0 km/h
1932 06-04-2009 03:38:58 10 C 6.86 g/m*3 10 C 0 km/h
1933 06-04-2009 03:50:58 9.9 C 6.91 g/m*3 9.9 C 0 km/h
1934 06-04-2009 04:02:58 9.7 C 6.82 g/m*3 9.7 C 0 km/h
1935 06-04-2009 04:14:58 9.5 C 6.74 g/m*3 9.5 C 0 km/h
1936 06-04-2009 04:26:58 9.3 C 6.74 g/m*3 9.3 C 0 km/h
1937 06-04-2009 04:38:58 9.2 C 6.7 g/m*3 9.2 C 0 km/h
1938 06-04-2009 04:50:58 9 C 6.7 g/m*3 9 C 0 km/h
1939 06-04-2009 05:02:58 9 C 6.7 g/m*3 9 C 0 km/h
1940 06-04-2009 05:14:58 8.8 C 6.79 g/m*3 8.8 C 0 km/h
1941 06-04-2009 05:26:58 8.6 C 6.7 g/m*3 8.6 C 0 km/h
1942 06-04-2009 05:38:58 8.5 C 6.74 g/m*3 8.5 C 0 km/h
1943 06-04-2009 05:50:58 8.3 C 6.66 g/m*3 8.3 C 0 km/h
1944 06-04-2009 06:02:58 8.2 C 6.7 g/m*3 8.2 C 0 km/h
1945 06-04-2009 06:14:59 8 C 6.61 g/m*3 8 C 0 km/h
1946 06-04-2009 06:26:59 7.7 C 6.65 g/m*3 7.7 C 0 km/h
1947 06-04-2009 06:38:59 7.7 C 6.65 g/m*3 7.7 C 0 km/h
1948 06-04-2009 06:50:59 7.6 C 6.69 g/m*3 7.6 C 0 km/h
1949 06-04-2009 07:02:56 7.5 C 6.64 g/m*3 7.5 C 0 km/h
1950 06-04-2009 07:14:57 7.4 C 6.6 g/m*3 7.4 C 0 km/h
Sensor: Nr:Datum:Temp:Abs-Feuchte:Windchill:Wind:
Aussen-T/F 1951 06-04-2009 07:26:58 7.3 C 6.64 g/m*3 7.3 C 0 km/h
1952 06-04-2009 07:38:56 7.3 C 6.64 g/m*3 7.3 C 0 km/h
1953 06-04-2009 07:50:56 7.3 C 6.64 g/m*3 7.3 C 0 km/h
1954 06-04-2009 08:02:56 7.5 C 6.72 g/m*3 7.5 C 0 km/h
1955 06-04-2009 08:14:56 7.6 C 6.77 g/m*3 7.6 C 0 km/h
1956 06-04-2009 08:26:56 7.6 C 6.69 g/m*3 7.6 C 0 km/h
1957 06-04-2009 08:38:56 7.7 C 6.73 g/m*3 7.7 C 0 km/h
1958 06-04-2009 08:50:56 7.8 C 6.77 g/m*3 7.8 C 0 km/h
1959 06-04-2009 09:02:56 7.8 C 6.77 g/m*3 7.8 C 0 km/h
1960 06-04-2009 09:14:55 8 C 6.86 g/m*3 8 C 0 km/h
1961 06-04-2009 09:26:55 8.3 C 7 g/m*3 8.3 C 0 km/h
1962 06-04-2009 09:38:55 8.5 C 7 g/m*3 8.5 C 0 km/h
1963 06-04-2009 09:50:55 8.6 C 7.05 g/m*3 8.6 C 0 km/h
1964 06-04-2009 10:02:55 9.1 C 7.19 g/m*3 9.1 C 0 km/h
1965 06-04-2009 10:14:55 9.6 C 7.24 g/m*3 9.6 C 0 km/h
1966 06-04-2009 10:26:55 10.1 C 7.19 g/m*3 10.1 C 0 km/h
1967 06-04-2009 10:38:54 10.8 C 7.31 g/m*3 10.8 C 0 km/h
1968 06-04-2009 10:50:55 11.5 C 7.23 g/m*3 11.5 C 0 km/h
1969 06-04-2009 11:02:55 12.2 C 7.34 g/m*3 12.2 C 0 km/h
1970 06-04-2009 11:14:54 13.1 C 7.42 g/m*3 13.1 C 0 km/h
1971 06-04-2009 11:26:54 13.9 C 7.55 g/m*3 13.9 C 0 km/h
1972 06-04-2009 11:38:54 14.6 C 7.51 g/m*3 14.6 C 0 km/h
1973 06-04-2009 11:50:54 15.2 C 7.27 g/m*3 15.2 C 0 km/h
1974 06-04-2009 12:02:54 15.9 C 7.31 g/m*3 15.9 C 0 km/h
1975 06-04-2009 12:14:53 16.5 C 7.3 g/m*3 16.5 C 0 km/h
Sensor: Nr:Datum:Temp:Abs-Feuchte:Windchill:Wind:
Aussen-T/F 1976 06-04-2009 12:26:53 17.5 C 7.16 g/m*3 17.5 C 0 km/h
1977 06-04-2009 12:38:54 17.9 C 7.02 g/m*3 17.9 C 0 km/h
1978 06-04-2009 12:50:53 18.6 C 7 g/m*3 18.6 C 0 km/h
1979 06-04-2009 13:02:53 19.3 C 6.8 g/m*3 19.3 C 0 km/h
1980 06-04-2009 13:14:54 19.4 C 6.67 g/m*3 19.4 C 0 km/h
1981 06-04-2009 13:26:54 20 C 6.74 g/m*3 20 C 0 km/h
1982 06-04-2009 13:38:53 20.8 C 6.7 g/m*3 20.8 C 0 km/h
1983 06-04-2009 13:50:53 21.5 C 6.41 g/m*3 21.5 C 0 km/h
1984 06-04-2009 14:02:52 21.4 C 6.19 g/m*3 21.4 C 0 km/h
1985 06-04-2009 14:14:53 21.7 C 6.1 g/m*3 21.7 C 0 km/h
1986 06-04-2009 14:26:53 22.2 C 5.89 g/m*3 22.2 C 0 km/h
1987 06-04-2009 14:38:52 22.5 C 6.19 g/m*3 22.5 C 0 km/h
1988 06-04-2009 14:50:52 22.5 C 5.99 g/m*3 22.5 C 0 km/h
1989 06-04-2009 15:02:52 23.2 C 5.82 g/m*3 23.2 C 0 km/h
1990 06-04-2009 15:14:52 24.1 C 5.47 g/m*3 24.1 C 0 km/h
1991 06-04-2009 15:26:52 24.1 C 5.25 g/m*3 24.1 C 0 km/h
1992 06-04-2009 15:38:52 23.8 C 5.16 g/m*3 23.8 C 0 km/h
1993 06-04-2009 15:50:52 24.1 C 5.25 g/m*3 24.1 C 0 km/h
1994 06-04-2009 16:02:52 23.5 C 5.29 g/m*3 23.5 C 0 km/h
1995 06-04-2009 16:14:51 22.1 C 5.27 g/m*3 22.1 C 0 km/h
1996 06-04-2009 16:26:51 22.4 C 5.56 g/m*3 22.4 C 0 km/h
1997 06-04-2009 16:38:51 22.6 C 5.42 g/m*3 22.6 C 0 km/h
1998 06-04-2009 16:50:51 22.3 C 5.13 g/m*3 22.3 C 0 km/h
1999 06-04-2009 17:02:51 22.1 C 5.08 g/m*3 22.1 C 0 km/h
2000 06-04-2009 17:14:50 21.8 C 5.18 g/m*3 21.8 C 0 km/h
Sensor: Nr:Datum:Temp:Abs-Feuchte:Windchill:Wind:
Aussen-T/F 2001 06-04-2009 17:26:50 21.9 C 5.02 g/m*3 21.9 C 0 km/h
2002 06-04-2009 17:38:51 21.6 C 4.93 g/m*3 21.6 C 0 km/h
2003 06-04-2009 17:50:50 21.4 C 5.25 g/m*3 21.4 C 0 km/h
2004 06-04-2009 18:02:50 21.4 C 5.25 g/m*3 21.4 C 0 km/h
2005 06-04-2009 18:14:51 21.9 C 5.6 g/m*3 21.9 C 0 km/h
2006 06-04-2009 18:26:51 21.7 C 5.53 g/m*3 21.7 C 0 km/h
2007 06-04-2009 18:38:50 21.8 C 5.76 g/m*3 21.8 C 0 km/h
2008 06-04-2009 18:50:50 21.6 C 5.69 g/m*3 21.6 C 0 km/h
2009 06-04-2009 19:02:50 21.8 C 5.76 g/m*3 21.8 C 0 km/h
2010 06-04-2009 19:14:50 21.5 C 6.03 g/m*3 21.5 C 0 km/h
2011 06-04-2009 19:26:50 21 C 5.86 g/m*3 21 C 0 km/h
2012 06-04-2009 19:38:49 20.2 C 6.12 g/m*3 20.2 C 0 km/h
2013 06-04-2009 19:50:50 19.2 C 6.1 g/m*3 19.2 C 0 km/h
2014 06-04-2009 20:02:49 18.5 C 6.01 g/m*3 18.5 C 0 km/h
2015 06-04-2009 20:14:49 18.1 C 6.18 g/m*3 18.1 C 0 km/h
2016 06-04-2009 20:26:49 17.6 C 6 g/m*3 17.6 C 0 km/h
2017 06-04-2009 20:38:49 17.2 C 6 g/m*3 17.2 C 0 km/h
2018 06-04-2009 20:50:49 16.7 C 5.97 g/m*3 16.7 C 0 km/h
2019 06-04-2009 21:02:49 16.6 C 5.93 g/m*3 16.6 C 0 km/h
2020 06-04-2009 21:14:48 16.3 C 5.83 g/m*3 16.3 C 0 km/h
2021 06-04-2009 21:26:48 16 C 5.86 g/m*3 16 C 0 km/h
2022 06-04-2009 21:39:49 15.8 C 5.79 g/m*3 15.8 C 0 km/h
2023 06-04-2009 21:51:49 15.6 C 5.85 g/m*3 15.6 C 0 km/h
2024 06-04-2009 22:03:49 15.4 C 5.91 g/m*3 15.4 C 0 km/h
2025 06-04-2009 22:15:49 15.2 C 5.84 g/m*3 15.2 C 0 km/h
Sensor: Nr:Datum:Temp:Abs-Feuchte:Windchill:Wind:
Aussen-T/F 2026 06-04-2009 22:27:49 15.1 C 5.93 g/m*3 15.1 C 0 km/h
2027 06-04-2009 22:39:49 15.5 C 5.95 g/m*3 15.5 C 0 km/h
2028 06-04-2009 22:51:49 15.4 C 6.04 g/m*3 15.4 C 0 km/h
2029 06-04-2009 23:03:49 15.2 C 6.1 g/m*3 15.2 C 0 km/h
2030 06-04-2009 23:15:49 15.1 C 6.19 g/m*3 15.1 C 0 km/h
2031 06-04-2009 23:27:49 14.9 C 6.37 g/m*3 14.9 C 0 km/h
2032 06-04-2009 23:39:49 14.6 C 6.38 g/m*3 14.6 C 0 km/h
2033 06-04-2009 23:51:49 14.6 C 6.38 g/m*3 14.6 C 0 km/h
2034 07-04-2009 00:03:49 14.3 C 6.39 g/m*3 14.3 C 0 km/h
2035 07-04-2009 00:15:50 14.1 C 6.43 g/m*3 14.1 C 0 km/h
2036 07-04-2009 00:27:50 13.9 C 6.59 g/m*3 13.9 C 0 km/h
2037 07-04-2009 00:39:50 13.8 C 6.55 g/m*3 13.8 C 0 km/h
2038 07-04-2009 00:51:50 13.6 C 6.71 g/m*3 13.6 C 0 km/h
2039 07-04-2009 01:03:50 13.5 C 6.78 g/m*3 13.5 C 0 km/h
2040 07-04-2009 01:15:50 13.2 C 6.77 g/m*3 13.2 C 0 km/h
2041 07-04-2009 01:27:50 12.9 C 6.76 g/m*3 12.9 C 0 km/h
2042 07-04-2009 01:39:50 12.5 C 6.71 g/m*3 12.5 C 0 km/h
2043 07-04-2009 01:51:50 12.1 C 6.76 g/m*3 12.1 C 0 km/h
2044 07-04-2009 02:03:50 11.9 C 6.88 g/m*3 11.9 C 0 km/h
2045 07-04-2009 02:15:50 11.8 C 6.95 g/m*3 11.8 C 0 km/h
2046 07-04-2009 02:27:50 11.4 C 6.77 g/m*3 11.4 C 0 km/h
2047 07-04-2009 02:39:50 11.3 C 6.83 g/m*3 11.3 C 0 km/h
2048 07-04-2009 02:51:50 11.2 C 6.79 g/m*3 11.2 C 0 km/h
2049 07-04-2009 03:03:50 11.1 C 6.85 g/m*3 11.1 C 0 km/h
2050 07-04-2009 03:15:50 10.9 C 6.86 g/m*3 10.9 C 0 km/h
Sensor: Nr:Datum:Temp:Abs-Feuchte:Windchill:Wind:
Aussen-T/F 2051 07-04-2009 03:27:50 10.6 C 6.83 g/m*3 10.6 C 0 km/h
2052 07-04-2009 03:39:50 10.5 C 6.89 g/m*3 10.5 C 0 km/h
2053 07-04-2009 03:51:50 10.3 C 6.8 g/m*3 10.3 C 0 km/h
2054 07-04-2009 04:03:50 10 C 6.77 g/m*3 10 C 0 km/h
2055 07-04-2009 04:15:51 9.8 C 6.87 g/m*3 9.8 C 0 km/h
2056 07-04-2009 04:27:51 9.8 C 6.87 g/m*3 9.8 C 0 km/h
2057 07-04-2009 04:39:51 9.8 C 6.87 g/m*3 9.8 C 0 km/h
2058 07-04-2009 04:51:51 9.7 C 6.82 g/m*3 9.7 C 0 km/h
2059 07-04-2009 05:03:51 9.6 C 6.78 g/m*3 9.6 C 0 km/h
2060 07-04-2009 05:15:51 9.4 C 6.69 g/m*3 9.4 C 0 km/h
2061 07-04-2009 05:27:51 9.4 C 6.78 g/m*3 9.4 C 0 km/h
2062 07-04-2009 05:39:51 9.2 C 6.79 g/m*3 9.2 C 0 km/h
2063 07-04-2009 05:51:51 9 C 6.7 g/m*3 9 C 0 km/h
2064 07-04-2009 06:03:51 8.7 C 6.66 g/m*3 8.7 C 0 km/h
2065 07-04-2009 06:15:51 8.6 C 6.62 g/m*3 8.6 C 0 km/h
2066 07-04-2009 06:27:51 8.4 C 6.62 g/m*3 8.4 C 0 km/h
2067 07-04-2009 06:39:51 8.4 C 6.7 g/m*3 8.4 C 0 km/h
2068 07-04-2009 06:51:51 8.3 C 6.74 g/m*3 8.3 C 0 km/h
2069 07-04-2009 07:03:51 8.2 C 6.7 g/m*3 8.2 C 0 km/h
2070 07-04-2009 07:15:49 8.1 C 6.66 g/m*3 8.1 C 0 km/h
2071 07-04-2009 07:27:49 8.1 C 6.74 g/m*3 8.1 C 0 km/h
2072 07-04-2009 07:39:48 8.1 C 6.74 g/m*3 8.1 C 0 km/h
2073 07-04-2009 07:51:49 8.1 C 6.74 g/m*3 8.1 C 0 km/h
2074 07-04-2009 08:03:48 8.1 C 6.74 g/m*3 8.1 C 0 km/h
2075 07-04-2009 08:15:48 8.2 C 6.78 g/m*3 8.2 C 0 km/h
Sensor: Nr:Datum:Temp:Abs-Feuchte:Windchill:Wind:
Aussen-T/F 2076 07-04-2009 08:27:48 8.3 C 6.83 g/m*3 8.3 C 0 km/h
2077 07-04-2009 08:39:47 8.6 C 6.96 g/m*3 8.6 C 0 km/h
2078 07-04-2009 08:51:48 8.9 C 7.1 g/m*3 8.9 C 0 km/h
2079 07-04-2009 09:03:48 9.1 C 7.1 g/m*3 9.1 C 0 km/h
2080 07-04-2009 09:15:47 9.6 C 7.24 g/m*3 9.6 C 0 km/h
2081 07-04-2009 09:27:47 10 C 7.05 g/m*3 10 C 0 km/h
2082 07-04-2009 09:39:48 10.6 C 7.12 g/m*3 10.6 C 0 km/h
2083 07-04-2009 09:51:47 11.2 C 7.2 g/m*3 11.2 C 0 km/h
2084 07-04-2009 10:03:47 12 C 7.25 g/m*3 12 C 0 km/h
2085 07-04-2009 10:15:47 12.8 C 7.17 g/m*3 12.8 C 0 km/h
2086 07-04-2009 10:27:47 13.4 C 6.97 g/m*3 13.4 C 0 km/h
2087 07-04-2009 10:39:47 14.2 C 7.33 g/m*3 14.2 C 0 km/h
2088 07-04-2009 10:51:46 15.4 C 6.44 g/m*3 15.4 C 0 km/h
2089 07-04-2009 11:03:46 16.6 C 5.93 g/m*3 16.6 C 0 km/h
2090 07-04-2009 11:15:47 17.1 C 5.82 g/m*3 17.1 C 0 km/h
2091 07-04-2009 11:27:47 17.7 C 6.04 g/m*3 17.7 C 0 km/h
2092 07-04-2009 11:39:46 18.2 C 5.91 g/m*3 18.2 C 0 km/h
2093 07-04-2009 11:51:46 18.5 C 5.85 g/m*3 18.5 C 0 km/h
2094 07-04-2009 12:03:46 19.2 C 5.77 g/m*3 19.2 C 0 km/h
2095 07-04-2009 12:15:46 19.8 C 5.64 g/m*3 19.8 C 0 km/h
2096 07-04-2009 12:27:46 20.1 C 5.39 g/m*3 20.1 C 0 km/h
2097 07-04-2009 12:39:46 20.4 C 5.48 g/m*3 20.4 C 0 km/h
2098 07-04-2009 12:51:46 20.4 C 5.31 g/m*3 20.4 C 0 km/h
2099 07-04-2009 13:03:46 20.9 C 5.46 g/m*3 20.9 C 0 km/h
2100 07-04-2009 13:15:45 21 C 5.5 g/m*3 21 C 0 km/h
Sensor: Nr:Datum:Temp:Abs-Feuchte:Windchill:Wind:
Aussen-T/F 2101 07-04-2009 13:27:45 21.5 C 5.47 g/m*3 21.5 C 0 km/h
2102 07-04-2009 13:39:45 21.7 C 5.34 g/m*3 21.7 C 0 km/h
2103 07-04-2009 13:51:45 21.5 C 5.66 g/m*3 21.5 C 0 km/h
2104 07-04-2009 14:03:45 20.8 C 5.79 g/m*3 20.8 C 0 km/h
2105 07-04-2009 14:15:44 21.2 C 5.93 g/m*3 21.2 C 0 km/h
2106 07-04-2009 14:27:44 22.5 C 5.99 g/m*3 22.5 C 0 km/h
2107 07-04-2009 14:39:45 22.3 C 5.53 g/m*3 22.3 C 0 km/h
2108 07-04-2009 14:51:44 22.8 C 5.49 g/m*3 22.8 C 0 km/h
2109 07-04-2009 15:03:44 22.9 C 5.31 g/m*3 22.9 C 0 km/h
2110 07-04-2009 15:15:45 22.9 C 5.11 g/m*3 22.9 C 0 km/h
2111 07-04-2009 15:27:45 22.6 C 5.02 g/m*3 22.6 C 0 km/h
2112 07-04-2009 15:39:44 22.1 C 5.08 g/m*3 22.1 C 0 km/h
2113 07-04-2009 15:51:44 21.8 C 5.37 g/m*3 21.8 C 0 km/h
2114 07-04-2009 16:03:44 22.7 C 5.46 g/m*3 22.7 C 0 km/h
2115 07-04-2009 16:15:44 22.9 C 5.31 g/m*3 22.9 C 0 km/h
2116 07-04-2009 16:27:44 22.3 C 5.33 g/m*3 22.3 C 0 km/h
2117 07-04-2009 16:39:43 21.7 C 5.53 g/m*3 21.7 C 0 km/h
2118 07-04-2009 16:51:44 21.4 C 5.44 g/m*3 21.4 C 0 km/h
2119 07-04-2009 17:03:43 21.2 C 5.56 g/m*3 21.2 C 0 km/h
2120 07-04-2009 17:15:43 20.9 C 5.65 g/m*3 20.9 C 0 km/h
2121 07-04-2009 17:27:43 20.7 C 5.76 g/m*3 20.7 C 0 km/h
2122 07-04-2009 17:39:43 20.4 C 5.84 g/m*3 20.4 C 0 km/h
2123 07-04-2009 17:51:43 20.4 C 6.01 g/m*3 20.4 C 0 km/h
2124 07-04-2009 18:03:43 18.7 C 7.04 g/m*3 18.7 C 0 km/h
2125 07-04-2009 18:15:42 18.3 C 7.66 g/m*3 18.3 C 0 km/h
Sensor: Nr:Datum:Temp:Abs-Feuchte:Windchill:Wind:
Aussen-T/F 2126 07-04-2009 18:27:42 17.7 C 7.69 g/m*3 17.7 C 0 km/h
2127 07-04-2009 18:39:43 17.7 C 7.85 g/m*3 17.7 C 0 km/h
2128 07-04-2009 18:51:42 16.3 C 8.88 g/m*3 16.3 C 0 km/h
2129 07-04-2009 19:03:42 15.3 C 8.75 g/m*3 15.3 C 0 km/h
2130 07-04-2009 19:15:41 15.3 C 9.66 g/m*3 15.3 C 0 km/h
2131 07-04-2009 19:27:41 14.7 C 9.82 g/m*3 14.7 C 0 km/h
2132 07-04-2009 19:39:42 14.6 C 10.14 g/m*3 14.6 C 0 km/h
2133 07-04-2009 19:51:41 14.8 C 9.37 g/m*3 14.8 C 0 km/h
2134 07-04-2009 20:03:41 14.7 C 8.69 g/m*3 14.7 C 0 km/h
2135 07-04-2009 20:15:42 14.5 C 8.46 g/m*3 14.5 C 0 km/h
2136 07-04-2009 20:27:42 14.3 C 8.85 g/m*3 14.3 C 0 km/h
2137 07-04-2009 20:39:41 14.2 C 9.16 g/m*3 14.2 C 0 km/h
2138 07-04-2009 20:51:41 14.1 C 8.86 g/m*3 14.1 C 0 km/h
2139 07-04-2009 21:03:41 14.1 C 8.86 g/m*3 14.1 C 0 km/h
2140 07-04-2009 21:15:41 14 C 8.93 g/m*3 14 C 0 km/h
2141 07-04-2009 21:27:41 14.1 C 8.98 g/m*3 14.1 C 0 km/h
2142 07-04-2009 21:39:41 13.9 C 8.87 g/m*3 13.9 C 0 km/h
2143 07-04-2009 21:52:42 13.9 C 8.87 g/m*3 13.9 C 0 km/h
2144 07-04-2009 22:04:42 13.5 C 8.89 g/m*3 13.5 C 0 km/h
2145 07-04-2009 22:16:42 13.2 C 8.96 g/m*3 13.2 C 0 km/h
2146 07-04-2009 22:28:42 13.3 C 9.36 g/m*3 13.3 C 0 km/h
2147 07-04-2009 22:40:42 13.1 C 9.24 g/m*3 13.1 C 0 km/h
2148 07-04-2009 22:52:42 13 C 9.19 g/m*3 13 C 0 km/h
2149 07-04-2009 23:04:42 12.4 C 8.85 g/m*3 12.4 C 0 km/h
2150 07-04-2009 23:16:42 12.3 C 9.01 g/m*3 12.3 C 0 km/h
Sensor: Nr:Datum:Temp:Abs-Feuchte:Windchill:Wind:
Aussen-T/F 2151 07-04-2009 23:28:42 12.4 C 9.07 g/m*3 12.4 C 0 km/h
2152 07-04-2009 23:40:42 12.6 C 8.96 g/m*3 12.6 C 0 km/h
2153 07-04-2009 23:52:42 12.7 C 8.79 g/m*3 12.7 C 0 km/h
2154 08-04-2009 00:04:42 12.6 C 8.3 g/m*3 12.6 C 0 km/h
2155 08-04-2009 00:16:42 12.5 C 8.25 g/m*3 12.5 C 0 km/h
2156 08-04-2009 00:28:42 12.6 C 8.3 g/m*3 12.6 C 0 km/h
2157 08-04-2009 00:40:42 12.5 C 8.14 g/m*3 12.5 C 0 km/h
2158 08-04-2009 00:52:42 12.4 C 8.09 g/m*3 12.4 C 0 km/h
2159 08-04-2009 01:04:42 12.5 C 8.14 g/m*3 12.5 C 0 km/h
2160 08-04-2009 01:16:43 12.4 C 8.09 g/m*3 12.4 C 0 km/h
2161 08-04-2009 01:28:43 12.2 C 7.99 g/m*3 12.2 C 0 km/h
2162 08-04-2009 01:40:43 12.2 C 8.09 g/m*3 12.2 C 0 km/h
2163 08-04-2009 01:52:43 12.2 C 8.09 g/m*3 12.2 C 0 km/h
2164 08-04-2009 02:04:43 12.2 C 8.09 g/m*3 12.2 C 0 km/h
2165 08-04-2009 02:16:43 12.2 C 8.09 g/m*3 12.2 C 0 km/h
2166 08-04-2009 02:28:43 12.1 C 7.83 g/m*3 12.1 C 0 km/h
2167 08-04-2009 02:40:43 12.1 C 7.61 g/m*3 12.1 C 0 km/h
2168 08-04-2009 02:52:43 12.1 C 7.4 g/m*3 12.1 C 0 km/h
2169 08-04-2009 03:04:43 12 C 7.25 g/m*3 12 C 0 km/h
2170 08-04-2009 03:16:43 12 C 7.25 g/m*3 12 C 0 km/h
2171 08-04-2009 03:28:43 11.8 C 7.26 g/m*3 11.8 C 0 km/h
2172 08-04-2009 03:40:43 11.7 C 7.22 g/m*3 11.7 C 0 km/h
2173 08-04-2009 03:52:43 11.5 C 7.23 g/m*3 11.5 C 0 km/h
2174 08-04-2009 04:04:43 11.6 C 7.38 g/m*3 11.6 C 0 km/h
2175 08-04-2009 04:16:43 11.4 C 7.19 g/m*3 11.4 C 0 km/h
Sensor: Nr:Datum:Temp:Abs-Feuchte:Windchill:Wind:
Aussen-T/F 2176 08-04-2009 04:28:43 11.3 C 7.14 g/m*3 11.3 C 0 km/h
2177 08-04-2009 04:40:43 11.3 C 7.24 g/m*3 11.3 C 0 km/h
2178 08-04-2009 04:52:43 11.4 C 7.39 g/m*3 11.4 C 0 km/h
2179 08-04-2009 05:04:43 11.4 C 7.39 g/m*3 11.4 C 0 km/h
2180 08-04-2009 05:16:43 11.3 C 7.34 g/m*3 11.3 C 0 km/h
2181 08-04-2009 05:28:44 11.4 C 7.39 g/m*3 11.4 C 0 km/h
2182 08-04-2009 05:40:44 11.4 C 7.39 g/m*3 11.4 C 0 km/h
2183 08-04-2009 05:52:44 11.5 C 7.44 g/m*3 11.5 C 0 km/h
2184 08-04-2009 06:04:44 11.7 C 7.53 g/m*3 11.7 C 0 km/h
2185 08-04-2009 06:16:44 11.5 C 7.44 g/m*3 11.5 C 0 km/h
2186 08-04-2009 06:28:44 11.7 C 7.53 g/m*3 11.7 C 0 km/h
2187 08-04-2009 06:40:44 11.4 C 7.29 g/m*3 11.4 C 0 km/h
2188 08-04-2009 06:52:44 11.4 C 7.29 g/m*3 11.4 C 0 km/h
2189 08-04-2009 07:04:41 11.2 C 7.2 g/m*3 11.2 C 0 km/h
2190 08-04-2009 07:16:42 11.2 C 7.2 g/m*3 11.2 C 0 km/h
2191 08-04-2009 07:28:42 11.1 C 7.25 g/m*3 11.1 C 0 km/h
2192 08-04-2009 07:40:41 11.2 C 7.2 g/m*3 11.2 C 0 km/h
2193 08-04-2009 07:52:41 11.3 C 7.24 g/m*3 11.3 C 0 km/h
2194 08-04-2009 08:04:41 11.3 C 7.24 g/m*3 11.3 C 0 km/h
2195 08-04-2009 08:16:41 11.5 C 7.23 g/m*3 11.5 C 0 km/h
2196 08-04-2009 08:28:41 11.7 C 7.22 g/m*3 11.7 C 0 km/h
2197 08-04-2009 08:40:40 11.9 C 7.1 g/m*3 11.9 C 0 km/h
2198 08-04-2009 08:52:40 12.1 C 7.08 g/m*3 12.1 C 0 km/h
2199 08-04-2009 09:04:40 12.2 C 7.01 g/m*3 12.2 C 0 km/h
2200 08-04-2009 09:16:40 12 C 6.93 g/m*3 12 C 0 km/h
Sensor: Nr:Datum:Temp:Abs-Feuchte:Windchill:Wind:
Aussen-T/F 2201 08-04-2009 09:28:40 11.9 C 6.99 g/m*3 11.9 C 0 km/h
2202 08-04-2009 09:40:40 12.1 C 6.76 g/m*3 12.1 C 0 km/h
2203 08-04-2009 09:52:40 12.5 C 6.71 g/m*3 12.5 C 0 km/h
2204 08-04-2009 10:04:40 12.9 C 6.65 g/m*3 12.9 C 0 km/h
2205 08-04-2009 10:16:39 13.3 C 6.47 g/m*3 13.3 C 0 km/h
2206 08-04-2009 10:28:39 13.5 C 6.2 g/m*3 13.5 C 0 km/h
2207 08-04-2009 10:40:39 14.2 C 6.11 g/m*3 14.2 C 0 km/h
2208 08-04-2009 10:52:39 14.5 C 5.72 g/m*3 14.5 C 0 km/h
2209 08-04-2009 11:04:39 15.1 C 5.81 g/m*3 15.1 C 0 km/h
2210 08-04-2009 11:16:39 15.4 C 5.52 g/m*3 15.4 C 0 km/h
2211 08-04-2009 11:28:39 15.1 C 5.16 g/m*3 15.1 C 0 km/h
2212 08-04-2009 11:40:39 14.8 C 5.19 g/m*3 14.8 C 0 km/h
2213 08-04-2009 11:52:39 14.9 C 4.97 g/m*3 14.9 C 0 km/h
2214 08-04-2009 12:04:38 15.4 C 5.12 g/m*3 15.4 C 0 km/h
2215 08-04-2009 12:16:39 15.8 C 5.38 g/m*3 15.8 C 0 km/h
2216 08-04-2009 12:28:39 15.8 C 5.25 g/m*3 15.8 C 0 km/h
2217 08-04-2009 12:40:38 15.4 C 4.86 g/m*3 15.4 C 0 km/h
2218 08-04-2009 12:52:38 16.2 C 4.96 g/m*3 16.2 C 0 km/h
2219 08-04-2009 13:04:37 16.3 C 4.44 g/m*3 16.3 C 0 km/h
2220 08-04-2009 13:16:38 16.7 C 4.55 g/m*3 16.7 C 0 km/h
2221 08-04-2009 13:28:38 16.8 C 4.15 g/m*3 16.8 C 0 km/h
2222 08-04-2009 13:40:38 17.3 C 3.98 g/m*3 17.3 C 0 km/h
2223 08-04-2009 13:52:37 17.7 C 4.07 g/m*3 17.7 C 0 km/h
2224 08-04-2009 14:04:38 17.5 C 3.88 g/m*3 17.5 C 0 km/h
2225 08-04-2009 14:16:37 17.9 C 3.51 g/m*3 17.9 C 0 km/h
Sensor: Nr:Datum:Temp:Abs-Feuchte:Windchill:Wind:
Aussen-T/F 2226 08-04-2009 14:28:37 18 C 3.07 g/m*3 18 C 0 km/h
2227 08-04-2009 14:40:37 17.8 C 3.04 g/m*3 17.8 C 0 km/h
2228 08-04-2009 14:52:37 17.4 C 2.96 g/m*3 17.4 C 0 km/h
2229 08-04-2009 15:04:37 17.7 C 3.17 g/m*3 17.7 C 0 km/h
2230 08-04-2009 15:16:36 18.4 C 3.15 g/m*3 18.4 C 0 km/h
2231 08-04-2009 15:28:36 17.5 C 2.98 g/m*3 17.5 C 0 km/h
2232 08-04-2009 15:40:37 17.2 C 3.08 g/m*3 17.2 C 0 km/h
2233 08-04-2009 15:52:36 17.5 C 3.13 g/m*3 17.5 C 0 km/h
2234 08-04-2009 16:04:36 17.7 C 3.17 g/m*3 17.7 C 0 km/h
2235 08-04-2009 16:16:36 17.7 C 3.32 g/m*3 17.7 C 0 km/h
2236 08-04-2009 16:28:36 17.7 C 3.32 g/m*3 17.7 C 0 km/h
2237 08-04-2009 16:40:36 17.5 C 3.13 g/m*3 17.5 C 0 km/h
2238 08-04-2009 16:52:36 17.5 C 2.98 g/m*3 17.5 C 0 km/h
2239 08-04-2009 17:04:35 17.6 C 3 g/m*3 17.6 C 0 km/h
2240 08-04-2009 17:16:36 17.6 C 3 g/m*3 17.6 C 0 km/h
2241 08-04-2009 17:28:37 17.2 C 2.93 g/m*3 17.2 C 0 km/h
2242 08-04-2009 17:40:35 17.5 C 2.98 g/m*3 17.5 C 0 km/h
2243 08-04-2009 17:52:35 17.7 C 3.32 g/m*3 17.7 C 0 km/h
2244 08-04-2009 18:04:35 17.7 C 3.17 g/m*3 17.7 C 0 km/h
2245 08-04-2009 18:16:35 17.5 C 2.98 g/m*3 17.5 C 0 km/h
2246 08-04-2009 18:28:35 17.2 C 2.93 g/m*3 17.2 C 0 km/h
2247 08-04-2009 18:40:35 17.6 C 3.3 g/m*3 17.6 C 0 km/h
2248 08-04-2009 18:52:35 17.8 C 3.19 g/m*3 17.8 C 0 km/h
2249 08-04-2009 19:04:35 17.7 C 3.32 g/m*3 17.7 C 0 km/h
2250 08-04-2009 19:16:34 18.3 C 3.28 g/m*3 18.3 C 0 km/h
Sensor: Nr:Datum:Temp:Abs-Feuchte:Windchill:Wind:
Aussen-T/F 2251 08-04-2009 19:28:34 17.5 C 3.58 g/m*3 17.5 C 0 km/h
2252 08-04-2009 19:40:34 16.6 C 4.24 g/m*3 16.6 C 0 km/h
2253 08-04-2009 19:52:34 15.9 C 4.47 g/m*3 15.9 C 0 km/h
2254 08-04-2009 20:04:34 15.6 C 4.65 g/m*3 15.6 C 0 km/h
2255 08-04-2009 20:16:33 15.2 C 4.67 g/m*3 15.2 C 0 km/h
2256 08-04-2009 20:28:33 15 C 4.87 g/m*3 15 C 0 km/h
2257 08-04-2009 20:40:34 14.7 C 5.04 g/m*3 14.7 C 0 km/h
2258 08-04-2009 20:52:34 14.6 C 5.26 g/m*3 14.6 C 0 km/h
2259 08-04-2009 21:04:33 14.6 C 5.38 g/m*3 14.6 C 0 km/h
2260 08-04-2009 21:16:34 14.6 C 5.38 g/m*3 14.6 C 0 km/h
2261 08-04-2009 21:28:34 14.4 C 5.56 g/m*3 14.4 C 0 km/h
2262 08-04-2009 21:40:33 14.2 C 5.62 g/m*3 14.2 C 0 km/h
2263 08-04-2009 21:52:33 14.2 C 5.86 g/m*3 14.2 C 0 km/h
2264 08-04-2009 22:04:33 13.8 C 5.96 g/m*3 13.8 C 0 km/h
2265 08-04-2009 22:17:35 13.6 C 6.12 g/m*3 13.6 C 0 km/h
2266 08-04-2009 22:29:35 13.2 C 6.2 g/m*3 13.2 C 0 km/h
2267 08-04-2009 22:41:35 13.2 C 6.32 g/m*3 13.2 C 0 km/h
2268 08-04-2009 22:53:35 13.2 C 6.32 g/m*3 13.2 C 0 km/h
2269 08-04-2009 23:05:35 13.2 C 6.32 g/m*3 13.2 C 0 km/h
2270 08-04-2009 23:17:35 13.2 C 6.32 g/m*3 13.2 C 0 km/h
2271 08-04-2009 23:29:35 13.1 C 6.28 g/m*3 13.1 C 0 km/h
2272 08-04-2009 23:41:35 13.2 C 6.32 g/m*3 13.2 C 0 km/h
2273 08-04-2009 23:53:35 13.2 C 6.43 g/m*3 13.2 C 0 km/h
2274 09-04-2009 00:05:35 13.2 C 6.54 g/m*3 13.2 C 0 km/h
2275 09-04-2009 00:17:35 13.2 C 6.66 g/m*3 13.2 C 0 km/h
Sensor: Nr:Datum:Temp:Abs-Feuchte:Windchill:Wind:
Aussen-T/F 2276 09-04-2009 00:29:35 13.2 C 6.66 g/m*3 13.2 C 0 km/h
2277 09-04-2009 00:41:35 13.2 C 6.77 g/m*3 13.2 C 0 km/h
2278 09-04-2009 00:53:35 13.2 C 6.77 g/m*3 13.2 C 0 km/h
2279 09-04-2009 01:05:35 13.3 C 6.93 g/m*3 13.3 C 0 km/h
2280 09-04-2009 01:17:35 13.2 C 7 g/m*3 13.2 C 0 km/h
2281 09-04-2009 01:29:36 13.2 C 7.12 g/m*3 13.2 C 0 km/h
2282 09-04-2009 01:41:36 13.1 C 7.19 g/m*3 13.1 C 0 km/h
2283 09-04-2009 01:53:36 13.2 C 7.23 g/m*3 13.2 C 0 km/h
2284 09-04-2009 02:05:36 13.2 C 7.23 g/m*3 13.2 C 0 km/h
2285 09-04-2009 02:17:36 13.3 C 7.39 g/m*3 13.3 C 0 km/h
2286 09-04-2009 02:29:36 13.4 C 7.32 g/m*3 13.4 C 0 km/h
2287 09-04-2009 02:41:36 13.5 C 7.37 g/m*3 13.5 C 0 km/h
2288 09-04-2009 02:53:36 13.5 C 7.37 g/m*3 13.5 C 0 km/h
2289 09-04-2009 03:05:36 13.3 C 7.28 g/m*3 13.3 C 0 km/h
2290 09-04-2009 03:17:36 13.3 C 7.28 g/m*3 13.3 C 0 km/h
2291 09-04-2009 03:29:36 13 C 7.37 g/m*3 13 C 0 km/h
2292 09-04-2009 03:41:36 13.2 C 7.46 g/m*3 13.2 C 0 km/h
2293 09-04-2009 03:53:36 13.2 C 7.46 g/m*3 13.2 C 0 km/h
2294 09-04-2009 04:05:36 13.4 C 7.44 g/m*3 13.4 C 0 km/h
2295 09-04-2009 04:17:36 13.4 C 7.32 g/m*3 13.4 C 0 km/h
2296 09-04-2009 04:29:36 13.1 C 7.3 g/m*3 13.1 C 0 km/h
2297 09-04-2009 04:41:36 13.3 C 7.39 g/m*3 13.3 C 0 km/h
2298 09-04-2009 04:53:36 13.3 C 7.39 g/m*3 13.3 C 0 km/h
2299 09-04-2009 05:05:36 13.3 C 7.39 g/m*3 13.3 C 0 km/h
2300 09-04-2009 05:17:36 12.4 C 7.98 g/m*3 12.4 C 0 km/h
Sensor: Nr:Datum:Temp:Abs-Feuchte:Windchill:Wind:
Aussen-T/F 2301 09-04-2009 05:29:36 12.3 C 8.04 g/m*3 12.3 C 0 km/h
2302 09-04-2009 05:41:37 12.4 C 8.09 g/m*3 12.4 C 0 km/h
2303 09-04-2009 05:53:37 12.4 C 8.09 g/m*3 12.4 C 0 km/h
2304 09-04-2009 06:05:37 12.1 C 8.26 g/m*3 12.1 C 0 km/h
2305 09-04-2009 06:17:37 12.1 C 8.36 g/m*3 12.1 C 0 km/h
2306 09-04-2009 06:29:37 12.3 C 8.36 g/m*3 12.3 C 0 km/h
2307 09-04-2009 06:41:37 12.4 C 8.19 g/m*3 12.4 C 0 km/h
2308 09-04-2009 06:53:37 12.4 C 8.19 g/m*3 12.4 C 0 km/h
2309 09-04-2009 07:05:34 12.4 C 8.19 g/m*3 12.4 C 0 km/h
2310 09-04-2009 07:17:34 12.5 C 8.25 g/m*3 12.5 C 0 km/h
2311 09-04-2009 07:29:34 12.7 C 8.24 g/m*3 12.7 C 0 km/h
2312 09-04-2009 07:41:33 12.8 C 8.29 g/m*3 12.8 C 0 km/h
2313 09-04-2009 07:53:34 12.9 C 8.23 g/m*3 12.9 C 0 km/h
2314 09-04-2009 08:05:33 13.1 C 8.22 g/m*3 13.1 C 0 km/h
2315 09-04-2009 08:17:33 13.4 C 8.02 g/m*3 13.4 C 0 km/h
2316 09-04-2009 08:29:33 13.6 C 8 g/m*3 13.6 C 0 km/h
2317 09-04-2009 08:41:33 13.9 C 8.03 g/m*3 13.9 C 0 km/h
2318 09-04-2009 08:53:33 14.1 C 7.89 g/m*3 14.1 C 0 km/h
2319 09-04-2009 09:05:33 14.2 C 7.69 g/m*3 14.2 C 0 km/h
2320 09-04-2009 09:17:33 14.6 C 7.76 g/m*3 14.6 C 0 km/h
2321 09-04-2009 09:29:33 14.4 C 7.54 g/m*3 14.4 C 0 km/h
2322 09-04-2009 09:41:33 14.5 C 7.59 g/m*3 14.5 C 0 km/h
2323 09-04-2009 09:53:32 14.5 C 7.59 g/m*3 14.5 C 0 km/h
2324 09-04-2009 10:05:33 14.6 C 7.38 g/m*3 14.6 C 0 km/h
2325 09-04-2009 10:17:32 14.7 C 7.55 g/m*3 14.7 C 0 km/h
Sensor: Nr:Datum:Temp:Abs-Feuchte:Windchill:Wind:
Aussen-T/F 2326 09-04-2009 10:29:32 14.6 C 7.38 g/m*3 14.6 C 0 km/h
2327 09-04-2009 10:41:32 14.5 C 7.46 g/m*3 14.5 C 0 km/h
2328 09-04-2009 10:53:32 14.8 C 7.6 g/m*3 14.8 C 0 km/h
2329 09-04-2009 11:05:32 15.2 C 7.53 g/m*3 15.2 C 0 km/h
2330 09-04-2009 11:17:31 15.4 C 7.49 g/m*3 15.4 C 0 km/h
2331 09-04-2009 11:29:31 15.6 C 7.58 g/m*3 15.6 C 0 km/h
2332 09-04-2009 11:41:31 15.6 C 7.58 g/m*3 15.6 C 0 km/h
2333 09-04-2009 11:53:31 16.5 C 7.58 g/m*3 16.5 C 0 km/h
2334 09-04-2009 12:05:31 16.5 C 7.44 g/m*3 16.5 C 0 km/h
2335 09-04-2009 12:17:31 16.4 C 7.4 g/m*3 16.4 C 0 km/h
2336 09-04-2009 12:29:31 16.4 C 7.4 g/m*3 16.4 C 0 km/h
2337 09-04-2009 12:41:31 16.3 C 7.49 g/m*3 16.3 C 0 km/h
2338 09-04-2009 12:53:31 16.7 C 7.39 g/m*3 16.7 C 0 km/h
2339 09-04-2009 13:05:30 16.8 C 7.43 g/m*3 16.8 C 0 km/h
2340 09-04-2009 13:17:31 17 C 7.23 g/m*3 17 C 0 km/h
2341 09-04-2009 13:29:31 16.9 C 7.48 g/m*3 16.9 C 0 km/h
2342 09-04-2009 13:41:31 17.2 C 7.32 g/m*3 17.2 C 0 km/h
2343 09-04-2009 13:53:30 18.1 C 7.42 g/m*3 18.1 C 0 km/h
2344 09-04-2009 14:05:30 18.5 C 7.28 g/m*3 18.5 C 0 km/h
2345 09-04-2009 14:17:30 19.7 C 7.13 g/m*3 19.7 C 0 km/h
2346 09-04-2009 14:29:30 19.1 C 6.88 g/m*3 19.1 C 0 km/h
2347 09-04-2009 14:41:30 19.5 C 7.05 g/m*3 19.5 C 0 km/h
2348 09-04-2009 14:53:29 20.4 C 7.25 g/m*3 20.4 C 0 km/h
2349 09-04-2009 15:05:30 21.2 C 6.86 g/m*3 21.2 C 0 km/h
2350 09-04-2009 15:17:29 21.1 C 6.82 g/m*3 21.1 C 0 km/h
Sensor: Nr:Datum:Temp:Abs-Feuchte:Windchill:Wind:
Aussen-T/F 2351 09-04-2009 15:29:29 20.3 C 7.03 g/m*3 20.3 C 0 km/h
2352 09-04-2009 15:41:29 19.7 C 6.96 g/m*3 19.7 C 0 km/h
2353 09-04-2009 15:53:29 20.7 C 7.02 g/m*3 20.7 C 0 km/h
2354 09-04-2009 16:05:29 20.9 C 6.92 g/m*3 20.9 C 0 km/h
2355 09-04-2009 16:17:29 21 C 6.78 g/m*3 21 C 0 km/h
2356 09-04-2009 16:29:29 21 C 6.59 g/m*3 21 C 0 km/h
2357 09-04-2009 16:41:28 21.8 C 6.72 g/m*3 21.8 C 0 km/h
2358 09-04-2009 16:53:29 22.7 C 6.67 g/m*3 22.7 C 0 km/h
2359 09-04-2009 17:05:28 24 C 6.31 g/m*3 24 C 0 km/h
2360 09-04-2009 17:17:28 23.8 C 6.24 g/m*3 23.8 C 0 km/h
2361 09-04-2009 17:29:28 22.8 C 6.1 g/m*3 22.8 C 0 km/h
2362 09-04-2009 17:41:28 22 C 6.02 g/m*3 22 C 0 km/h
2363 09-04-2009 17:53:28 23.1 C 6.2 g/m*3 23.1 C 0 km/h
2364 09-04-2009 18:05:28 23.8 C 6.24 g/m*3 23.8 C 0 km/h
2365 09-04-2009 18:17:28 24.3 C 5.97 g/m*3 24.3 C 0 km/h
2366 09-04-2009 18:29:28 24.2 C 5.94 g/m*3 24.2 C 0 km/h
2367 09-04-2009 18:41:27 23.9 C 6.06 g/m*3 23.9 C 0 km/h
2368 09-04-2009 18:53:02 23.7 C 5.99 g/m*3 23.7 C 0 km/h
2369 09-04-2009 19:05:01 23.5 C 5.92 g/m*3 23.5 C 0 km/h
2370 09-04-2009 19:17:02 23.1 C 5.79 g/m*3 23.1 C 0 km/h
2371 09-04-2009 19:29:02 23 C 6.17 g/m*3 23 C 0 km/h
2372 09-04-2009 19:41:01 22.6 C 6.43 g/m*3 22.6 C 0 km/h
2373 09-04-2009 19:53:01 21.5 C 6.6 g/m*3 21.5 C 0 km/h
2374 09-04-2009 20:05:02 19.9 C 6.7 g/m*3 19.9 C 0 km/h
2375 09-04-2009 20:17:01 18.6 C 6.68 g/m*3 18.6 C 0 km/h
Sensor: Nr:Datum:Temp:Abs-Feuchte:Windchill:Wind:
Aussen-T/F 2376 09-04-2009 20:29:01 17.9 C 6.87 g/m*3 17.9 C 0 km/h
2377 09-04-2009 20:41:01 17.3 C 6.78 g/m*3 17.3 C 0 km/h
2378 09-04-2009 20:53:01 16.9 C 6.9 g/m*3 16.9 C 0 km/h
2379 09-04-2009 21:05:01 16.6 C 7.06 g/m*3 16.6 C 0 km/h
2380 09-04-2009 21:17:00 16.2 C 6.9 g/m*3 16.2 C 0 km/h
2381 09-04-2009 21:29:00 16 C 6.95 g/m*3 16 C 0 km/h
2382 09-04-2009 21:41:00 15.8 C 7 g/m*3 15.8 C 0 km/h
2383 09-04-2009 21:53:00 15.6 C 7.05 g/m*3 15.6 C 0 km/h
2384 09-04-2009 22:05:00 15.4 C 7.09 g/m*3 15.4 C 0 km/h
2385 09-04-2009 22:17:00 15.2 C 7.01 g/m*3 15.2 C 0 km/h
2386 09-04-2009 22:29:00 14.9 C 7.14 g/m*3 14.9 C 0 km/h
2387 09-04-2009 22:41:59 14.8 C 7.09 g/m*3 14.8 C 0 km/h
2388 09-04-2009 23:05:59 14.6 C 7.13 g/m*3 14.6 C 0 km/h
2389 09-04-2009 23:17:59 14.4 C 7.05 g/m*3 14.4 C 0 km/h
2390 09-04-2009 23:29:59 14 C 7 g/m*3 14 C 0 km/h
2391 09-04-2009 23:41:59 13.8 C 7.15 g/m*3 13.8 C 0 km/h
2392 09-04-2009 23:53:59 13.7 C 7.22 g/m*3 13.7 C 0 km/h
2393 10-04-2009 00:05:59 13.4 C 7.21 g/m*3 13.4 C 0 km/h
2394 10-04-2009 00:17:59 13.2 C 7.23 g/m*3 13.2 C 0 km/h
2395 10-04-2009 00:29:59 13 C 7.14 g/m*3 13 C 0 km/h
2396 10-04-2009 00:41:59 12.9 C 7.21 g/m*3 12.9 C 0 km/h
2397 10-04-2009 00:53:59 12.9 C 7.33 g/m*3 12.9 C 0 km/h
2398 10-04-2009 01:05:59 12.8 C 7.28 g/m*3 12.8 C 0 km/h
2399 10-04-2009 01:17:59 12.7 C 7.24 g/m*3 12.7 C 0 km/h
2400 10-04-2009 01:29:59 12.7 C 7.35 g/m*3 12.7 C 0 km/h
Sensor: Nr:Datum:Temp:Abs-Feuchte:Windchill:Wind:
Aussen-T/F 2401 10-04-2009 01:41:59 12.8 C 7.39 g/m*3 12.8 C 0 km/h
2402 10-04-2009 01:53:59 12.8 C 7.39 g/m*3 12.8 C 0 km/h
2403 10-04-2009 02:05:59 12.7 C 7.35 g/m*3 12.7 C 0 km/h
2404 10-04-2009 02:17:59 12.3 C 7.38 g/m*3 12.3 C 0 km/h
2405 10-04-2009 02:29:59 12.4 C 7.43 g/m*3 12.4 C 0 km/h
2406 10-04-2009 02:41:59 12.5 C 7.37 g/m*3 12.5 C 0 km/h
2407 10-04-2009 02:53:59 12.5 C 7.37 g/m*3 12.5 C 0 km/h
2408 10-04-2009 03:06:00 12.4 C 7.32 g/m*3 12.4 C 0 km/h
2409 10-04-2009 03:18:00 12.4 C 7.32 g/m*3 12.4 C 0 km/h
2410 10-04-2009 03:30:00 12.4 C 7.43 g/m*3 12.4 C 0 km/h
2411 10-04-2009 03:42:00 12.4 C 7.43 g/m*3 12.4 C 0 km/h
2412 10-04-2009 03:54:00 12.2 C 7.34 g/m*3 12.2 C 0 km/h
2413 10-04-2009 04:06:00 12.2 C 7.34 g/m*3 12.2 C 0 km/h
2414 10-04-2009 04:18:00 12.1 C 7.4 g/m*3 12.1 C 0 km/h
2415 10-04-2009 04:30:00 12.1 C 7.4 g/m*3 12.1 C 0 km/h
2416 10-04-2009 04:42:00 12.1 C 7.4 g/m*3 12.1 C 0 km/h
2417 10-04-2009 04:54:00 12.1 C 7.4 g/m*3 12.1 C 0 km/h
2418 10-04-2009 05:06:00 12 C 7.35 g/m*3 12 C 0 km/h
2419 10-04-2009 05:18:00 11.9 C 7.41 g/m*3 11.9 C 0 km/h
2420 10-04-2009 05:30:00 11.9 C 7.52 g/m*3 11.9 C 0 km/h
2421 10-04-2009 05:42:00 11.7 C 7.53 g/m*3 11.7 C 0 km/h
2422 10-04-2009 05:54:00 11.8 C 7.58 g/m*3 11.8 C 0 km/h
2423 10-04-2009 06:06:00 11.6 C 7.59 g/m*3 11.6 C 0 km/h
2424 10-04-2009 06:18:00 11.5 C 7.64 g/m*3 11.5 C 0 km/h
2425 10-04-2009 06:30:00 11.4 C 7.6 g/m*3 11.4 C 0 km/h
Sensor: Nr:Datum:Temp:Abs-Feuchte:Windchill:Wind:
Aussen-T/F 2426 10-04-2009 06:42:00 11.3 C 7.55 g/m*3 11.3 C 0 km/h
2427 10-04-2009 06:54:00 11.3 C 7.65 g/m*3 11.3 C 0 km/h
2428 10-04-2009 07:06:00 11.1 C 7.55 g/m*3 11.1 C 0 km/h
2429 10-04-2009 07:18:01 11.1 C 7.66 g/m*3 11.1 C 0 km/h
2430 10-04-2009 07:30:01 11.1 C 7.66 g/m*3 11.1 C 0 km/h
2431 10-04-2009 07:30:58 11.3 C 7.75 g/m*3 11.3 C 0 km/h
2432 10-04-2009 07:42:58 11.4 C 7.7 g/m*3 11.4 C 0 km/h
2433 10-04-2009 07:54:58 11.5 C 7.75 g/m*3 11.5 C 0 km/h
2434 10-04-2009 08:06:58 11.7 C 7.84 g/m*3 11.7 C 0 km/h
2435 10-04-2009 08:18:58 12 C 7.89 g/m*3 12 C 0 km/h
2436 10-04-2009 08:30:58 12.3 C 7.93 g/m*3 12.3 C 0 km/h
2437 10-04-2009 08:42:58 12.9 C 8.11 g/m*3 12.9 C 0 km/h
2438 10-04-2009 08:54:58 13.2 C 7.81 g/m*3 13.2 C 0 km/h
2439 10-04-2009 09:06:58 13.6 C 7.89 g/m*3 13.6 C 0 km/h
2440 10-04-2009 09:18:57 13.8 C 7.86 g/m*3 13.8 C 0 km/h
2441 10-04-2009 09:30:57 13.9 C 7.79 g/m*3 13.9 C 0 km/h
2442 10-04-2009 09:42:57 14.3 C 7.86 g/m*3 14.3 C 0 km/h
2443 10-04-2009 09:54:57 14.9 C 7.77 g/m*3 14.9 C 0 km/h
2444 10-04-2009 10:06:57 15.5 C 7.8 g/m*3 15.5 C 0 km/h
2445 10-04-2009 10:18:56 16.2 C 7.72 g/m*3 16.2 C 0 km/h
2446 10-04-2009 10:30:57 16.8 C 7.72 g/m*3 16.8 C 0 km/h
2447 10-04-2009 10:42:57 17.4 C 7.41 g/m*3 17.4 C 0 km/h
2448 10-04-2009 10:54:56 17.8 C 7.59 g/m*3 17.8 C 0 km/h
2449 10-04-2009 11:06:57 18.5 C 7.12 g/m*3 18.5 C 0 km/h
2450 10-04-2009 11:18:56 19.2 C 6.76 g/m*3 19.2 C 0 km/h
Sensor: Nr:Datum:Temp:Abs-Feuchte:Windchill:Wind:
Aussen-T/F 2451 10-04-2009 11:30:56 19.7 C 6.79 g/m*3 19.7 C 0 km/h
2452 10-04-2009 11:42:56 20 C 6.57 g/m*3 20 C 0 km/h
2453 10-04-2009 11:54:56 20.4 C 6.72 g/m*3 20.4 C 0 km/h
2454 10-04-2009 12:06:56 21 C 6.41 g/m*3 21 C 0 km/h
2455 10-04-2009 12:18:56 21.7 C 6.87 g/m*3 21.7 C 0 km/h
2456 10-04-2009 12:30:55 22.1 C 6.25 g/m*3 22.1 C 0 km/h
2457 10-04-2009 12:42:55 22.6 C 6.43 g/m*3 22.6 C 0 km/h
2458 10-04-2009 12:54:56 23 C 6.37 g/m*3 23 C 0 km/h
2459 10-04-2009 13:06:55 23.2 C 6.24 g/m*3 23.2 C 0 km/h
2460 10-04-2009 13:18:55 23.4 C 5.89 g/m*3 23.4 C 0 km/h
2461 10-04-2009 13:30:55 24.1 C 5.91 g/m*3 24.1 C 0 km/h
2462 10-04-2009 13:42:55 24.7 C 5.66 g/m*3 24.7 C 0 km/h
2463 10-04-2009 13:54:55 24.9 C 5.26 g/m*3 24.9 C 0 km/h
2464 10-04-2009 14:06:54 25.5 C 5.45 g/m*3 25.5 C 0 km/h
2465 10-04-2009 14:18:55 25 C 4.83 g/m*3 25 C 0 km/h
2466 10-04-2009 14:30:55 25.9 C 4.84 g/m*3 25.9 C 0 km/h
2467 10-04-2009 14:42:55 26.5 C 5.01 g/m*3 26.5 C 0 km/h
2468 10-04-2009 14:54:54 26.7 C 5.06 g/m*3 26.7 C 0 km/h
2469 10-04-2009 15:06:54 27.4 C 5.26 g/m*3 27.4 C 0 km/h
2470 10-04-2009 15:18:54 27.5 C 5.29 g/m*3 27.5 C 0 km/h
2471 10-04-2009 15:30:54 27.9 C 5.41 g/m*3 27.9 C 0 km/h
2472 10-04-2009 15:42:54 28.4 C 5.56 g/m*3 28.4 C 0 km/h
2473 10-04-2009 15:54:53 28.5 C 5.59 g/m*3 28.5 C 0 km/h
2474 10-04-2009 16:06:54 28.9 C 5.71 g/m*3 28.9 C 0 km/h
2475 10-04-2009 16:18:53 28.8 C 5.68 g/m*3 28.8 C 0 km/h
Sensor: Nr:Datum:Temp:Abs-Feuchte:Windchill:Wind:
Aussen-T/F 2476 10-04-2009 16:30:53 28.3 C 5.53 g/m*3 28.3 C 0 km/h
2477 10-04-2009 16:42:53 28.1 C 5.47 g/m*3 28.1 C 0 km/h
2478 10-04-2009 16:54:53 27.9 C 5.41 g/m*3 27.9 C 0 km/h
2479 10-04-2009 17:06:53 28.9 C 5.71 g/m*3 28.9 C 0 km/h
2480 10-04-2009 17:18:53 29.3 C 5.84 g/m*3 29.3 C 0 km/h
2481 10-04-2009 17:30:52 29.6 C 5.94 g/m*3 29.6 C 0 km/h
2482 10-04-2009 17:42:52 29.9 C 6.03 g/m*3 29.9 C 0 km/h
2483 10-04-2009 17:54:53 28.9 C 5.71 g/m*3 28.9 C 0 km/h
2484 10-04-2009 18:06:52 28.5 C 5.59 g/m*3 28.5 C 0 km/h
2485 10-04-2009 18:18:52 28.1 C 5.47 g/m*3 28.1 C 0 km/h
2486 10-04-2009 18:30:52 26.3 C 4.95 g/m*3 26.3 C 0 km/h
2487 10-04-2009 18:42:52 26.9 C 5.12 g/m*3 26.9 C 0 km/h
2488 10-04-2009 18:54:52 27.2 C 5.2 g/m*3 27.2 C 0 km/h
2489 10-04-2009 19:06:52 27 C 5.15 g/m*3 27 C 0 km/h
2490 10-04-2009 19:18:52 27.1 C 5.18 g/m*3 27.1 C 0 km/h
2491 10-04-2009 19:30:52 26.7 C 5.06 g/m*3 26.7 C 0 km/h
2492 10-04-2009 19:42:52 25.6 C 5 g/m*3 25.6 C 0 km/h
2493 10-04-2009 19:54:51 24.1 C 5.25 g/m*3 24.1 C 0 km/h
2494 10-04-2009 20:06:52 22.8 C 5.28 g/m*3 22.8 C 0 km/h
2495 10-04-2009 20:18:51 22 C 5.43 g/m*3 22 C 0 km/h
2496 10-04-2009 20:30:51 21.2 C 5.56 g/m*3 21.2 C 0 km/h
2497 10-04-2009 20:42:51 20.8 C 5.79 g/m*3 20.8 C 0 km/h
2498 10-04-2009 20:54:50 20.4 C 6.01 g/m*3 20.4 C 0 km/h
2499 10-04-2009 21:06:50 19.8 C 6.15 g/m*3 19.8 C 0 km/h
2500 10-04-2009 21:18:51 19.7 C 6.28 g/m*3 19.7 C 0 km/h
Sensor: Nr:Datum:Temp:Abs-Feuchte:Windchill:Wind:
Aussen-T/F 2501 10-04-2009 21:30:51 19.5 C 6.38 g/m*3 19.5 C 0 km/h
2502 10-04-2009 21:42:51 19.2 C 6.27 g/m*3 19.2 C 0 km/h
2503 10-04-2009 21:54:50 18.7 C 6.4 g/m*3 18.7 C 0 km/h
2504 10-04-2009 22:06:51 18.5 C 6.33 g/m*3 18.5 C 0 km/h
2505 10-04-2009 22:18:50 18.3 C 6.41 g/m*3 18.3 C 0 km/h
2506 10-04-2009 22:31:51 18 C 6.3 g/m*3 18 C 0 km/h
2507 10-04-2009 22:43:51 17.7 C 6.49 g/m*3 17.7 C 0 km/h
2508 10-04-2009 22:55:51 17.4 C 6.52 g/m*3 17.4 C 0 km/h
2509 10-04-2009 23:07:51 17.1 C 6.4 g/m*3 17.1 C 0 km/h
2510 10-04-2009 23:19:51 16.8 C 6.58 g/m*3 16.8 C 0 km/h
2511 10-04-2009 23:31:51 16.7 C 6.68 g/m*3 16.7 C 0 km/h
2512 10-04-2009 23:43:51 16.3 C 6.38 g/m*3 16.3 C 0 km/h
2513 10-04-2009 23:55:51 16 C 6.54 g/m*3 16 C 0 km/h
2514 11-04-2009 00:07:51 15.7 C 6.69 g/m*3 15.7 C 0 km/h
2515 11-04-2009 00:19:51 15.3 C 6.66 g/m*3 15.3 C 0 km/h
2516 11-04-2009 00:31:51 15.2 C 6.62 g/m*3 15.2 C 0 km/h
2517 11-04-2009 00:43:51 15 C 6.67 g/m*3 15 C 0 km/h
2518 11-04-2009 00:55:51 14.7 C 6.92 g/m*3 14.7 C 0 km/h
2519 11-04-2009 01:07:51 14.5 C 6.84 g/m*3 14.5 C 0 km/h
2520 11-04-2009 01:19:51 14 C 6.88 g/m*3 14 C 0 km/h
2521 11-04-2009 01:31:51 13.8 C 7.03 g/m*3 13.8 C 0 km/h
2522 11-04-2009 01:43:51 13.6 C 7.06 g/m*3 13.6 C 0 km/h
2523 11-04-2009 01:55:51 13.5 C 7.02 g/m*3 13.5 C 0 km/h
2524 11-04-2009 02:07:51 13.4 C 6.86 g/m*3 13.4 C 0 km/h
2525 11-04-2009 02:19:52 13.2 C 6.77 g/m*3 13.2 C 0 km/h
Sensor: Nr:Datum:Temp:Abs-Feuchte:Windchill:Wind:
Aussen-T/F 2526 11-04-2009 02:31:52 13 C 6.92 g/m*3 13 C 0 km/h
2527 11-04-2009 02:43:52 13 C 7.03 g/m*3 13 C 0 km/h
2528 11-04-2009 02:55:52 12.5 C 7.04 g/m*3 12.5 C 0 km/h
2529 11-04-2009 03:07:52 12.4 C 6.99 g/m*3 12.4 C 0 km/h
2530 11-04-2009 03:19:52 12.3 C 6.95 g/m*3 12.3 C 0 km/h
2531 11-04-2009 03:31:52 12 C 6.93 g/m*3 12 C 0 km/h
2532 11-04-2009 03:43:52 11.7 C 7.11 g/m*3 11.7 C 0 km/h
2533 11-04-2009 03:55:52 11.4 C 7.08 g/m*3 11.4 C 0 km/h
2534 11-04-2009 04:07:52 11.3 C 7.04 g/m*3 11.3 C 0 km/h
2535 11-04-2009 04:19:52 11.1 C 7.05 g/m*3 11.1 C 0 km/h
2536 11-04-2009 04:31:52 11.2 C 7.1 g/m*3 11.2 C 0 km/h
2537 11-04-2009 04:43:52 11.4 C 7.08 g/m*3 11.4 C 0 km/h
2538 11-04-2009 04:55:52 11.3 C 7.04 g/m*3 11.3 C 0 km/h
2539 11-04-2009 05:07:52 11.2 C 7.1 g/m*3 11.2 C 0 km/h
2540 11-04-2009 05:19:52 11.4 C 7.19 g/m*3 11.4 C 0 km/h
2541 11-04-2009 05:31:52 11.4 C 7.08 g/m*3 11.4 C 0 km/h
2542 11-04-2009 05:43:52 11.4 C 7.08 g/m*3 11.4 C 0 km/h
2543 11-04-2009 05:55:52 11.2 C 7.1 g/m*3 11.2 C 0 km/h
2544 11-04-2009 06:07:52 11 C 7.01 g/m*3 11 C 0 km/h
2545 11-04-2009 06:19:52 10.9 C 7.06 g/m*3 10.9 C 0 km/h
2546 11-04-2009 06:31:53 10.5 C 6.98 g/m*3 10.5 C 0 km/h
2547 11-04-2009 06:43:53 10.2 C 6.95 g/m*3 10.2 C 0 km/h
2548 11-04-2009 06:55:53 10.2 C 7.04 g/m*3 10.2 C 0 km/h
2549 11-04-2009 07:07:53 10.3 C 7.09 g/m*3 10.3 C 0 km/h
2550 11-04-2009 07:19:53 10.2 C 7.14 g/m*3 10.2 C 0 km/h
Sensor: Nr:Datum:Temp:Abs-Feuchte:Windchill:Wind:
Aussen-T/F 2551 11-04-2009 07:31:53 10.3 C 7.18 g/m*3 10.3 C 0 km/h
2552 11-04-2009 07:43:53 10.3 C 7.18 g/m*3 10.3 C 0 km/h
2553 11-04-2009 07:55:53 10.4 C 7.13 g/m*3 10.4 C 0 km/h
2554 11-04-2009 08:07:53 10.4 C 7.23 g/m*3 10.4 C 0 km/h
2555 11-04-2009 08:19:53 10.6 C 7.22 g/m*3 10.6 C 0 km/h
2556 11-04-2009 08:31:51 10.7 C 7.27 g/m*3 10.7 C 0 km/h
2557 11-04-2009 08:43:51 11.1 C 7.35 g/m*3 11.1 C 0 km/h
2558 11-04-2009 08:55:50 11.5 C 7.44 g/m*3 11.5 C 0 km/h
2559 11-04-2009 09:07:51 12.1 C 7.4 g/m*3 12.1 C 0 km/h
2560 11-04-2009 09:19:50 12.7 C 7.46 g/m*3 12.7 C 0 km/h
2561 11-04-2009 09:31:50 13.4 C 7.21 g/m*3 13.4 C 0 km/h
2562 11-04-2009 09:43:50 13.5 C 7.13 g/m*3 13.5 C 0 km/h
2563 11-04-2009 09:55:50 13.7 C 7.22 g/m*3 13.7 C 0 km/h
2564 11-04-2009 10:07:50 14.5 C 7.46 g/m*3 14.5 C 0 km/h
2565 11-04-2009 10:19:50 15.1 C 7.35 g/m*3 15.1 C 0 km/h
2566 11-04-2009 10:31:49 15.6 C 7.31 g/m*3 15.6 C 0 km/h
2567 11-04-2009 10:43:49 16.1 C 7.26 g/m*3 16.1 C 0 km/h
2568 11-04-2009 10:55:49 16.6 C 7.2 g/m*3 16.6 C 0 km/h
2569 11-04-2009 11:07:49 17.4 C 7.41 g/m*3 17.4 C 0 km/h
2570 11-04-2009 11:19:50 18.5 C 7.12 g/m*3 18.5 C 0 km/h
2571 11-04-2009 11:31:49 19.3 C 6.8 g/m*3 19.3 C 0 km/h
2572 11-04-2009 11:43:49 19.6 C 6.75 g/m*3 19.6 C 0 km/h
2573 11-04-2009 11:55:49 20 C 6.39 g/m*3 20 C 0 km/h
2574 11-04-2009 12:07:48 20.4 C 6.37 g/m*3 20.4 C 0 km/h
2575 11-04-2009 12:19:49 21.2 C 6.3 g/m*3 21.2 C 0 km/h
Sensor: Nr:Datum:Temp:Abs-Feuchte:Windchill:Wind:
Aussen-T/F 2576 11-04-2009 12:31:48 21.7 C 6.29 g/m*3 21.7 C 0 km/h
2577 11-04-2009 12:43:48 22.1 C 6.05 g/m*3 22.1 C 0 km/h
2578 11-04-2009 12:55:48 22.6 C 6.03 g/m*3 22.6 C 0 km/h
2579 11-04-2009 13:07:48 23.3 C 5.85 g/m*3 23.3 C 0 km/h
2580 11-04-2009 13:19:48 23.4 C 6.1 g/m*3 23.4 C 0 km/h
2581 11-04-2009 13:31:48 23.6 C 5.74 g/m*3 23.6 C 0 km/h
2582 11-04-2009 13:43:48 24.2 C 5.94 g/m*3 24.2 C 0 km/h
2583 11-04-2009 13:55:48 24.6 C 5.63 g/m*3 24.6 C 0 km/h
2584 11-04-2009 14:07:48 25.5 C 5.92 g/m*3 25.5 C 0 km/h
2585 11-04-2009 14:19:47 25.6 C 5.71 g/m*3 25.6 C 0 km/h
2586 11-04-2009 14:31:48 24.9 C 5.72 g/m*3 24.9 C 0 km/h
2587 11-04-2009 14:43:48 25.1 C 5.79 g/m*3 25.1 C 0 km/h
2588 11-04-2009 14:55:47 25.5 C 5.92 g/m*3 25.5 C 0 km/h
2589 11-04-2009 15:07:47 27.2 C 5.72 g/m*3 27.2 C 0 km/h
2590 11-04-2009 15:19:47 27 C 5.4 g/m*3 27 C 0 km/h
2591 11-04-2009 15:31:47 26.9 C 5.63 g/m*3 26.9 C 0 km/h
2592 11-04-2009 15:43:47 26.1 C 5.39 g/m*3 26.1 C 0 km/h
2593 11-04-2009 15:55:46 25.3 C 5.38 g/m*3 25.3 C 0 km/h
2594 11-04-2009 16:07:47 25.2 C 5.59 g/m*3 25.2 C 0 km/h
2595 11-04-2009 16:19:47 25.2 C 6.05 g/m*3 25.2 C 0 km/h
2596 11-04-2009 16:31:46 25.9 C 5.08 g/m*3 25.9 C 0 km/h
2597 11-04-2009 16:43:46 26.5 C 5.01 g/m*3 26.5 C 0 km/h
2598 11-04-2009 16:55:46 26 C 4.87 g/m*3 26 C 0 km/h
2599 11-04-2009 17:07:46 23.4 C 5.47 g/m*3 23.4 C 0 km/h
2600 11-04-2009 17:19:46 21.3 C 9.13 g/m*3 21.3 C 0 km/h
Sensor: Nr:Datum:Temp:Abs-Feuchte:Windchill:Wind:
Aussen-T/F 2601 11-04-2009 17:31:45 22.4 C 8.14 g/m*3 22.4 C 0 km/h
2602 11-04-2009 17:43:45 24.1 C 7.44 g/m*3 24.1 C 0 km/h
2603 11-04-2009 17:55:46 25.3 C 6.09 g/m*3 25.3 C 0 km/h
2604 11-04-2009 18:07:45 25.2 C 6.05 g/m*3 25.2 C 0 km/h
2605 11-04-2009 18:19:45 23.5 C 6.34 g/m*3 23.5 C 0 km/h
2606 11-04-2009 18:31:45 22.9 C 6.34 g/m*3 22.9 C 0 km/h
2607 11-04-2009 18:43:45 22.3 C 6.32 g/m*3 22.3 C 0 km/h
2608 11-04-2009 18:55:45 22 C 6.4 g/m*3 22 C 0 km/h
2609 11-04-2009 19:07:45 22.1 C 6.44 g/m*3 22.1 C 0 km/h
2610 11-04-2009 19:19:44 21.6 C 6.64 g/m*3 21.6 C 0 km/h
2611 11-04-2009 19:31:45 21.3 C 6.52 g/m*3 21.3 C 0 km/h
2612 11-04-2009 19:43:45 20.9 C 6.56 g/m*3 20.9 C 0 km/h
2613 11-04-2009 19:55:44 20.5 C 6.58 g/m*3 20.5 C 0 km/h
2614 11-04-2009 20:07:44 19.9 C 6.87 g/m*3 19.9 C 0 km/h
2615 11-04-2009 20:19:44 19.6 C 6.75 g/m*3 19.6 C 0 km/h
2616 11-04-2009 20:31:44 18.9 C 6.97 g/m*3 18.9 C 0 km/h
2617 11-04-2009 20:43:44 18.8 C 6.76 g/m*3 18.8 C 0 km/h
2618 11-04-2009 20:55:43 18.5 C 6.96 g/m*3 18.5 C 0 km/h
2619 11-04-2009 21:07:43 18.3 C 6.88 g/m*3 18.3 C 0 km/h
2620 11-04-2009 21:19:43 18.4 C 6.92 g/m*3 18.4 C 0 km/h
2621 11-04-2009 21:31:44 18.3 C 6.88 g/m*3 18.3 C 0 km/h
2622 11-04-2009 21:43:44 17.9 C 7.18 g/m*3 17.9 C 0 km/h
2623 11-04-2009 21:55:43 17.6 C 7.2 g/m*3 17.6 C 0 km/h
2624 11-04-2009 22:07:43 17.4 C 7.26 g/m*3 17.4 C 0 km/h
2625 11-04-2009 22:19:43 17.1 C 7.28 g/m*3 17.1 C 0 km/h
Sensor: Nr:Datum:Temp:Abs-Feuchte:Windchill:Wind:
Aussen-T/F 2626 11-04-2009 22:31:43 16.8 C 7.43 g/m*3 16.8 C 0 km/h
2627 11-04-2009 22:43:43 16.5 C 7.44 g/m*3 16.5 C 0 km/h
2628 11-04-2009 22:55:42 16.3 C 7.49 g/m*3 16.3 C 0 km/h
2629 11-04-2009 23:07:43 16.1 C 7.54 g/m*3 16.1 C 0 km/h
2630 11-04-2009 23:19:42 15.9 C 7.58 g/m*3 15.9 C 0 km/h
2631 11-04-2009 23:32:43 15.8 C 7.54 g/m*3 15.8 C 0 km/h
2632 11-04-2009 23:44:43 15.4 C 7.62 g/m*3 15.4 C 0 km/h
2633 11-04-2009 23:56:43 15.2 C 7.66 g/m*3 15.2 C 0 km/h
2634 12-04-2009 00:08:43 14.8 C 7.73 g/m*3 14.8 C 0 km/h
2635 12-04-2009 00:20:44 14.5 C 7.71 g/m*3 14.5 C 0 km/h
2636 12-04-2009 00:32:44 14.4 C 7.79 g/m*3 14.4 C 0 km/h
2637 12-04-2009 00:44:44 14.2 C 7.69 g/m*3 14.2 C 0 km/h
2638 12-04-2009 00:56:44 14 C 7.72 g/m*3 14 C 0 km/h
2639 12-04-2009 01:08:44 13.8 C 7.86 g/m*3 13.8 C 0 km/h
2640 12-04-2009 01:20:44 13.7 C 7.93 g/m*3 13.7 C 0 km/h
2641 12-04-2009 01:32:44 13.4 C 7.9 g/m*3 13.4 C 0 km/h
2642 12-04-2009 01:44:44 13.3 C 7.86 g/m*3 13.3 C 0 km/h
2643 12-04-2009 01:56:44 13.2 C 7.81 g/m*3 13.2 C 0 km/h
2644 12-04-2009 02:08:44 13.2 C 7.81 g/m*3 13.2 C 0 km/h
2645 12-04-2009 02:20:44 13 C 7.83 g/m*3 13 C 0 km/h
2646 12-04-2009 02:32:44 12.9 C 7.89 g/m*3 12.9 C 0 km/h
2647 12-04-2009 02:44:44 12.7 C 7.9 g/m*3 12.7 C 0 km/h
2648 12-04-2009 02:56:44 12.5 C 7.92 g/m*3 12.5 C 0 km/h
2649 12-04-2009 03:08:44 12.3 C 7.82 g/m*3 12.3 C 0 km/h
2650 12-04-2009 03:20:44 12.1 C 7.83 g/m*3 12.1 C 0 km/h
Sensor: Nr:Datum:Temp:Abs-Feuchte:Windchill:Wind:
Aussen-T/F 2651 12-04-2009 03:32:44 11.9 C 7.94 g/m*3 11.9 C 0 km/h
2652 12-04-2009 03:44:44 11.7 C 7.84 g/m*3 11.7 C 0 km/h
2653 12-04-2009 03:56:44 11.6 C 7.8 g/m*3 11.6 C 0 km/h
2654 12-04-2009 04:08:45 11.4 C 7.7 g/m*3 11.4 C 0 km/h
2655 12-04-2009 04:20:45 11.2 C 7.7 g/m*3 11.2 C 0 km/h
2656 12-04-2009 04:32:45 11.1 C 7.76 g/m*3 11.1 C 0 km/h
2657 12-04-2009 04:44:45 11 C 7.61 g/m*3 11 C 0 km/h
2658 12-04-2009 04:56:45 10.8 C 7.71 g/m*3 10.8 C 0 km/h
2659 12-04-2009 05:08:45 10.7 C 7.66 g/m*3 10.7 C 0 km/h
2660 12-04-2009 05:20:45 10.6 C 7.71 g/m*3 10.6 C 0 km/h
2661 12-04-2009 05:32:45 10.4 C 7.61 g/m*3 10.4 C 0 km/h
2662 12-04-2009 05:44:45 10.2 C 7.61 g/m*3 10.2 C 0 km/h
2663 12-04-2009 05:56:45 10.2 C 7.61 g/m*3 10.2 C 0 km/h
2664 12-04-2009 06:08:45 10 C 7.52 g/m*3 10 C 0 km/h
2665 12-04-2009 06:20:45 9.9 C 7.66 g/m*3 9.9 C 0 km/h
2666 12-04-2009 06:32:45 9.7 C 7.56 g/m*3 9.7 C 0 km/h
2667 12-04-2009 06:44:45 9.6 C 7.51 g/m*3 9.6 C 0 km/h
2668 12-04-2009 06:56:45 9.6 C 7.42 g/m*3 9.6 C 0 km/h
2669 12-04-2009 07:08:45 9.7 C 7.56 g/m*3 9.7 C 0 km/h
2670 12-04-2009 07:20:45 10 C 7.52 g/m*3 10 C 0 km/h
2671 12-04-2009 07:32:45 10.2 C 7.61 g/m*3 10.2 C 0 km/h
2672 12-04-2009 07:44:45 10.5 C 7.66 g/m*3 10.5 C 0 km/h
2673 12-04-2009 07:56:46 10.8 C 7.81 g/m*3 10.8 C 0 km/h
2674 12-04-2009 08:08:46 11.1 C 7.76 g/m*3 11.1 C 0 km/h
2675 12-04-2009 08:20:46 11.1 C 7.66 g/m*3 11.1 C 0 km/h
Sensor: Nr:Datum:Temp:Abs-Feuchte:Windchill:Wind:
Aussen-T/F 2676 12-04-2009 08:32:42 11.2 C 7.6 g/m*3 11.2 C 0 km/h
2677 12-04-2009 08:44:43 11.5 C 7.64 g/m*3 11.5 C 0 km/h
2678 12-04-2009 08:56:43 11.9 C 7.73 g/m*3 11.9 C 0 km/h
2679 12-04-2009 09:08:42 12.2 C 7.77 g/m*3 12.2 C 0 km/h
2680 12-04-2009 09:20:42 12.6 C 7.74 g/m*3 12.6 C 0 km/h
2681 12-04-2009 09:32:42 13 C 7.83 g/m*3 13 C 0 km/h
2682 12-04-2009 09:44:42 13.8 C 8.1 g/m*3 13.8 C 0 km/h
2683 12-04-2009 09:56:42 14.3 C 7.86 g/m*3 14.3 C 0 km/h
2684 12-04-2009 10:08:41 14.8 C 7.98 g/m*3 14.8 C 0 km/h
2685 12-04-2009 10:20:42 15.6 C 8.11 g/m*3 15.6 C 0 km/h
2686 12-04-2009 10:32:42 16.3 C 8.19 g/m*3 16.3 C 0 km/h
2687 12-04-2009 10:44:41 16.8 C 8.29 g/m*3 16.8 C 0 km/h
2688 12-04-2009 10:56:41 17.3 C 8.1 g/m*3 17.3 C 0 km/h
2689 12-04-2009 11:08:42 17.8 C 8.35 g/m*3 17.8 C 0 km/h
2690 12-04-2009 11:20:41 18.2 C 8.24 g/m*3 18.2 C 0 km/h
2691 12-04-2009 11:32:41 18.5 C 8.23 g/m*3 18.5 C 0 km/h
2692 12-04-2009 11:44:41 18.9 C 8.1 g/m*3 18.9 C 0 km/h
2693 12-04-2009 11:56:41 19.5 C 8.22 g/m*3 19.5 C 0 km/h
2694 12-04-2009 12:08:41 20.2 C 8.04 g/m*3 20.2 C 0 km/h
2695 12-04-2009 12:20:40 20.5 C 7.83 g/m*3 20.5 C 0 km/h
2696 12-04-2009 12:32:40 20.8 C 8.15 g/m*3 20.8 C 0 km/h
2697 12-04-2009 12:44:40 21.2 C 7.78 g/m*3 21.2 C 0 km/h
2698 12-04-2009 12:56:40 20.9 C 7.83 g/m*3 20.9 C 0 km/h
2699 12-04-2009 13:08:40 22.5 C 7.99 g/m*3 22.5 C 0 km/h
2700 12-04-2009 13:20:40 23 C 7.6 g/m*3 23 C 0 km/h
Sensor: Nr:Datum:Temp:Abs-Feuchte:Windchill:Wind:
Aussen-T/F 2701 12-04-2009 13:32:40 22.9 C 7.77 g/m*3 22.9 C 0 km/h
2702 12-04-2009 13:44:39 22.7 C 7.68 g/m*3 22.7 C 0 km/h
2703 12-04-2009 13:56:39 22.1 C 7.81 g/m*3 22.1 C 0 km/h
2704 12-04-2009 14:08:40 21.9 C 8.1 g/m*3 21.9 C 0 km/h
2705 12-04-2009 14:20:40 21.9 C 7.91 g/m*3 21.9 C 0 km/h
2706 12-04-2009 14:32:39 23 C 7.81 g/m*3 23 C 0 km/h
2707 12-04-2009 14:44:40 23.6 C 7.87 g/m*3 23.6 C 0 km/h
2708 12-04-2009 14:56:40 23.6 C 7.87 g/m*3 23.6 C 0 km/h
2709 12-04-2009 15:08:39 24.2 C 7.7 g/m*3 24.2 C 0 km/h
2710 12-04-2009 15:20:39 25.1 C 7.41 g/m*3 25.1 C 0 km/h
2711 12-04-2009 15:32:38 25.6 C 7.62 g/m*3 25.6 C 0 km/h
2712 12-04-2009 15:44:39 24.5 C 7.16 g/m*3 24.5 C 0 km/h
2713 12-04-2009 15:56:39 24 C 7.4 g/m*3 24 C 0 km/h
2714 12-04-2009 16:08:38 24.1 C 7.44 g/m*3 24.1 C 0 km/h
2715 12-04-2009 16:20:38 23.8 C 8.17 g/m*3 23.8 C 0 km/h
2716 12-04-2009 16:32:39 23.1 C 7.65 g/m*3 23.1 C 0 km/h
2717 12-04-2009 16:44:38 22.7 C 7.88 g/m*3 22.7 C 0 km/h
2718 12-04-2009 16:56:38 23.3 C 7.95 g/m*3 23.3 C 0 km/h
2719 12-04-2009 17:08:38 23.3 C 7.74 g/m*3 23.3 C 0 km/h
2720 12-04-2009 17:20:37 23.7 C 7.7 g/m*3 23.7 C 0 km/h
2721 12-04-2009 17:32:38 24 C 7.61 g/m*3 24 C 0 km/h
2722 12-04-2009 17:44:37 23.7 C 7.7 g/m*3 23.7 C 0 km/h
2723 12-04-2009 17:56:37 23.9 C 7.79 g/m*3 23.9 C 0 km/h
2724 12-04-2009 18:08:37 24 C 7.61 g/m*3 24 C 0 km/h
2725 12-04-2009 18:20:37 23.3 C 7.95 g/m*3 23.3 C 0 km/h
Sensor: Nr:Datum:Temp:Abs-Feuchte:Windchill:Wind:
Aussen-T/F 2726 12-04-2009 18:32:37 22.7 C 8.28 g/m*3 22.7 C 0 km/h
2727 12-04-2009 18:44:36 22.4 C 8.34 g/m*3 22.4 C 0 km/h
2728 12-04-2009 18:56:36 22 C 8.35 g/m*3 22 C 0 km/h
2729 12-04-2009 19:08:37 21.4 C 8.25 g/m*3 21.4 C 0 km/h
2730 12-04-2009 19:20:37 21 C 8.24 g/m*3 21 C 0 km/h
2731 12-04-2009 19:32:36 20.6 C 8.41 g/m*3 20.6 C 0 km/h
2732 12-04-2009 19:44:37 20.1 C 8.52 g/m*3 20.1 C 0 km/h
2733 12-04-2009 19:56:37 19.5 C 8.56 g/m*3 19.5 C 0 km/h
2734 12-04-2009 20:08:36 19.3 C 8.63 g/m*3 19.3 C 0 km/h
2735 12-04-2009 20:20:36 18.9 C 8.75 g/m*3 18.9 C 0 km/h
2736 12-04-2009 20:32:35 18.5 C 8.7 g/m*3 18.5 C 0 km/h
2737 12-04-2009 20:44:36 18.1 C 8.65 g/m*3 18.1 C 0 km/h
2738 12-04-2009 20:56:37 17.8 C 8.65 g/m*3 17.8 C 0 km/h
2739 12-04-2009 21:08:35 17.6 C 8.7 g/m*3 17.6 C 0 km/h
2740 12-04-2009 21:20:36 17.5 C 8.8 g/m*3 17.5 C 0 km/h
2741 12-04-2009 21:32:35 17.3 C 8.84 g/m*3 17.3 C 0 km/h
2742 12-04-2009 21:44:35 17.1 C 8.73 g/m*3 17.1 C 0 km/h
2743 12-04-2009 21:56:35 17 C 8.83 g/m*3 17 C 0 km/h
2744 12-04-2009 22:08:35 16.8 C 9.01 g/m*3 16.8 C 0 km/h
2745 12-04-2009 22:20:35 16.7 C 9.1 g/m*3 16.7 C 0 km/h
2746 12-04-2009 22:32:34 16.5 C 9.13 g/m*3 16.5 C 0 km/h
2747 12-04-2009 22:45:35 16.4 C 9.21 g/m*3 16.4 C 0 km/h
2748 12-04-2009 22:57:36 16.2 C 9.24 g/m*3 16.2 C 0 km/h
2749 12-04-2009 23:09:36 16.1 C 9.32 g/m*3 16.1 C 0 km/h
2750 12-04-2009 23:21:36 16 C 9.26 g/m*3 16 C 0 km/h
Sensor: Nr:Datum:Temp:Abs-Feuchte:Windchill:Wind:
Aussen-T/F 2751 12-04-2009 23:33:36 15.8 C 9.42 g/m*3 15.8 C 0 km/h
2752 12-04-2009 23:45:36 15.6 C 9.31 g/m*3 15.6 C 0 km/h
2753 12-04-2009 23:57:36 15.6 C 9.44 g/m*3 15.6 C 0 km/h
2754 13-04-2009 00:09:36 15.4 C 9.33 g/m*3 15.4 C 0 km/h
2755 13-04-2009 00:21:36 15.3 C 9.27 g/m*3 15.3 C 0 km/h
2756 13-04-2009 00:33:36 15 C 9.23 g/m*3 15 C 0 km/h
2757 13-04-2009 00:45:36 14.9 C 9.43 g/m*3 14.9 C 0 km/h
2758 13-04-2009 00:57:36 14.7 C 9.32 g/m*3 14.7 C 0 km/h
2759 13-04-2009 01:09:36 14.7 C 9.44 g/m*3 14.7 C 0 km/h
2760 13-04-2009 01:21:36 14.4 C 9.27 g/m*3 14.4 C 0 km/h
2761 13-04-2009 01:33:36 14.2 C 9.16 g/m*3 14.2 C 0 km/h
2762 13-04-2009 01:45:36 14 C 9.17 g/m*3 14 C 0 km/h
2763 13-04-2009 01:57:36 13.8 C 9.17 g/m*3 13.8 C 0 km/h
2764 13-04-2009 02:09:36 13.7 C 9.24 g/m*3 13.7 C 0 km/h
2765 13-04-2009 02:21:36 13.5 C 9.12 g/m*3 13.5 C 0 km/h
2766 13-04-2009 02:33:36 13.4 C 9.07 g/m*3 13.4 C 0 km/h
2767 13-04-2009 02:45:37 13.2 C 9.07 g/m*3 13.2 C 0 km/h
2768 13-04-2009 02:57:37 13.2 C 9.07 g/m*3 13.2 C 0 km/h
2769 13-04-2009 03:09:37 13.1 C 9.13 g/m*3 13.1 C 0 km/h
2770 13-04-2009 03:21:37 12.9 C 9.02 g/m*3 12.9 C 0 km/h
2771 13-04-2009 03:33:37 12.8 C 9.07 g/m*3 12.8 C 0 km/h
2772 13-04-2009 03:45:37 12.7 C 9.02 g/m*3 12.7 C 0 km/h
2773 13-04-2009 03:57:37 12.7 C 9.13 g/m*3 12.7 C 0 km/h
2774 13-04-2009 04:09:37 12.6 C 9.07 g/m*3 12.6 C 0 km/h
2775 13-04-2009 04:21:37 12.5 C 8.91 g/m*3 12.5 C 0 km/h
Sensor: Nr:Datum:Temp:Abs-Feuchte:Windchill:Wind:
Aussen-T/F 2776 13-04-2009 04:33:37 12.2 C 8.74 g/m*3 12.2 C 0 km/h
2777 13-04-2009 04:45:37 12 C 8.74 g/m*3 12 C 0 km/h
2778 13-04-2009 04:57:37 12.1 C 8.79 g/m*3 12.1 C 0 km/h
2779 13-04-2009 05:09:37 12.3 C 9.01 g/m*3 12.3 C 0 km/h
2780 13-04-2009 05:21:37 12.4 C 8.96 g/m*3 12.4 C 0 km/h
2781 13-04-2009 05:33:37 12.4 C 8.85 g/m*3 12.4 C 0 km/h
2782 13-04-2009 05:45:37 12.5 C 8.91 g/m*3 12.5 C 0 km/h
2783 13-04-2009 05:57:37 12.5 C 8.91 g/m*3 12.5 C 0 km/h
2784 13-04-2009 06:09:37 12.5 C 8.91 g/m*3 12.5 C 0 km/h
2785 13-04-2009 06:21:37 12.7 C 9.02 g/m*3 12.7 C 0 km/h
2786 13-04-2009 06:33:38 12.7 C 8.91 g/m*3 12.7 C 0 km/h
2787 13-04-2009 06:45:38 12.8 C 9.07 g/m*3 12.8 C 0 km/h
2788 13-04-2009 06:57:38 13 C 9.19 g/m*3 13 C 0 km/h
2789 13-04-2009 07:09:38 13.1 C 9.24 g/m*3 13.1 C 0 km/h
2790 13-04-2009 07:21:38 13.4 C 9.42 g/m*3 13.4 C 0 km/h
2791 13-04-2009 07:33:38 13.6 C 9.53 g/m*3 13.6 C 0 km/h
2792 13-04-2009 07:45:38 13.7 C 9.59 g/m*3 13.7 C 0 km/h
2793 13-04-2009 07:57:38 13.9 C 9.71 g/m*3 13.9 C 0 km/h
2794 13-04-2009 08:09:35 13.9 C 9.71 g/m*3 13.9 C 0 km/h
2795 13-04-2009 08:21:35 13.8 C 9.65 g/m*3 13.8 C 0 km/h
2796 13-04-2009 08:33:35 13.7 C 9.71 g/m*3 13.7 C 0 km/h
2797 13-04-2009 08:45:35 13.3 C 9.59 g/m*3 13.3 C 0 km/h
2798 13-04-2009 08:57:35 13.5 C 9.83 g/m*3 13.5 C 0 km/h
2799 13-04-2009 09:09:34 13.6 C 9.89 g/m*3 13.6 C 0 km/h
2800 13-04-2009 09:21:35 13.7 C 9.95 g/m*3 13.7 C 0 km/h
Sensor: Nr:Datum:Temp:Abs-Feuchte:Windchill:Wind:
Aussen-T/F 2801 13-04-2009 09:33:34 13.8 C 9.89 g/m*3 13.8 C 0 km/h
2802 13-04-2009 09:45:34 14.1 C 9.95 g/m*3 14.1 C 0 km/h
2803 13-04-2009 09:57:34 14.3 C 9.95 g/m*3 14.3 C 0 km/h
2804 13-04-2009 10:09:33 14.3 C 9.71 g/m*3 14.3 C 0 km/h
2805 13-04-2009 10:21:34 14.4 C 9.77 g/m*3 14.4 C 0 km/h
2806 13-04-2009 10:33:33 14.4 C 9.64 g/m*3 14.4 C 0 km/h
2807 13-04-2009 10:45:34 14.2 C 9.65 g/m*3 14.2 C 0 km/h
2808 13-04-2009 10:57:34 14.3 C 9.71 g/m*3 14.3 C 0 km/h
2809 13-04-2009 11:09:33 14.6 C 9.76 g/m*3 14.6 C 0 km/h
2810 13-04-2009 11:21:33 14.4 C 9.64 g/m*3 14.4 C 0 km/h
2811 13-04-2009 11:33:33 14.5 C 9.7 g/m*3 14.5 C 0 km/h
2812 13-04-2009 11:45:33 14.5 C 9.58 g/m*3 14.5 C 0 km/h
2813 13-04-2009 11:57:33 15.1 C 9.68 g/m*3 15.1 C 0 km/h
2814 13-04-2009 12:09:33 15.3 C 9.53 g/m*3 15.3 C 0 km/h
2815 13-04-2009 12:21:32 15.6 C 9.58 g/m*3 15.6 C 0 km/h
2816 13-04-2009 12:33:33 15.8 C 9.29 g/m*3 15.8 C 0 km/h
2817 13-04-2009 12:45:32 15.9 C 9.21 g/m*3 15.9 C 0 km/h
2818 13-04-2009 12:57:32 16.7 C 8.95 g/m*3 16.7 C 0 km/h
2819 13-04-2009 13:09:32 16.2 C 8.83 g/m*3 16.2 C 0 km/h
2820 13-04-2009 13:21:32 16.4 C 8.79 g/m*3 16.4 C 0 km/h
2821 13-04-2009 13:33:32 17.5 C 8.8 g/m*3 17.5 C 0 km/h
2822 13-04-2009 13:45:31 18 C 8.6 g/m*3 18 C 0 km/h
2823 13-04-2009 13:57:31 17.6 C 8.85 g/m*3 17.6 C 0 km/h
2824 13-04-2009 14:09:32 18.3 C 8.6 g/m*3 18.3 C 0 km/h
2825 13-04-2009 14:21:31 18.1 C 8.5 g/m*3 18.1 C 0 km/h
Sensor: Nr:Datum:Temp:Abs-Feuchte:Windchill:Wind:
Aussen-T/F 2826 13-04-2009 14:33:31 18.3 C 8.6 g/m*3 18.3 C 0 km/h
2827 13-04-2009 14:45:31 19.2 C 8.41 g/m*3 19.2 C 0 km/h
2828 13-04-2009 14:57:31 19.9 C 8.59 g/m*3 19.9 C 0 km/h
2829 13-04-2009 15:09:31 19.8 C 8.54 g/m*3 19.8 C 0 km/h
2830 13-04-2009 15:21:31 20 C 8.64 g/m*3 20 C 0 km/h
2831 13-04-2009 15:33:31 20.3 C 8.79 g/m*3 20.3 C 0 km/h
2832 13-04-2009 15:45:30 19.9 C 8.59 g/m*3 19.9 C 0 km/h
2833 13-04-2009 15:57:30 19.7 C 8.66 g/m*3 19.7 C 0 km/h
2834 13-04-2009 16:09:31 20.3 C 8.62 g/m*3 20.3 C 0 km/h
2835 13-04-2009 16:21:30 20.5 C 8.54 g/m*3 20.5 C 0 km/h
2836 13-04-2009 16:33:30 20.3 C 8.44 g/m*3 20.3 C 0 km/h
2837 13-04-2009 16:45:29 20.8 C 8.69 g/m*3 20.8 C 0 km/h
2838 13-04-2009 16:57:29 21.2 C 8.34 g/m*3 21.2 C 0 km/h
2839 13-04-2009 17:09:30 21.1 C 8.48 g/m*3 21.1 C 0 km/h
2840 13-04-2009 17:21:30 21 C 8.24 g/m*3 21 C 0 km/h
2841 13-04-2009 17:33:29 20.5 C 8.36 g/m*3 20.5 C 0 km/h
2842 13-04-2009 17:45:30 20.8 C 8.51 g/m*3 20.8 C 0 km/h
2843 13-04-2009 17:57:30 21.1 C 8.29 g/m*3 21.1 C 0 km/h
2844 13-04-2009 18:09:29 20.3 C 8.44 g/m*3 20.3 C 0 km/h
2845 13-04-2009 18:21:29 20 C 8.3 g/m*3 20 C 0 km/h
2846 13-04-2009 18:33:29 19.2 C 8.41 g/m*3 19.2 C 0 km/h
2847 13-04-2009 18:45:29 19.4 C 8.68 g/m*3 19.4 C 0 km/h
2848 13-04-2009 18:57:30 19.3 C 8.46 g/m*3 19.3 C 0 km/h
2849 13-04-2009 19:09:28 19.1 C 8.2 g/m*3 19.1 C 0 km/h
2850 13-04-2009 19:21:29 18.9 C 8.42 g/m*3 18.9 C 0 km/h
Sensor: Nr:Datum:Temp:Abs-Feuchte:Windchill:Wind:
Aussen-T/F 2851 13-04-2009 19:33:29 18.6 C 8.44 g/m*3 18.6 C 0 km/h
2852 13-04-2009 19:45:28 18.3 C 8.44 g/m*3 18.3 C 0 km/h
2853 13-04-2009 19:57:28 18 C 8.6 g/m*3 18 C 0 km/h
2854 13-04-2009 20:09:28 17.9 C 8.86 g/m*3 17.9 C 0 km/h
2855 13-04-2009 20:21:28 17.5 C 8.95 g/m*3 17.5 C 0 km/h
2856 13-04-2009 20:33:28 17.1 C 8.73 g/m*3 17.1 C 0 km/h
2857 13-04-2009 20:45:27 16.7 C 8.95 g/m*3 16.7 C 0 km/h
2858 13-04-2009 20:57:27 16.7 C 8.95 g/m*3 16.7 C 0 km/h
2859 13-04-2009 21:09:27 16.4 C 8.93 g/m*3 16.4 C 0 km/h
2860 13-04-2009 21:21:28 16.1 C 8.91 g/m*3 16.1 C 0 km/h
2861 13-04-2009 21:33:27 15.7 C 8.96 g/m*3 15.7 C 0 km/h
2862 13-04-2009 21:45:27 15.4 C 8.93 g/m*3 15.4 C 0 km/h
2863 13-04-2009 21:57:27 14.9 C 8.92 g/m*3 14.9 C 0 km/h
2864 13-04-2009 22:09:27 14.6 C 9.01 g/m*3 14.6 C 0 km/h
2865 13-04-2009 22:21:27 14.5 C 8.95 g/m*3 14.5 C 0 km/h
2866 13-04-2009 22:33:27 14.4 C 9.02 g/m*3 14.4 C 0 km/h
2867 13-04-2009 22:46:40 14.2 C 8.91 g/m*3 14.2 C 0 km/h
2868 13-04-2009 22:58:40 14.1 C 8.98 g/m*3 14.1 C 0 km/h
2869 13-04-2009 23:10:40 14.2 C 9.04 g/m*3 14.2 C 0 km/h
2870 13-04-2009 23:22:41 14.1 C 8.98 g/m*3 14.1 C 0 km/h
2871 13-04-2009 23:34:41 14 C 9.05 g/m*3 14 C 0 km/h
2872 13-04-2009 23:46:41 13.9 C 9.11 g/m*3 13.9 C 0 km/h
2873 13-04-2009 23:58:41 13.7 C 9 g/m*3 13.7 C 0 km/h
2874 14-04-2009 00:10:41 13.7 C 9 g/m*3 13.7 C 0 km/h
2875 14-04-2009 00:22:41 13.5 C 8.89 g/m*3 13.5 C 0 km/h
Sensor: Nr:Datum:Temp:Abs-Feuchte:Windchill:Wind:
Aussen-T/F 2876 14-04-2009 00:34:41 13.3 C 8.66 g/m*3 13.3 C 0 km/h
2877 14-04-2009 00:46:41 13.2 C 8.73 g/m*3 13.2 C 0 km/h
2878 14-04-2009 00:58:41 13.1 C 8.67 g/m*3 13.1 C 0 km/h
2879 14-04-2009 01:10:41 12.8 C 8.74 g/m*3 12.8 C 0 km/h
2880 14-04-2009 01:22:41 12.5 C 8.69 g/m*3 12.5 C 0 km/h
2881 14-04-2009 01:34:41 12.3 C 8.58 g/m*3 12.3 C 0 km/h
2882 14-04-2009 01:46:41 12.1 C 8.58 g/m*3 12.1 C 0 km/h
2883 14-04-2009 01:58:41 11.9 C 8.58 g/m*3 11.9 C 0 km/h
2884 14-04-2009 02:10:41 11.8 C 8.63 g/m*3 11.8 C 0 km/h
2885 14-04-2009 02:22:41 11.6 C 8.52 g/m*3 11.6 C 0 km/h
2886 14-04-2009 02:34:41 11.4 C 8.42 g/m*3 11.4 C 0 km/h
2887 14-04-2009 02:46:41 11.3 C 8.47 g/m*3 11.3 C 0 km/h
2888 14-04-2009 02:58:41 11.1 C 8.36 g/m*3 11.1 C 0 km/h
2889 14-04-2009 03:10:42 11 C 8.31 g/m*3 11 C 0 km/h
2890 14-04-2009 03:22:42 10.8 C 8.3 g/m*3 10.8 C 0 km/h
2891 14-04-2009 03:34:42 10.7 C 8.25 g/m*3 10.7 C 0 km/h
2892 14-04-2009 03:46:42 10.7 C 8.25 g/m*3 10.7 C 0 km/h
2893 14-04-2009 03:58:42 10.5 C 8.15 g/m*3 10.5 C 0 km/h
2894 14-04-2009 04:10:42 10.4 C 8.1 g/m*3 10.4 C 0 km/h
2895 14-04-2009 04:22:42 10.3 C 8.04 g/m*3 10.3 C 0 km/h
2896 14-04-2009 04:34:42 10 C 7.99 g/m*3 10 C 0 km/h
2897 14-04-2009 04:46:42 9.8 C 7.98 g/m*3 9.8 C 0 km/h
2898 14-04-2009 04:58:42 9.7 C 7.93 g/m*3 9.7 C 0 km/h
2899 14-04-2009 05:10:42 9.7 C 8.02 g/m*3 9.7 C 0 km/h
2900 14-04-2009 05:22:42 9.7 C 8.02 g/m*3 9.7 C 0 km/h
Sensor: Nr:Datum:Temp:Abs-Feuchte:Windchill:Wind:
Aussen-T/F 2901 14-04-2009 05:34:42 9.7 C 8.02 g/m*3 9.7 C 0 km/h
2902 14-04-2009 05:46:42 9.8 C 8.16 g/m*3 9.8 C 0 km/h
2903 14-04-2009 05:58:42 9.8 C 8.07 g/m*3 9.8 C 0 km/h
2904 14-04-2009 06:10:42 9.8 C 8.07 g/m*3 9.8 C 0 km/h
2905 14-04-2009 06:22:42 9.7 C 8.02 g/m*3 9.7 C 0 km/h
2906 14-04-2009 06:34:42 9.8 C 8.07 g/m*3 9.8 C 0 km/h
2907 14-04-2009 06:46:42 9.6 C 7.97 g/m*3 9.6 C 0 km/h
2908 14-04-2009 06:58:42 9.6 C 7.97 g/m*3 9.6 C 0 km/h
2909 14-04-2009 07:10:43 9.7 C 8.02 g/m*3 9.7 C 0 km/h
2910 14-04-2009 07:22:43 9.9 C 8.12 g/m*3 9.9 C 0 km/h
2911 14-04-2009 07:34:28 9.7 C 7.93 g/m*3 9.7 C 0 km/h
2912 14-04-2009 07:46:28 9.3 C 7.73 g/m*3 9.3 C 0 km/h
2913 14-04-2009 07:58:28 9.3 C 7.82 g/m*3 9.3 C 0 km/h
2914 14-04-2009 08:10:28 9.4 C 7.96 g/m*3 9.4 C 0 km/h
2915 14-04-2009 08:22:28 9.7 C 8.11 g/m*3 9.7 C 0 km/h
2916 14-04-2009 08:34:27 10.1 C 8.13 g/m*3 10.1 C 0 km/h
2917 14-04-2009 08:46:27 9.9 C 8.03 g/m*3 9.9 C 0 km/h
2918 14-04-2009 08:58:27 10.1 C 7.94 g/m*3 10.1 C 0 km/h
2919 14-04-2009 09:10:27 10.1 C 7.94 g/m*3 10.1 C 0 km/h
2920 14-04-2009 09:22:27 10.1 C 7.94 g/m*3 10.1 C 0 km/h
2921 14-04-2009 09:34:27 10.2 C 7.99 g/m*3 10.2 C 0 km/h
2922 14-04-2009 09:46:27 10.6 C 8.2 g/m*3 10.6 C 0 km/h
2923 14-04-2009 09:58:27 11 C 8.21 g/m*3 11 C 0 km/h
2924 14-04-2009 10:10:27 11.4 C 8.31 g/m*3 11.4 C 0 km/h
2925 14-04-2009 10:22:26 12 C 8.53 g/m*3 12 C 0 km/h
Sensor: Nr:Datum:Temp:Abs-Feuchte:Windchill:Wind:
Aussen-T/F 2926 14-04-2009 10:34:26 12.4 C 8.41 g/m*3 12.4 C 0 km/h
2927 14-04-2009 10:46:27 12.8 C 8.62 g/m*3 12.8 C 0 km/h
2928 14-04-2009 10:58:27 13.3 C 8.9 g/m*3 13.3 C 0 km/h
2929 14-04-2009 11:10:26 13.7 C 8.88 g/m*3 13.7 C 0 km/h
2930 14-04-2009 11:22:26 13.8 C 8.82 g/m*3 13.8 C 0 km/h
2931 14-04-2009 11:34:25 14 C 8.68 g/m*3 14 C 0 km/h
2932 14-04-2009 11:46:26 14.3 C 8.72 g/m*3 14.3 C 0 km/h
2933 14-04-2009 11:58:27 14.8 C 8.87 g/m*3 14.8 C 0 km/h
2934 14-04-2009 12:10:25 15.8 C 8.88 g/m*3 15.8 C 0 km/h
2935 14-04-2009 12:22:25 16.6 C 8.48 g/m*3 16.6 C 0 km/h
2936 14-04-2009 12:34:26 16.1 C 8.64 g/m*3 16.1 C 0 km/h
2937 14-04-2009 12:46:25 16.3 C 8.74 g/m*3 16.3 C 0 km/h
2938 14-04-2009 12:58:25 16.7 C 8.81 g/m*3 16.7 C 0 km/h
2939 14-04-2009 13:10:25 17.7 C 8.6 g/m*3 17.7 C 0 km/h
2940 14-04-2009 13:22:25 18.8 C 8.21 g/m*3 18.8 C 0 km/h
2941 14-04-2009 13:34:25 19.6 C 7.93 g/m*3 19.6 C 0 km/h
2942 14-04-2009 13:46:24 20.4 C 7.96 g/m*3 20.4 C 0 km/h
2943 14-04-2009 13:58:24 21.2 C 7.78 g/m*3 21.2 C 0 km/h
2944 14-04-2009 14:10:25 22.2 C 7.66 g/m*3 22.2 C 0 km/h
2945 14-04-2009 14:22:24 23.1 C 7.44 g/m*3 23.1 C 0 km/h
2946 14-04-2009 14:34:24 23.7 C 7.91 g/m*3 23.7 C 0 km/h
2947 14-04-2009 14:46:24 24.5 C 7.61 g/m*3 24.5 C 0 km/h
2948 14-04-2009 14:58:24 24.9 C 7.55 g/m*3 24.9 C 0 km/h
2949 14-04-2009 15:10:24 25.6 C 7.62 g/m*3 25.6 C 0 km/h
2950 14-04-2009 15:22:24 25.6 C 7.14 g/m*3 25.6 C 0 km/h
Sensor: Nr:Datum:Temp:Abs-Feuchte:Windchill:Wind:
Aussen-T/F 2951 14-04-2009 15:34:23 25.8 C 6.98 g/m*3 25.8 C 0 km/h
2952 14-04-2009 15:46:24 26.4 C 6.47 g/m*3 26.4 C 0 km/h
2953 14-04-2009 15:58:24 27.2 C 6.77 g/m*3 27.2 C 0 km/h
2954 14-04-2009 16:10:23 26.7 C 5.82 g/m*3 26.7 C 0 km/h
2955 14-04-2009 16:22:23 27.3 C 5.49 g/m*3 27.3 C 0 km/h
2956 14-04-2009 16:34:23 27.3 C 5.49 g/m*3 27.3 C 0 km/h
2957 14-04-2009 16:46:23 27 C 5.4 g/m*3 27 C 0 km/h
2958 14-04-2009 16:58:24 28.4 C 5.84 g/m*3 28.4 C 0 km/h
2959 14-04-2009 17:10:22 28.4 C 5.56 g/m*3 28.4 C 0 km/h
2960 14-04-2009 17:22:22 27.9 C 5.41 g/m*3 27.9 C 0 km/h
2961 14-04-2009 17:34:23 27.4 C 5.26 g/m*3 27.4 C 0 km/h
2962 14-04-2009 17:46:22 26.6 C 5.03 g/m*3 26.6 C 0 km/h
2963 14-04-2009 17:58:22 26.5 C 5.26 g/m*3 26.5 C 0 km/h
2964 14-04-2009 18:10:22 27.3 C 5.23 g/m*3 27.3 C 0 km/h
2965 14-04-2009 18:22:22 26 C 4.87 g/m*3 26 C 0 km/h
2966 14-04-2009 18:34:22 25.1 C 5.32 g/m*3 25.1 C 0 km/h
2967 14-04-2009 18:46:21 24.8 C 5.24 g/m*3 24.8 C 0 km/h
2968 14-04-2009 18:58:21 24.2 C 5.5 g/m*3 24.2 C 0 km/h
2969 14-04-2009 19:10:22 24.7 C 5.88 g/m*3 24.7 C 0 km/h
2970 14-04-2009 19:22:21 22.8 C 5.49 g/m*3 22.8 C 0 km/h
2971 14-04-2009 19:34:21 22.5 C 5.79 g/m*3 22.5 C 0 km/h
2972 14-04-2009 19:46:21 22.1 C 5.86 g/m*3 22.1 C 0 km/h
2973 14-04-2009 19:58:21 21.4 C 6.19 g/m*3 21.4 C 0 km/h
2974 14-04-2009 20:10:21 20.5 C 6.41 g/m*3 20.5 C 0 km/h
2975 14-04-2009 20:22:21 19.3 C 6.3 g/m*3 19.3 C 0 km/h
Sensor: Nr:Datum:Temp:Abs-Feuchte:Windchill:Wind:
Aussen-T/F 2976 14-04-2009 20:34:20 18.5 C 6.17 g/m*3 18.5 C 0 km/h
2977 14-04-2009 20:46:21 17.9 C 6.11 g/m*3 17.9 C 0 km/h
2978 14-04-2009 20:58:21 17.7 C 6.19 g/m*3 17.7 C 0 km/h
2979 14-04-2009 21:10:21 17.4 C 6.52 g/m*3 17.4 C 0 km/h
2980 14-04-2009 21:22:20 17.3 C 6.63 g/m*3 17.3 C 0 km/h
2981 14-04-2009 21:34:20 17.2 C 6.74 g/m*3 17.2 C 0 km/h
2982 14-04-2009 21:46:20 16.9 C 6.47 g/m*3 16.9 C 0 km/h
2983 14-04-2009 21:58:20 16.6 C 6.36 g/m*3 16.6 C 0 km/h
2984 14-04-2009 22:10:20 16.3 C 6.24 g/m*3 16.3 C 0 km/h
2985 14-04-2009 22:22:19 15.9 C 6.37 g/m*3 15.9 C 0 km/h
2986 14-04-2009 22:34:19 15.7 C 6.42 g/m*3 15.7 C 0 km/h
2987 14-04-2009 22:46:20 15.4 C 6.31 g/m*3 15.4 C 0 km/h
2988 14-04-2009 22:58:20 15.1 C 6.45 g/m*3 15.1 C 0 km/h
2989 14-04-2009 23:10:19 14.6 C 6.76 g/m*3 14.6 C 0 km/h
2990 14-04-2009 23:22:19 14.3 C 6.63 g/m*3 14.3 C 0 km/h
2991 14-04-2009 23:34:19 14.2 C 6.72 g/m*3 14.2 C 0 km/h
2992 14-04-2009 23:46:19 13.9 C 6.71 g/m*3 13.9 C 0 km/h
2993 14-04-2009 23:58:19 13.8 C 6.67 g/m*3 13.8 C 0 km/h
2994 15-04-2009 00:10:18 13.6 C 6.71 g/m*3 13.6 C 0 km/h
2995 15-04-2009 00:22:18 13.2 C 6.66 g/m*3 13.2 C 0 km/h
2996 15-04-2009 00:34:19 13.1 C 6.73 g/m*3 13.1 C 0 km/h
2997 15-04-2009 00:46:18 12.9 C 6.76 g/m*3 12.9 C 0 km/h
2998 15-04-2009 00:58:18 12.5 C 6.71 g/m*3 12.5 C 0 km/h
2999 15-04-2009 01:11:19 12.3 C 6.73 g/m*3 12.3 C 0 km/h
3000 15-04-2009 01:23:19 12.1 C 6.76 g/m*3 12.1 C 0 km/h
Sensor: Nr:Datum:Temp:Abs-Feuchte:Windchill:Wind:
Aussen-T/F 3001 15-04-2009 01:35:19 11.8 C 6.74 g/m*3 11.8 C 0 km/h
3002 15-04-2009 01:47:19 11.7 C 6.69 g/m*3 11.7 C 0 km/h
3003 15-04-2009 01:59:19 11.5 C 6.71 g/m*3 11.5 C 0 km/h
3004 15-04-2009 02:11:19 11.2 C 6.69 g/m*3 11.2 C 0 km/h
3005 15-04-2009 02:23:19 11.2 C 6.79 g/m*3 11.2 C 0 km/h
3006 15-04-2009 02:35:19 10.9 C 6.76 g/m*3 10.9 C 0 km/h
3007 15-04-2009 02:47:19 10.7 C 6.68 g/m*3 10.7 C 0 km/h
3008 15-04-2009 02:59:19 10.6 C 6.73 g/m*3 10.6 C 0 km/h
3009 15-04-2009 03:11:19 10.4 C 6.75 g/m*3 10.4 C 0 km/h
3010 15-04-2009 03:23:20 10.2 C 6.66 g/m*3 10.2 C 0 km/h
3011 15-04-2009 03:35:20 10 C 6.67 g/m*3 10 C 0 km/h
3012 15-04-2009 03:47:20 9.8 C 6.68 g/m*3 9.8 C 0 km/h
3013 15-04-2009 03:59:20 9.7 C 6.73 g/m*3 9.7 C 0 km/h
3014 15-04-2009 04:11:20 9.6 C 6.78 g/m*3 9.6 C 0 km/h
3015 15-04-2009 04:23:20 9.4 C 6.78 g/m*3 9.4 C 0 km/h
3016 15-04-2009 04:35:20 9.3 C 6.83 g/m*3 9.3 C 0 km/h
3017 15-04-2009 04:47:20 9.3 C 6.83 g/m*3 9.3 C 0 km/h
3018 15-04-2009 04:59:20 9 C 6.7 g/m*3 9 C 0 km/h
3019 15-04-2009 05:11:20 8.9 C 6.75 g/m*3 8.9 C 0 km/h
3020 15-04-2009 05:23:20 8.9 C 6.75 g/m*3 8.9 C 0 km/h
3021 15-04-2009 05:35:20 8.7 C 6.66 g/m*3 8.7 C 0 km/h
3022 15-04-2009 05:47:20 8.6 C 6.62 g/m*3 8.6 C 0 km/h
3023 15-04-2009 05:59:20 8.5 C 6.57 g/m*3 8.5 C 0 km/h
3024 15-04-2009 06:11:20 8.3 C 6.66 g/m*3 8.3 C 0 km/h
3025 15-04-2009 06:23:20 8.2 C 6.62 g/m*3 8.2 C 0 km/h
Sensor: Nr:Datum:Temp:Abs-Feuchte:Windchill:Wind:
Aussen-T/F 3026 15-04-2009 06:35:20 8.1 C 6.57 g/m*3 8.1 C 0 km/h
3027 15-04-2009 06:47:20 8.1 C 6.57 g/m*3 8.1 C 0 km/h
3028 15-04-2009 06:59:20 8 C 6.61 g/m*3 8 C 0 km/h
3029 15-04-2009 07:11:21 8 C 6.61 g/m*3 8 C 0 km/h
3030 15-04-2009 07:23:21 8 C 6.61 g/m*3 8 C 0 km/h
3031 15-04-2009 07:35:21 8.1 C 6.66 g/m*3 8.1 C 0 km/h
3032 15-04-2009 07:47:21 8.3 C 6.74 g/m*3 8.3 C 0 km/h
3033 15-04-2009 07:59:21 8.4 C 6.79 g/m*3 8.4 C 0 km/h
3034 15-04-2009 08:11:21 8.6 C 6.87 g/m*3 8.6 C 0 km/h
3035 15-04-2009 08:23:21 8.7 C 6.92 g/m*3 8.7 C 0 km/h
3036 15-04-2009 08:35:21 9.1 C 7.01 g/m*3 9.1 C 0 km/h
3037 15-04-2009 08:47:21 9.4 C 7.05 g/m*3 9.4 C 0 km/h
3038 15-04-2009 08:59:21 9.8 C 7.24 g/m*3 9.8 C 0 km/h
3039 15-04-2009 09:11:19 10.2 C 7.14 g/m*3 10.2 C 0 km/h
3040 15-04-2009 09:23:18 10.6 C 7.32 g/m*3 10.6 C 0 km/h
3041 15-04-2009 09:35:19 11.1 C 7.35 g/m*3 11.1 C 0 km/h
3042 15-04-2009 09:47:18 11.8 C 7.58 g/m*3 11.8 C 0 km/h
3043 15-04-2009 09:59:18 12.3 C 7.38 g/m*3 12.3 C 0 km/h
3044 15-04-2009 10:11:18 12.6 C 7.41 g/m*3 12.6 C 0 km/h
3045 15-04-2009 10:23:19 13.3 C 7.51 g/m*3 13.3 C 0 km/h
3046 15-04-2009 10:35:18 14 C 7.48 g/m*3 14 C 0 km/h
3047 15-04-2009 10:47:18 14.7 C 7.68 g/m*3 14.7 C 0 km/h
3048 15-04-2009 10:59:18 15.4 C 7.75 g/m*3 15.4 C 0 km/h
3049 15-04-2009 11:11:18 16.2 C 7.58 g/m*3 16.2 C 0 km/h
3050 15-04-2009 11:23:18 17 C 7.67 g/m*3 17 C 0 km/h
Sensor: Nr:Datum:Temp:Abs-Feuchte:Windchill:Wind:
Aussen-T/F 3051 15-04-2009 11:35:17 17.6 C 7.5 g/m*3 17.6 C 0 km/h
3052 15-04-2009 11:47:17 18.5 C 7.59 g/m*3 18.5 C 0 km/h
3053 15-04-2009 11:59:17 19.4 C 7.67 g/m*3 19.4 C 0 km/h
3054 15-04-2009 12:11:17 20.4 C 7.25 g/m*3 20.4 C 0 km/h
3055 15-04-2009 12:23:17 21 C 7.14 g/m*3 21 C 0 km/h
3056 15-04-2009 12:35:17 21.6 C 7.02 g/m*3 21.6 C 0 km/h
3057 15-04-2009 12:47:17 22.5 C 6.79 g/m*3 22.5 C 0 km/h
3058 15-04-2009 12:59:17 23 C 5.14 g/m*3 23 C 0 km/h
3059 15-04-2009 13:11:17 23.8 C 5.38 g/m*3 23.8 C 0 km/h
3060 15-04-2009 13:23:16 24.4 C 4.45 g/m*3 24.4 C 0 km/h
3061 15-04-2009 13:35:16 24.9 C 4.58 g/m*3 24.9 C 0 km/h
3062 15-04-2009 13:47:16 25.1 C 4.63 g/m*3 25.1 C 0 km/h
3063 15-04-2009 13:59:16 25.7 C 4.79 g/m*3 25.7 C 0 km/h
3064 15-04-2009 14:11:16 26.3 C 4.95 g/m*3 26.3 C 0 km/h
3065 15-04-2009 14:23:15 26.4 C 4.98 g/m*3 26.4 C 0 km/h
3066 15-04-2009 14:35:16 27 C 5.15 g/m*3 27 C 0 km/h
3067 15-04-2009 14:47:16 27.5 C 5.29 g/m*3 27.5 C 0 km/h
3068 15-04-2009 14:59:16 27.3 C 5.23 g/m*3 27.3 C 0 km/h
3069 15-04-2009 15:11:15 27.7 C 5.35 g/m*3 27.7 C 0 km/h
3070 15-04-2009 15:23:16 27.5 C 5.29 g/m*3 27.5 C 0 km/h
3071 15-04-2009 15:35:15 27.8 C 5.38 g/m*3 27.8 C 0 km/h
3072 15-04-2009 15:47:15 28.6 C 5.62 g/m*3 28.6 C 0 km/h
3073 15-04-2009 15:59:15 29.2 C 5.81 g/m*3 29.2 C 0 km/h
3074 15-04-2009 16:11:15 28.5 C 5.59 g/m*3 28.5 C 0 km/h
3075 15-04-2009 16:23:15 29.2 C 5.81 g/m*3 29.2 C 0 km/h
Sensor: Nr:Datum:Temp:Abs-Feuchte:Windchill:Wind:
Aussen-T/F 3076 15-04-2009 16:35:15 28.6 C 5.62 g/m*3 28.6 C 0 km/h
3077 15-04-2009 16:47:15 27.8 C 5.38 g/m*3 27.8 C 0 km/h
3078 15-04-2009 16:59:15 28.4 C 5.56 g/m*3 28.4 C 0 km/h
3079 15-04-2009 17:11:14 29.1 C 5.78 g/m*3 29.1 C 0 km/h
3080 15-04-2009 17:23:14 28.1 C 5.47 g/m*3 28.1 C 0 km/h
3081 15-04-2009 17:35:14 28.2 C 5.5 g/m*3 28.2 C 0 km/h
3082 15-04-2009 17:47:14 28.3 C 5.53 g/m*3 28.3 C 0 km/h
3083 15-04-2009 17:59:14 27 C 5.15 g/m*3 27 C 0 km/h
3084 15-04-2009 18:11:14 26.4 C 4.98 g/m*3 26.4 C 0 km/h
3085 15-04-2009 18:23:13 26.1 C 4.9 g/m*3 26.1 C 0 km/h
3086 15-04-2009 18:35:14 25.6 C 4.76 g/m*3 25.6 C 0 km/h
3087 15-04-2009 18:47:13 25.1 C 4.63 g/m*3 25.1 C 0 km/h
3088 15-04-2009 18:59:13 24.2 C 4.62 g/m*3 24.2 C 0 km/h
3089 15-04-2009 19:11:13 23.7 C 4.92 g/m*3 23.7 C 0 km/h
3090 15-04-2009 19:23:13 22.9 C 5.11 g/m*3 22.9 C 0 km/h
3091 15-04-2009 19:35:13 22.1 C 4.88 g/m*3 22.1 C 0 km/h
3092 15-04-2009 19:47:13 21.3 C 4.66 g/m*3 21.3 C 0 km/h
3093 15-04-2009 19:59:13 20.8 C 4.89 g/m*3 20.8 C 0 km/h
3094 15-04-2009 20:11:13 20.3 C 4.75 g/m*3 20.3 C 0 km/h
3095 15-04-2009 20:23:13 19.7 C 5.26 g/m*3 19.7 C 0 km/h
3096 15-04-2009 20:35:12 19.1 C 5.08 g/m*3 19.1 C 0 km/h
3097 15-04-2009 20:47:12 18.7 C 5.12 g/m*3 18.7 C 0 km/h
3098 15-04-2009 20:59:12 18.5 C 4.9 g/m*3 18.5 C 0 km/h
3099 15-04-2009 21:11:13 18.2 C 5.28 g/m*3 18.2 C 0 km/h
3100 15-04-2009 21:23:12 18 C 5.22 g/m*3 18 C 0 km/h
Sensor: Nr:Datum:Temp:Abs-Feuchte:Windchill:Wind:
Aussen-T/F 3101 15-04-2009 21:35:12 17.7 C 4.98 g/m*3 17.7 C 0 km/h
3102 15-04-2009 21:47:11 17.3 C 5.3 g/m*3 17.3 C 0 km/h
3103 15-04-2009 21:59:11 17 C 5.35 g/m*3 17 C 0 km/h
3104 15-04-2009 22:11:12 16.6 C 5.37 g/m*3 16.6 C 0 km/h
3105 15-04-2009 22:23:11 16.3 C 5.41 g/m*3 16.3 C 0 km/h
3106 15-04-2009 22:35:11 16 C 5.31 g/m*3 16 C 0 km/h
3107 15-04-2009 22:48:13 15.8 C 5.38 g/m*3 15.8 C 0 km/h
3108 15-04-2009 23:00:13 15.7 C 5.49 g/m*3 15.7 C 0 km/h
3109 15-04-2009 23:12:13 15.6 C 5.32 g/m*3 15.6 C 0 km/h
3110 15-04-2009 23:24:13 15.2 C 5.32 g/m*3 15.2 C 0 km/h
3111 15-04-2009 23:36:13 15.1 C 5.42 g/m*3 15.1 C 0 km/h
3112 15-04-2009 23:48:13 14.8 C 5.57 g/m*3 14.8 C 0 km/h
3113 16-04-2009 00:00:13 14.3 C 5.53 g/m*3 14.3 C 0 km/h
3114 16-04-2009 00:12:14 14.1 C 5.7 g/m*3 14.1 C 0 km/h
3115 16-04-2009 00:24:14 13.8 C 6.08 g/m*3 13.8 C 0 km/h
3116 16-04-2009 00:36:14 13.6 C 5.88 g/m*3 13.6 C 0 km/h
3117 16-04-2009 00:48:14 13.3 C 5.78 g/m*3 13.3 C 0 km/h
3118 16-04-2009 01:00:14 13.1 C 5.71 g/m*3 13.1 C 0 km/h
3119 16-04-2009 01:12:14 12.9 C 5.86 g/m*3 12.9 C 0 km/h
3120 16-04-2009 01:24:14 12.7 C 5.9 g/m*3 12.7 C 0 km/h
3121 16-04-2009 01:36:14 12.6 C 5.97 g/m*3 12.6 C 0 km/h
3122 16-04-2009 01:48:14 12.6 C 5.97 g/m*3 12.6 C 0 km/h
3123 16-04-2009 02:00:14 12.6 C 5.97 g/m*3 12.6 C 0 km/h
3124 16-04-2009 02:12:14 12.3 C 5.97 g/m*3 12.3 C 0 km/h
3125 16-04-2009 02:24:14 12.2 C 6.04 g/m*3 12.2 C 0 km/h
Sensor: Nr:Datum:Temp:Abs-Feuchte:Windchill:Wind:
Aussen-T/F 3126 16-04-2009 02:36:14 12 C 6.07 g/m*3 12 C 0 km/h
3127 16-04-2009 02:48:14 11.7 C 6.07 g/m*3 11.7 C 0 km/h
3128 16-04-2009 03:00:14 11.5 C 6.09 g/m*3 11.5 C 0 km/h
3129 16-04-2009 03:12:14 11.4 C 6.16 g/m*3 11.4 C 0 km/h
3130 16-04-2009 03:24:14 11.2 C 6.18 g/m*3 11.2 C 0 km/h
3131 16-04-2009 03:36:14 11.1 C 6.14 g/m*3 11.1 C 0 km/h
3132 16-04-2009 03:48:14 11.2 C 6.39 g/m*3 11.2 C 0 km/h
3133 16-04-2009 04:00:14 11.2 C 6.39 g/m*3 11.2 C 0 km/h
3134 16-04-2009 04:12:14 12.6 C 5.97 g/m*3 12.6 C 0 km/h
3135 16-04-2009 04:24:15 13 C 5.9 g/m*3 13 C 0 km/h
3136 16-04-2009 04:36:15 12.9 C 5.97 g/m*3 12.9 C 0 km/h
3137 16-04-2009 04:48:15 12.4 C 6.01 g/m*3 12.4 C 0 km/h
3138 16-04-2009 05:00:15 12.1 C 5.9 g/m*3 12.1 C 0 km/h
3139 16-04-2009 05:12:15 11.7 C 5.96 g/m*3 11.7 C 0 km/h
3140 16-04-2009 05:24:15 11.3 C 5.92 g/m*3 11.3 C 0 km/h
3141 16-04-2009 05:36:15 11.2 C 6.08 g/m*3 11.2 C 0 km/h
3142 16-04-2009 05:48:15 11.1 C 6.04 g/m*3 11.1 C 0 km/h
3143 16-04-2009 06:00:15 11.1 C 6.14 g/m*3 11.1 C 0 km/h
3144 16-04-2009 06:12:15 11.1 C 6.25 g/m*3 11.1 C 0 km/h
3145 16-04-2009 06:24:15 11.1 C 6.35 g/m*3 11.1 C 0 km/h
3146 16-04-2009 06:36:15 11.1 C 6.35 g/m*3 11.1 C 0 km/h
3147 16-04-2009 06:48:15 11.1 C 6.25 g/m*3 11.1 C 0 km/h
3148 16-04-2009 07:00:15 10.9 C 6.27 g/m*3 10.9 C 0 km/h
3149 16-04-2009 07:12:15 10.8 C 6.42 g/m*3 10.8 C 0 km/h
3150 16-04-2009 07:24:15 10.7 C 6.38 g/m*3 10.7 C 0 km/h
Sensor: Nr:Datum:Temp:Abs-Feuchte:Windchill:Wind:
Aussen-T/F 3151 16-04-2009 07:36:13 10.8 C 6.33 g/m*3 10.8 C 0 km/h
3152 16-04-2009 07:48:12 10.8 C 6.23 g/m*3 10.8 C 0 km/h
3153 16-04-2009 08:00:12 11 C 6.21 g/m*3 11 C 0 km/h
3154 16-04-2009 08:12:12 11 C 6.11 g/m*3 11 C 0 km/h
3155 16-04-2009 08:24:12 11.4 C 6.26 g/m*3 11.4 C 0 km/h
3156 16-04-2009 08:36:12 12 C 6.18 g/m*3 12 C 0 km/h
3157 16-04-2009 08:48:11 12.3 C 6.19 g/m*3 12.3 C 0 km/h
3158 16-04-2009 09:00:12 12.6 C 6.31 g/m*3 12.6 C 0 km/h
3159 16-04-2009 09:12:12 13 C 6.24 g/m*3 13 C 0 km/h
3160 16-04-2009 09:24:12 13.4 C 6.39 g/m*3 13.4 C 0 km/h
3161 16-04-2009 09:36:11 13.9 C 6.47 g/m*3 13.9 C 0 km/h
3162 16-04-2009 09:48:12 14.5 C 6.59 g/m*3 14.5 C 0 km/h
3163 16-04-2009 10:00:11 15 C 6.54 g/m*3 15 C 0 km/h
3164 16-04-2009 10:12:11 15.6 C 6.52 g/m*3 15.6 C 0 km/h
3165 16-04-2009 10:24:11 16 C 6.4 g/m*3 16 C 0 km/h
3166 16-04-2009 10:36:10 16.4 C 6.42 g/m*3 16.4 C 0 km/h
3167 16-04-2009 10:48:11 16.7 C 6.54 g/m*3 16.7 C 0 km/h
3168 16-04-2009 11:00:10 17.4 C 6.67 g/m*3 17.4 C 0 km/h
3169 16-04-2009 11:12:10 17.9 C 6.72 g/m*3 17.9 C 0 km/h
3170 16-04-2009 11:24:10 18.3 C 6.41 g/m*3 18.3 C 0 km/h
3171 16-04-2009 11:36:11 19.2 C 6.76 g/m*3 19.2 C 0 km/h
3172 16-04-2009 11:48:10 19.2 C 6.43 g/m*3 19.2 C 0 km/h
3173 16-04-2009 12:00:10 19.2 C 6.6 g/m*3 19.2 C 0 km/h
3174 16-04-2009 12:12:10 19.5 C 6.38 g/m*3 19.5 C 0 km/h
3175 16-04-2009 12:24:10 19.3 C 6.3 g/m*3 19.3 C 0 km/h
Sensor: Nr:Datum:Temp:Abs-Feuchte:Windchill:Wind:
Aussen-T/F 3176 16-04-2009 12:36:10 20 C 6.05 g/m*3 20 C 0 km/h
3177 16-04-2009 12:48:09 19.7 C 6.11 g/m*3 19.7 C 0 km/h
3178 16-04-2009 13:00:09 20.8 C 6.34 g/m*3 20.8 C 0 km/h
3179 16-04-2009 13:12:09 21.3 C 6.15 g/m*3 21.3 C 0 km/h
3180 16-04-2009 13:24:09 21.8 C 5.95 g/m*3 21.8 C 0 km/h
3181 16-04-2009 13:36:10 21.6 C 5.5 g/m*3 21.6 C 0 km/h
3182 16-04-2009 13:48:09 20.2 C 5.6 g/m*3 20.2 C 0 km/h
3183 16-04-2009 14:00:09 21.1 C 5.9 g/m*3 21.1 C 0 km/h
3184 16-04-2009 14:12:09 20.6 C 5.55 g/m*3 20.6 C 0 km/h
3185 16-04-2009 14:24:08 20.6 C 5.55 g/m*3 20.6 C 0 km/h
3186 16-04-2009 14:36:08 21.3 C 5.59 g/m*3 21.3 C 0 km/h
3187 16-04-2009 14:48:09 21.9 C 5.21 g/m*3 21.9 C 0 km/h
3188 16-04-2009 15:00:08 21.6 C 5.31 g/m*3 21.6 C 0 km/h
3189 16-04-2009 15:12:08 21.9 C 5.21 g/m*3 21.9 C 0 km/h
3190 16-04-2009 15:24:08 21.2 C 5.37 g/m*3 21.2 C 0 km/h
3191 16-04-2009 15:36:08 20.9 C 5.65 g/m*3 20.9 C 0 km/h
3192 16-04-2009 15:48:08 20 C 6.57 g/m*3 20 C 0 km/h
3193 16-04-2009 16:00:07 19.5 C 7.05 g/m*3 19.5 C 0 km/h
3194 16-04-2009 16:12:07 19.2 C 6.93 g/m*3 19.2 C 0 km/h
3195 16-04-2009 16:24:07 19.1 C 6.88 g/m*3 19.1 C 0 km/h
3196 16-04-2009 16:36:08 19 C 6.84 g/m*3 19 C 0 km/h
3197 16-04-2009 16:48:07 18.9 C 6.97 g/m*3 18.9 C 0 km/h
3198 16-04-2009 17:00:07 18.5 C 7.12 g/m*3 18.5 C 0 km/h
3199 16-04-2009 17:12:07 18.1 C 6.95 g/m*3 18.1 C 0 km/h
3200 16-04-2009 17:24:07 18.1 C 7.11 g/m*3 18.1 C 0 km/h
Sensor: Nr:Datum:Temp:Abs-Feuchte:Windchill:Wind:
Aussen-T/F 3201 16-04-2009 17:36:07 17.9 C 7.02 g/m*3 17.9 C 0 km/h
3202 16-04-2009 17:48:06 17.8 C 7.13 g/m*3 17.8 C 0 km/h
3203 16-04-2009 18:00:07 17.8 C 7.13 g/m*3 17.8 C 0 km/h
3204 16-04-2009 18:12:08 17.2 C 7.32 g/m*3 17.2 C 0 km/h
3205 16-04-2009 18:24:06 16.3 C 7.35 g/m*3 16.3 C 0 km/h
3206 16-04-2009 18:36:06 15.7 C 7.89 g/m*3 15.7 C 0 km/h
3207 16-04-2009 18:48:06 15.3 C 8.1 g/m*3 15.3 C 0 km/h
3208 16-04-2009 19:00:06 15.1 C 7.87 g/m*3 15.1 C 0 km/h
3209 16-04-2009 19:12:06 15.2 C 7.79 g/m*3 15.2 C 0 km/h
3210 16-04-2009 19:24:06 14.5 C 7.71 g/m*3 14.5 C 0 km/h
3211 16-04-2009 19:36:05 14.3 C 7.74 g/m*3 14.3 C 0 km/h
3212 16-04-2009 19:48:06 14.1 C 7.89 g/m*3 14.1 C 0 km/h
3213 16-04-2009 20:00:05 13.8 C 8.1 g/m*3 13.8 C 0 km/h
3214 16-04-2009 20:12:05 13.4 C 8.02 g/m*3 13.4 C 0 km/h
3215 16-04-2009 20:24:05 13.1 C 7.99 g/m*3 13.1 C 0 km/h
3216 16-04-2009 20:36:05 13.3 C 8.09 g/m*3 13.3 C 0 km/h
3217 16-04-2009 20:48:05 13.2 C 8.04 g/m*3 13.2 C 0 km/h
3218 16-04-2009 21:00:05 13.1 C 7.99 g/m*3 13.1 C 0 km/h
3219 16-04-2009 21:12:05 13 C 8.05 g/m*3 13 C 0 km/h
3220 16-04-2009 21:24:04 12.9 C 8.11 g/m*3 12.9 C 0 km/h
3221 16-04-2009 21:36:05 13 C 8.05 g/m*3 13 C 0 km/h
3222 16-04-2009 21:48:04 13.2 C 7.92 g/m*3 13.2 C 0 km/h
3223 16-04-2009 22:00:04 13.2 C 7.92 g/m*3 13.2 C 0 km/h
3224 16-04-2009 22:12:04 13.1 C 7.87 g/m*3 13.1 C 0 km/h
3225 16-04-2009 22:24:03 13.1 C 7.87 g/m*3 13.1 C 0 km/h
Sensor: Nr:Datum:Temp:Abs-Feuchte:Windchill:Wind:
Aussen-T/F 3226 16-04-2009 22:37:05 13.1 C 7.87 g/m*3 13.1 C 0 km/h
3227 16-04-2009 22:49:05 13.1 C 7.87 g/m*3 13.1 C 0 km/h
3228 16-04-2009 23:01:06 12.9 C 7.78 g/m*3 12.9 C 0 km/h
3229 16-04-2009 23:13:06 12.8 C 7.84 g/m*3 12.8 C 0 km/h
3230 16-04-2009 23:25:06 12.8 C 7.84 g/m*3 12.8 C 0 km/h
3231 16-04-2009 23:37:06 12.7 C 7.79 g/m*3 12.7 C 0 km/h
3232 16-04-2009 23:49:06 12.6 C 7.74 g/m*3 12.6 C 0 km/h
3233 17-04-2009 00:01:06 12.5 C 7.7 g/m*3 12.5 C 0 km/h
3234 17-04-2009 00:13:06 12.4 C 7.87 g/m*3 12.4 C 0 km/h
3235 17-04-2009 00:25:06 12.1 C 7.94 g/m*3 12.1 C 0 km/h
3236 17-04-2009 00:37:06 11.7 C 8.26 g/m*3 11.7 C 0 km/h
3237 17-04-2009 00:49:06 11.2 C 8.41 g/m*3 11.2 C 0 km/h
3238 17-04-2009 01:01:06 11 C 8.61 g/m*3 11 C 0 km/h
3239 17-04-2009 01:13:06 11 C 8.71 g/m*3 11 C 0 km/h